Darstellungsparameter: Aktuell verwendete Einstellungen:
Skalierung der Graphiken ... ?
xyx+y,   Skalierungsfaktor:      Skalierung: Modus: x, Faktor: 1
Darstellungszeitraum ... ?
Vom - - bis: - -   Zeitraum: 16.01.2017 - 16.07.2017
Min/Max/Avg-Anzeige ... ?
Zeige MMA aktuell
Zeige MMA Monat
Zeige MMA alles
Zeige --A aktuell
Zeige --A Monat
Zeige --A alles
Keine MMA-Anzeige
MMA:
Minimum Maximum Average (ber die Originaldaten)
MMA-Basis: 16.01.2017 - 16.07.2017
Quicknavigation für Darstellung... ?
Tage:      1T, 2T, 3T, 5T -1T -2T -3T -5T +1T +2T +3T +5T
Wochen: 1W, 2W, 3W -1W -2W -3W +1W +2W +3W
Monate: 1M, 3M, 6M -1M -3M -6M +1M +3M +6M
Jahre:    1J, 3J, 5J, 10J -1J -3J -5J -10J +1J +3J +5J +10J
Nutze für die Darstellung ... ?
Originaldaten oder Mittelwerte auf ...
Stundenbasis Tagesbasis Wochenbasis
Monatsbasis Jahresbasis      Datenbasis: Original-Daten
Darstellen als:
Statistik (Auto) Statistik J:M      Darstellung:
Zur Graphik,    zurück zur Übersicht aller Sensoren.
 
Tabellarische Datenbersicht: ?
 
Sensor: Nr:Datum:Temp:Abs-Feuchte:Windchill:Wind:
Aussen-T/F 1 16-01-2017 00:00:00 -0.3 C 4.46 g/m*3 -0.3 C 0 km/h
2 16-01-2017 00:05:00 -0.4 C 4.43 g/m*3 -0.4 C 0 km/h
3 16-01-2017 00:10:00 -0.6 C 4.37 g/m*3 -0.6 C 1.6 km/h
4 16-01-2017 00:15:00 -0.6 C 4.37 g/m*3 -0.6 C 1.6 km/h
5 16-01-2017 00:20:00 -0.6 C 4.37 g/m*3 -0.6 C 1.6 km/h
6 16-01-2017 00:25:00 -0.6 C 4.42 g/m*3 -0.6 C 1.6 km/h
7 16-01-2017 00:30:00 -0.5 C 4.45 g/m*3 -0.5 C 3.2 km/h
8 16-01-2017 00:35:00 -0.4 C 4.48 g/m*3 -0.4 C 0 km/h
9 16-01-2017 00:40:00 -0.4 C 4.48 g/m*3 -0.4 C 0 km/h
10 16-01-2017 00:45:00 -0.4 C 4.48 g/m*3 -0.4 C 0 km/h
11 16-01-2017 00:50:00 -0.4 C 4.48 g/m*3 -0.4 C 0 km/h
12 16-01-2017 00:55:00 -0.4 C 4.48 g/m*3 -0.4 C 1.6 km/h
13 16-01-2017 01:00:00 -0.4 C 4.48 g/m*3 -0.4 C 3.2 km/h
14 16-01-2017 01:05:00 -0.4 C 4.48 g/m*3 -0.4 C 1.6 km/h
15 16-01-2017 01:10:00 -0.4 C 4.48 g/m*3 -0.4 C 0 km/h
16 16-01-2017 01:15:00 -0.4 C 4.48 g/m*3 -0.4 C 0 km/h
17 16-01-2017 01:20:00 -0.4 C 4.48 g/m*3 -0.4 C 1.6 km/h
18 16-01-2017 01:25:00 -0.4 C 4.48 g/m*3 -0.4 C 0 km/h
19 16-01-2017 01:30:00 -0.4 C 4.48 g/m*3 -0.4 C 1.6 km/h
20 16-01-2017 01:35:00 -0.3 C 4.51 g/m*3 -0.3 C 0 km/h
21 16-01-2017 01:40:00 -0.3 C 4.51 g/m*3 -0.3 C 0 km/h
22 16-01-2017 01:45:00 -0.3 C 4.51 g/m*3 -0.3 C 0 km/h
23 16-01-2017 01:50:00 -0.2 C 4.54 g/m*3 -0.2 C 0 km/h
24 16-01-2017 01:55:00 -0.2 C 4.54 g/m*3 -0.2 C 0 km/h
25 16-01-2017 02:00:00 -0.2 C 4.54 g/m*3 -0.2 C 0 km/h
Sensor: Nr:Datum:Temp:Abs-Feuchte:Windchill:Wind:
Aussen-T/F 26 16-01-2017 02:05:00 -0.2 C 4.54 g/m*3 -0.2 C 0 km/h
27 16-01-2017 02:10:00 -0.2 C 4.54 g/m*3 -0.2 C 0 km/h
28 16-01-2017 02:15:00 -0.2 C 4.54 g/m*3 -0.2 C 0 km/h
29 16-01-2017 02:20:00 -0.2 C 4.54 g/m*3 -0.2 C 0 km/h
30 16-01-2017 02:25:00 -0.2 C 4.54 g/m*3 -0.2 C 0 km/h
31 16-01-2017 02:30:00 -0.2 C 4.54 g/m*3 -0.2 C 0 km/h
32 16-01-2017 02:35:00 -0.3 C 4.51 g/m*3 -0.3 C 0 km/h
33 16-01-2017 02:40:00 -0.3 C 4.51 g/m*3 -0.3 C 0 km/h
34 16-01-2017 02:45:00 -0.3 C 4.51 g/m*3 -0.3 C 0 km/h
35 16-01-2017 02:50:00 -0.6 C 4.42 g/m*3 -0.6 C 0 km/h
36 16-01-2017 02:55:00 -0.8 C 4.35 g/m*3 -0.8 C 0 km/h
37 16-01-2017 03:00:00 -0.9 C 4.28 g/m*3 -0.9 C 0 km/h
38 16-01-2017 03:05:00 -0.9 C 4.32 g/m*3 -0.9 C 0 km/h
39 16-01-2017 03:10:00 -0.9 C 4.32 g/m*3 -0.9 C 0 km/h
40 16-01-2017 03:15:00 -0.9 C 4.32 g/m*3 -0.9 C 0 km/h
41 16-01-2017 03:20:00 -0.8 C 4.35 g/m*3 -0.8 C 0 km/h
42 16-01-2017 03:25:00 -0.7 C 4.39 g/m*3 -0.7 C 0 km/h
43 16-01-2017 03:30:00 -0.7 C 4.39 g/m*3 -0.7 C 0 km/h
44 16-01-2017 03:35:00 -0.6 C 4.42 g/m*3 -0.6 C 0 km/h
45 16-01-2017 03:40:00 -0.6 C 4.42 g/m*3 -0.6 C 0 km/h
46 16-01-2017 03:45:00 -0.6 C 4.42 g/m*3 -0.6 C 0 km/h
47 16-01-2017 03:50:00 -0.6 C 4.42 g/m*3 -0.6 C 0 km/h
48 16-01-2017 03:55:00 -0.6 C 4.42 g/m*3 -0.6 C 0 km/h
49 16-01-2017 04:00:00 -0.5 C 4.45 g/m*3 -0.5 C 0 km/h
50 16-01-2017 04:05:00 -0.5 C 4.45 g/m*3 -0.5 C 0 km/h
Sensor: Nr:Datum:Temp:Abs-Feuchte:Windchill:Wind:
Aussen-T/F 51 16-01-2017 04:10:00 -0.5 C 4.45 g/m*3 -0.5 C 0 km/h
52 16-01-2017 04:15:00 -0.5 C 4.45 g/m*3 -0.5 C 0 km/h
53 16-01-2017 04:20:00 -0.5 C 4.45 g/m*3 -0.5 C 1.6 km/h
54 16-01-2017 04:25:00 -0.5 C 4.45 g/m*3 -0.5 C 1.6 km/h
55 16-01-2017 04:30:00 -0.5 C 4.45 g/m*3 -0.5 C 0 km/h
56 16-01-2017 04:35:00 -0.5 C 4.45 g/m*3 -0.5 C 1.6 km/h
57 16-01-2017 04:40:00 -0.6 C 4.42 g/m*3 -0.6 C 0 km/h
58 16-01-2017 04:45:00 -0.6 C 4.42 g/m*3 -0.6 C 0 km/h
59 16-01-2017 04:50:00 -0.6 C 4.42 g/m*3 -0.6 C 0 km/h
60 16-01-2017 04:55:00 -0.6 C 4.42 g/m*3 -0.6 C 0 km/h
61 16-01-2017 05:00:00 -0.6 C 4.42 g/m*3 -0.6 C 0 km/h
62 16-01-2017 05:05:00 -0.5 C 4.45 g/m*3 -0.5 C 0 km/h
63 16-01-2017 05:10:00 -0.5 C 4.45 g/m*3 -0.5 C 3.2 km/h
64 16-01-2017 05:15:00 -0.5 C 4.45 g/m*3 -0.5 C 1.6 km/h
65 16-01-2017 05:20:00 -0.4 C 4.48 g/m*3 -0.4 C 0 km/h
66 16-01-2017 05:25:00 -0.4 C 4.48 g/m*3 -0.4 C 0 km/h
67 16-01-2017 05:30:00 -0.4 C 4.48 g/m*3 -0.4 C 0 km/h
68 16-01-2017 05:35:00 -0.4 C 4.48 g/m*3 -0.4 C 0 km/h
69 16-01-2017 05:40:00 -0.4 C 4.48 g/m*3 -0.4 C 0 km/h
70 16-01-2017 05:45:00 -0.5 C 4.45 g/m*3 -0.5 C 0 km/h
71 16-01-2017 05:50:00 -0.5 C 4.45 g/m*3 -0.5 C 0 km/h
72 16-01-2017 05:55:00 -0.5 C 4.45 g/m*3 -0.5 C 0 km/h
73 16-01-2017 06:00:00 -0.5 C 4.45 g/m*3 -0.5 C 0 km/h
74 16-01-2017 06:05:00 -0.5 C 4.45 g/m*3 -0.5 C 0 km/h
75 16-01-2017 06:10:00 -0.5 C 4.45 g/m*3 -0.5 C 0 km/h
Sensor: Nr:Datum:Temp:Abs-Feuchte:Windchill:Wind:
Aussen-T/F 76 16-01-2017 06:15:00 -0.6 C 4.42 g/m*3 -0.6 C 0 km/h
77 16-01-2017 06:20:00 -0.5 C 4.45 g/m*3 -0.5 C 0 km/h
78 16-01-2017 06:25:00 -0.6 C 4.42 g/m*3 -0.6 C 0 km/h
79 16-01-2017 06:30:00 -0.6 C 4.42 g/m*3 -0.6 C 0 km/h
80 16-01-2017 06:35:00 -0.6 C 4.42 g/m*3 -0.6 C 0 km/h
81 16-01-2017 06:40:00 -0.6 C 4.42 g/m*3 -0.6 C 0 km/h
82 16-01-2017 06:45:00 -0.6 C 4.42 g/m*3 -0.6 C 0 km/h
83 16-01-2017 06:50:00 -0.6 C 4.42 g/m*3 -0.6 C 0 km/h
84 16-01-2017 06:55:00 -0.6 C 4.42 g/m*3 -0.6 C 0 km/h
85 16-01-2017 07:00:00 -0.6 C 4.42 g/m*3 -0.6 C 0 km/h
86 16-01-2017 07:05:00 -0.6 C 4.42 g/m*3 -0.6 C 0 km/h
87 16-01-2017 07:10:00 -0.6 C 4.42 g/m*3 -0.6 C 0 km/h
88 16-01-2017 07:15:00 -0.6 C 4.42 g/m*3 -0.6 C 0 km/h
89 16-01-2017 07:20:00 -0.7 C 4.39 g/m*3 -0.7 C 0 km/h
90 16-01-2017 07:25:00 -0.7 C 4.39 g/m*3 -0.7 C 0 km/h
91 16-01-2017 07:30:00 -0.7 C 4.39 g/m*3 -0.7 C 0 km/h
92 16-01-2017 07:35:00 -0.7 C 4.39 g/m*3 -0.7 C 0 km/h
93 16-01-2017 07:40:00 -0.7 C 4.43 g/m*3 -0.7 C 0 km/h
94 16-01-2017 07:45:00 -0.8 C 4.35 g/m*3 -0.8 C 0 km/h
95 16-01-2017 07:50:00 -0.8 C 4.35 g/m*3 -0.8 C 0 km/h
96 16-01-2017 07:55:00 -0.8 C 4.35 g/m*3 -0.8 C 0 km/h
97 16-01-2017 08:00:00 -0.8 C 4.35 g/m*3 -0.8 C 0 km/h
98 16-01-2017 08:05:00 -0.9 C 4.32 g/m*3 -0.9 C 0 km/h
99 16-01-2017 08:10:00 -0.9 C 4.32 g/m*3 -0.9 C 0 km/h
100 16-01-2017 08:15:00 -1 C 4.29 g/m*3 -1 C 0 km/h
Sensor: Nr:Datum:Temp:Abs-Feuchte:Windchill:Wind:
Aussen-T/F 101 16-01-2017 08:20:00 -1 C 4.29 g/m*3 -1 C 0 km/h
102 16-01-2017 08:25:00 -1.1 C 4.26 g/m*3 -1.1 C 0 km/h
103 16-01-2017 08:30:00 -1.1 C 4.26 g/m*3 -1.1 C 0 km/h
104 16-01-2017 08:35:00 -1.2 C 4.24 g/m*3 -1.2 C 0 km/h
105 16-01-2017 08:40:00 -1.3 C 4.21 g/m*3 -1.3 C 0 km/h
106 16-01-2017 08:45:00 -1.3 C 4.21 g/m*3 -1.3 C 0 km/h
107 16-01-2017 08:50:00 -1.4 C 4.18 g/m*3 -1.4 C 0 km/h
108 16-01-2017 08:55:00 -1.6 C 4.12 g/m*3 -1.6 C 0 km/h
109 16-01-2017 09:00:00 -1.7 C 4.09 g/m*3 -1.7 C 0 km/h
110 16-01-2017 09:05:00 -1.8 C 4.06 g/m*3 -1.8 C 0 km/h
111 16-01-2017 09:10:00 -1.8 C 4.06 g/m*3 -1.8 C 0 km/h
112 16-01-2017 09:15:00 -1.8 C 4.06 g/m*3 -1.8 C 0 km/h
113 16-01-2017 09:20:00 -1.9 C 4.03 g/m*3 -1.9 C 0 km/h
114 16-01-2017 09:25:00 -1.8 C 4.06 g/m*3 -1.8 C 0 km/h
115 16-01-2017 09:30:00 -1.7 C 4.09 g/m*3 -1.7 C 0 km/h
116 16-01-2017 09:35:00 -1.6 C 4.16 g/m*3 -1.6 C 0 km/h
117 16-01-2017 09:40:00 -1.3 C 4.25 g/m*3 -1.3 C 0 km/h
118 16-01-2017 09:45:00 -1.2 C 4.28 g/m*3 -1.2 C 0 km/h
119 16-01-2017 09:50:00 -1.1 C 4.31 g/m*3 -1.1 C 0 km/h
120 16-01-2017 09:55:00 -0.9 C 4.37 g/m*3 -0.9 C 0 km/h
121 16-01-2017 10:00:00 -0.8 C 4.4 g/m*3 -0.8 C 0 km/h
122 16-01-2017 10:05:00 -0.7 C 4.43 g/m*3 -0.7 C 0 km/h
123 16-01-2017 10:10:00 -0.7 C 4.43 g/m*3 -0.7 C 0 km/h
124 16-01-2017 10:15:00 -0.6 C 4.46 g/m*3 -0.6 C 0 km/h
125 16-01-2017 10:20:00 -0.6 C 4.46 g/m*3 -0.6 C 0 km/h
Sensor: Nr:Datum:Temp:Abs-Feuchte:Windchill:Wind:
Aussen-T/F 126 16-01-2017 10:25:00 -0.5 C 4.49 g/m*3 -0.5 C 0 km/h
127 16-01-2017 10:30:00 -0.4 C 4.52 g/m*3 -0.4 C 0 km/h
128 16-01-2017 10:35:00 -0.3 C 4.56 g/m*3 -0.3 C 0 km/h
129 16-01-2017 10:40:00 -0.3 C 4.56 g/m*3 -0.3 C 0 km/h
130 16-01-2017 10:45:00 -0.2 C 4.59 g/m*3 -0.2 C 0 km/h
131 16-01-2017 10:50:00 -0.2 C 4.59 g/m*3 -0.2 C 0 km/h
132 16-01-2017 10:55:00 -0.2 C 4.59 g/m*3 -0.2 C 0 km/h
133 16-01-2017 11:00:00 -0.2 C 4.54 g/m*3 -0.2 C 0 km/h
134 16-01-2017 11:05:00 -0.1 C 4.57 g/m*3 -0.1 C 0 km/h
135 16-01-2017 11:10:00 -0.1 C 4.57 g/m*3 -0.1 C 0 km/h
136 16-01-2017 11:15:00 0 C 4.65 g/m*3 0 C 0 km/h
137 16-01-2017 11:20:00 0.1 C 4.63 g/m*3 0.1 C 1.6 km/h
138 16-01-2017 11:25:00 0.1 C 4.63 g/m*3 0.1 C 1.6 km/h
139 16-01-2017 11:30:00 0.2 C 4.67 g/m*3 0.2 C 0 km/h
140 16-01-2017 11:35:00 0.3 C 4.7 g/m*3 0.3 C 1.6 km/h
141 16-01-2017 11:40:00 0.3 C 4.7 g/m*3 -1.84 C 6.4 km/h
142 16-01-2017 11:45:00 0.3 C 4.7 g/m*3 0.3 C 3.2 km/h
143 16-01-2017 11:50:00 0.3 C 4.65 g/m*3 0.3 C 3.2 km/h
144 16-01-2017 11:55:00 0.3 C 4.65 g/m*3 0.3 C 1.6 km/h
145 16-01-2017 12:00:00 0.2 C 4.57 g/m*3 0.2 C 4.8 km/h
146 16-01-2017 12:05:00 0.1 C 4.49 g/m*3 -2.07 C 6.4 km/h
147 16-01-2017 12:10:00 0 C 4.41 g/m*3 0 C 1.6 km/h
148 16-01-2017 12:15:00 -0.1 C 4.38 g/m*3 -0.1 C 1.6 km/h
149 16-01-2017 12:20:00 -0.2 C 4.35 g/m*3 -0.2 C 0 km/h
150 16-01-2017 12:25:00 -0.2 C 4.3 g/m*3 -0.2 C 3.2 km/h
Sensor: Nr:Datum:Temp:Abs-Feuchte:Windchill:Wind:
Aussen-T/F 151 16-01-2017 12:30:00 -0.2 C 4.35 g/m*3 -0.2 C 0 km/h
152 16-01-2017 12:35:00 -0.3 C 4.32 g/m*3 -0.3 C 0 km/h
153 16-01-2017 12:40:00 -0.4 C 4.29 g/m*3 -0.4 C 1.6 km/h
154 16-01-2017 12:45:00 -0.5 C 4.26 g/m*3 -0.5 C 0 km/h
155 16-01-2017 12:50:00 -0.6 C 4.23 g/m*3 -0.6 C 1.6 km/h
156 16-01-2017 12:55:00 -0.7 C 4.2 g/m*3 -0.7 C 0 km/h
157 16-01-2017 13:00:00 -0.8 C 4.22 g/m*3 -0.8 C 1.6 km/h
158 16-01-2017 13:05:00 -0.8 C 4.22 g/m*3 -0.8 C 3.2 km/h
159 16-01-2017 13:10:00 -0.9 C 4.19 g/m*3 -0.9 C 3.2 km/h
160 16-01-2017 13:15:00 -0.9 C 4.19 g/m*3 -0.9 C 1.6 km/h
161 16-01-2017 13:20:00 -0.9 C 4.19 g/m*3 -0.9 C 0 km/h
162 16-01-2017 13:25:00 -0.9 C 4.19 g/m*3 -0.9 C 0 km/h
163 16-01-2017 13:30:00 -0.8 C 4.22 g/m*3 -0.8 C 0 km/h
164 16-01-2017 13:35:00 -0.8 C 4.22 g/m*3 -0.8 C 1.6 km/h
165 16-01-2017 13:40:00 -0.8 C 4.22 g/m*3 -0.8 C 1.6 km/h
166 16-01-2017 13:45:00 -0.7 C 4.25 g/m*3 -0.7 C 3.2 km/h
167 16-01-2017 13:50:00 -0.6 C 4.32 g/m*3 -0.6 C 3.2 km/h
168 16-01-2017 13:55:00 -0.4 C 4.38 g/m*3 -0.4 C 1.6 km/h
169 16-01-2017 14:00:00 -0.3 C 4.41 g/m*3 -0.3 C 0 km/h
170 16-01-2017 14:05:00 -0.3 C 4.37 g/m*3 -0.3 C 0 km/h
171 16-01-2017 14:10:00 -0.3 C 4.37 g/m*3 -0.3 C 0 km/h
172 16-01-2017 14:15:00 -0.3 C 4.37 g/m*3 -0.3 C 0 km/h
173 16-01-2017 14:20:00 -0.4 C 4.29 g/m*3 -0.4 C 3.2 km/h
174 16-01-2017 14:25:00 -0.4 C 4.29 g/m*3 -0.4 C 3.2 km/h
175 16-01-2017 14:30:00 -0.6 C 4.23 g/m*3 -0.6 C 1.6 km/h
Sensor: Nr:Datum:Temp:Abs-Feuchte:Windchill:Wind:
Aussen-T/F 176 16-01-2017 14:35:00 -0.6 C 4.23 g/m*3 -0.6 C 1.6 km/h
177 16-01-2017 14:40:00 -0.7 C 4.2 g/m*3 -0.7 C 3.2 km/h
178 16-01-2017 14:45:00 -0.7 C 4.2 g/m*3 -0.7 C 1.6 km/h
179 16-01-2017 14:50:00 -0.7 C 4.2 g/m*3 -0.7 C 4.8 km/h
180 16-01-2017 14:55:00 -0.7 C 4.11 g/m*3 -0.7 C 3.2 km/h
181 16-01-2017 15:00:00 -0.6 C 4.09 g/m*3 -0.6 C 4.8 km/h
182 16-01-2017 15:05:00 -0.5 C 4.12 g/m*3 -0.5 C 1.6 km/h
183 16-01-2017 15:10:00 -0.5 C 4.12 g/m*3 -0.5 C 1.6 km/h
184 16-01-2017 15:15:00 -0.6 C 4.14 g/m*3 -0.6 C 1.6 km/h
185 16-01-2017 15:20:00 -0.7 C 4.11 g/m*3 -0.7 C 3.2 km/h
186 16-01-2017 15:25:00 -0.8 C 4.08 g/m*3 -0.8 C 3.2 km/h
187 16-01-2017 15:30:00 -0.9 C 4.1 g/m*3 -0.9 C 3.2 km/h
188 16-01-2017 15:35:00 -1.1 C 4.04 g/m*3 -1.1 C 3.2 km/h
189 16-01-2017 15:40:00 -1.1 C 4.04 g/m*3 -1.1 C 3.2 km/h
190 16-01-2017 15:45:00 -1.2 C 4.01 g/m*3 -1.2 C 4.8 km/h
191 16-01-2017 15:50:00 -1.2 C 4.06 g/m*3 -1.2 C 4.8 km/h
192 16-01-2017 15:55:00 -1.2 C 4.06 g/m*3 -1.2 C 4.8 km/h
193 16-01-2017 16:00:00 -1.3 C 4.03 g/m*3 -1.3 C 4.8 km/h
194 16-01-2017 16:05:00 -1.3 C 4.03 g/m*3 -1.3 C 4.8 km/h
195 16-01-2017 16:10:00 -1.3 C 4.03 g/m*3 -1.3 C 4.8 km/h
196 16-01-2017 16:15:00 -1.3 C 4.07 g/m*3 -1.3 C 4.8 km/h
197 16-01-2017 16:20:00 -1.3 C 4.07 g/m*3 -1.3 C 4.8 km/h
198 16-01-2017 16:25:00 -1.4 C 4.04 g/m*3 -1.4 C 4.8 km/h
199 16-01-2017 16:30:00 -1.4 C 4 g/m*3 -1.4 C 3.2 km/h
200 16-01-2017 16:35:00 -1.5 C 4.02 g/m*3 -1.5 C 1.6 km/h
Sensor: Nr:Datum:Temp:Abs-Feuchte:Windchill:Wind:
Aussen-T/F 201 16-01-2017 16:40:00 -1.5 C 3.97 g/m*3 -1.5 C 1.6 km/h
202 16-01-2017 16:45:00 -1.6 C 3.94 g/m*3 -1.6 C 3.2 km/h
203 16-01-2017 16:50:00 -1.7 C 3.96 g/m*3 -1.7 C 3.2 km/h
204 16-01-2017 16:55:00 -1.7 C 3.96 g/m*3 -1.7 C 4.8 km/h
205 16-01-2017 17:00:00 -1.7 C 3.96 g/m*3 -1.7 C 3.2 km/h
206 16-01-2017 17:05:00 -1.7 C 3.96 g/m*3 -1.7 C 3.2 km/h
207 16-01-2017 17:10:00 -1.7 C 3.96 g/m*3 -1.7 C 1.6 km/h
208 16-01-2017 17:15:00 -1.7 C 3.96 g/m*3 -1.7 C 1.6 km/h
209 16-01-2017 17:20:00 -1.8 C 3.89 g/m*3 -1.8 C 1.6 km/h
210 16-01-2017 17:25:00 -1.9 C 3.86 g/m*3 -1.9 C 3.2 km/h
211 16-01-2017 17:30:00 -1.9 C 3.86 g/m*3 -1.9 C 3.2 km/h
212 16-01-2017 17:35:00 -2.1 C 3.81 g/m*3 -2.1 C 3.2 km/h
213 16-01-2017 17:40:00 -2.1 C 3.81 g/m*3 -2.1 C 4.8 km/h
214 16-01-2017 17:45:00 -2.2 C 3.82 g/m*3 -2.2 C 4.8 km/h
215 16-01-2017 17:50:00 -2.2 C 3.82 g/m*3 -2.2 C 1.6 km/h
216 16-01-2017 17:55:00 -2.2 C 3.82 g/m*3 -2.2 C 1.6 km/h
217 16-01-2017 18:00:00 -2.3 C 3.8 g/m*3 -2.3 C 1.6 km/h
218 16-01-2017 18:05:00 -2.3 C 3.8 g/m*3 -2.3 C 1.6 km/h
219 16-01-2017 18:10:00 -2.3 C 3.8 g/m*3 -2.3 C 0 km/h
220 16-01-2017 18:15:00 -2.4 C 3.77 g/m*3 -2.4 C 0 km/h
221 16-01-2017 18:20:00 -2.5 C 3.74 g/m*3 -2.5 C 0 km/h
222 16-01-2017 18:25:00 -2.6 C 3.72 g/m*3 -2.6 C 0 km/h
223 16-01-2017 18:30:00 -2.7 C 3.69 g/m*3 -2.7 C 3.2 km/h
224 16-01-2017 18:35:00 -2.7 C 3.69 g/m*3 -2.7 C 3.2 km/h
225 16-01-2017 18:40:00 -2.8 C 3.71 g/m*3 -2.8 C 1.6 km/h
Sensor: Nr:Datum:Temp:Abs-Feuchte:Windchill:Wind:
Aussen-T/F 226 16-01-2017 18:45:00 -2.8 C 3.67 g/m*3 -2.8 C 0 km/h
227 16-01-2017 18:50:00 -2.9 C 3.64 g/m*3 -2.9 C 1.6 km/h
228 16-01-2017 18:55:00 -2.9 C 3.64 g/m*3 -2.9 C 1.6 km/h
229 16-01-2017 19:00:00 -3 C 3.65 g/m*3 -3 C 1.6 km/h
230 16-01-2017 19:05:00 -3.1 C 3.59 g/m*3 -3.1 C 0 km/h
231 16-01-2017 19:10:00 -3.2 C 3.56 g/m*3 -3.2 C 0 km/h
232 16-01-2017 19:15:00 -3.2 C 3.6 g/m*3 -3.2 C 0 km/h
233 16-01-2017 19:20:00 -3.3 C 3.58 g/m*3 -3.3 C 0 km/h
234 16-01-2017 19:25:00 -3.4 C 3.51 g/m*3 -3.4 C 0 km/h
235 16-01-2017 19:30:00 -3.5 C 3.53 g/m*3 -3.5 C 0 km/h
236 16-01-2017 19:35:00 -3.6 C 3.5 g/m*3 -3.6 C 0 km/h
237 16-01-2017 19:40:00 -3.6 C 3.5 g/m*3 -3.6 C 0 km/h
238 16-01-2017 19:45:00 -3.8 C 3.45 g/m*3 -3.8 C 0 km/h
239 16-01-2017 19:50:00 -3.8 C 3.45 g/m*3 -3.8 C 0 km/h
240 16-01-2017 19:55:00 -3.8 C 3.45 g/m*3 -3.8 C 0 km/h
241 16-01-2017 20:00:00 -3.8 C 3.45 g/m*3 -3.8 C 0 km/h
242 16-01-2017 20:05:00 -3.8 C 3.49 g/m*3 -3.8 C 1.6 km/h
243 16-01-2017 20:10:00 -3.8 C 3.49 g/m*3 -3.8 C 0 km/h
244 16-01-2017 20:15:00 -3.8 C 3.49 g/m*3 -3.8 C 0 km/h
245 16-01-2017 20:20:00 -3.9 C 3.43 g/m*3 -3.9 C 0 km/h
246 16-01-2017 20:25:00 -4.1 C 3.38 g/m*3 -4.1 C 0 km/h
247 16-01-2017 20:30:00 -4.2 C 3.35 g/m*3 -4.2 C 0 km/h
248 16-01-2017 20:35:00 -4.2 C 3.39 g/m*3 -4.2 C 0 km/h
249 16-01-2017 20:40:00 -4.3 C 3.33 g/m*3 -4.3 C 0 km/h
250 16-01-2017 20:45:00 -4.4 C 3.31 g/m*3 -4.4 C 0 km/h
Sensor: Nr:Datum:Temp:Abs-Feuchte:Windchill:Wind:
Aussen-T/F 251 16-01-2017 20:50:00 -4.4 C 3.34 g/m*3 -4.4 C 0 km/h
252 16-01-2017 20:55:00 -4.6 C 3.29 g/m*3 -4.6 C 0 km/h
253 16-01-2017 21:00:00 -4.6 C 3.29 g/m*3 -4.6 C 0 km/h
254 16-01-2017 21:05:00 -4.7 C 3.27 g/m*3 -4.7 C 0 km/h
255 16-01-2017 21:10:00 -4.7 C 3.27 g/m*3 -4.7 C 0 km/h
256 16-01-2017 21:15:00 -4.7 C 3.27 g/m*3 -4.7 C 0 km/h
257 16-01-2017 21:20:00 -4.7 C 3.27 g/m*3 -4.7 C 0 km/h
258 16-01-2017 21:25:00 -4.7 C 3.27 g/m*3 -4.7 C 0 km/h
259 16-01-2017 21:30:00 -4.7 C 3.27 g/m*3 -4.7 C 0 km/h
260 16-01-2017 21:35:00 -4.8 C 3.25 g/m*3 -4.8 C 0 km/h
261 16-01-2017 21:40:00 -4.9 C 3.22 g/m*3 -4.9 C 0 km/h
262 16-01-2017 21:45:00 -5 C 3.2 g/m*3 -5 C 0 km/h
263 16-01-2017 21:50:00 -5.1 C 3.18 g/m*3 -5.1 C 0 km/h
264 16-01-2017 21:55:00 -5.2 C 3.15 g/m*3 -5.2 C 0 km/h
265 16-01-2017 22:00:00 -5.3 C 3.13 g/m*3 -5.3 C 0 km/h
266 16-01-2017 22:05:00 -5.3 C 3.13 g/m*3 -5.3 C 0 km/h
267 16-01-2017 22:10:00 -5.3 C 3.13 g/m*3 -5.3 C 0 km/h
268 16-01-2017 22:15:00 -5.3 C 3.13 g/m*3 -5.3 C 0 km/h
269 16-01-2017 22:20:00 -5.3 C 3.13 g/m*3 -5.3 C 0 km/h
270 16-01-2017 22:25:00 -5.4 C 3.11 g/m*3 -5.4 C 0 km/h
271 16-01-2017 22:30:00 -5.5 C 3.09 g/m*3 -5.5 C 0 km/h
272 16-01-2017 22:35:00 -5.5 C 3.09 g/m*3 -5.5 C 0 km/h
273 16-01-2017 22:40:00 -5.4 C 3.11 g/m*3 -5.4 C 0 km/h
274 16-01-2017 22:45:00 -5.4 C 3.11 g/m*3 -5.4 C 0 km/h
275 16-01-2017 22:50:00 -5.4 C 3.14 g/m*3 -5.4 C 0 km/h
Sensor: Nr:Datum:Temp:Abs-Feuchte:Windchill:Wind:
Aussen-T/F 276 16-01-2017 22:55:00 -5.4 C 3.14 g/m*3 -5.4 C 0 km/h
277 16-01-2017 23:00:00 -5.5 C 3.09 g/m*3 -5.5 C 0 km/h
278 16-01-2017 23:05:00 -5.7 C 3.04 g/m*3 -5.7 C 0 km/h
279 16-01-2017 23:10:00 -5.8 C 3.02 g/m*3 -5.8 C 0 km/h
280 16-01-2017 23:15:00 -5.8 C 3.02 g/m*3 -5.8 C 0 km/h
281 16-01-2017 23:20:00 -5.7 C 3.04 g/m*3 -5.7 C 0 km/h
282 16-01-2017 23:25:00 -5.7 C 3.04 g/m*3 -5.7 C 0 km/h
283 16-01-2017 23:30:00 -5.7 C 3.07 g/m*3 -5.7 C 0 km/h
284 16-01-2017 23:35:00 -5.7 C 3.04 g/m*3 -5.7 C 0 km/h
285 16-01-2017 23:40:00 -5.8 C 3.02 g/m*3 -5.8 C 0 km/h
286 16-01-2017 23:45:00 -5.8 C 3.02 g/m*3 -5.8 C 0 km/h
287 16-01-2017 23:50:00 -5.8 C 3.02 g/m*3 -5.8 C 0 km/h
288 16-01-2017 23:55:00 -5.9 C 3 g/m*3 -5.9 C 0 km/h
289 17-01-2017 00:00:00 -5.9 C 3 g/m*3 -5.9 C 0 km/h
290 17-01-2017 00:05:00 -6 C 2.98 g/m*3 -6 C 0 km/h
291 17-01-2017 00:10:00 -6.1 C 2.96 g/m*3 -6.1 C 0 km/h
292 17-01-2017 00:15:00 -6.2 C 2.93 g/m*3 -6.2 C 0 km/h
293 17-01-2017 00:20:00 -6.2 C 2.93 g/m*3 -6.2 C 0 km/h
294 17-01-2017 00:25:00 -6.3 C 2.91 g/m*3 -6.3 C 0 km/h
295 17-01-2017 00:30:00 -6.3 C 2.91 g/m*3 -6.3 C 0 km/h
296 17-01-2017 00:35:00 -6.3 C 2.91 g/m*3 -6.3 C 0 km/h
297 17-01-2017 00:40:00 -6.3 C 2.91 g/m*3 -6.3 C 0 km/h
298 17-01-2017 00:45:00 -6.3 C 2.91 g/m*3 -6.3 C 0 km/h
299 17-01-2017 00:50:00 -6.3 C 2.91 g/m*3 -6.3 C 0 km/h
300 17-01-2017 00:55:00 -6.4 C 2.89 g/m*3 -6.4 C 0 km/h
Sensor: Nr:Datum:Temp:Abs-Feuchte:Windchill:Wind:
Aussen-T/F 301 17-01-2017 01:00:00 -6.4 C 2.89 g/m*3 -6.4 C 0 km/h
302 17-01-2017 01:05:00 -6.5 C 2.87 g/m*3 -6.5 C 0 km/h
303 17-01-2017 01:10:00 -6.6 C 2.85 g/m*3 -6.6 C 0 km/h
304 17-01-2017 01:15:00 -6.6 C 2.85 g/m*3 -6.6 C 0 km/h
305 17-01-2017 01:20:00 -6.7 C 2.83 g/m*3 -6.7 C 0 km/h
306 17-01-2017 01:25:00 -6.6 C 2.85 g/m*3 -6.6 C 0 km/h
307 17-01-2017 01:30:00 -6.6 C 2.85 g/m*3 -6.6 C 0 km/h
308 17-01-2017 01:35:00 -6.6 C 2.85 g/m*3 -6.6 C 0 km/h
309 17-01-2017 01:40:00 -6.7 C 2.83 g/m*3 -6.7 C 0 km/h
310 17-01-2017 01:45:00 -6.7 C 2.83 g/m*3 -6.7 C 0 km/h
311 17-01-2017 01:50:00 -6.8 C 2.81 g/m*3 -6.8 C 0 km/h
312 17-01-2017 01:55:00 -6.8 C 2.81 g/m*3 -6.8 C 0 km/h
313 17-01-2017 02:00:00 -6.8 C 2.81 g/m*3 -6.8 C 0 km/h
314 17-01-2017 02:05:00 -6.8 C 2.81 g/m*3 -6.8 C 0 km/h
315 17-01-2017 02:10:00 -6.9 C 2.79 g/m*3 -6.9 C 0 km/h
316 17-01-2017 02:15:00 -6.9 C 2.79 g/m*3 -6.9 C 0 km/h
317 17-01-2017 02:20:00 -6.8 C 2.81 g/m*3 -6.8 C 0 km/h
318 17-01-2017 02:25:00 -6.8 C 2.81 g/m*3 -6.8 C 0 km/h
319 17-01-2017 02:30:00 -6.8 C 2.81 g/m*3 -6.8 C 0 km/h
320 17-01-2017 02:35:00 -6.8 C 2.81 g/m*3 -6.8 C 0 km/h
321 17-01-2017 02:40:00 -6.7 C 2.83 g/m*3 -6.7 C 0 km/h
322 17-01-2017 02:45:00 -6.5 C 2.9 g/m*3 -6.5 C 0 km/h
323 17-01-2017 02:50:00 -6.3 C 2.94 g/m*3 -6.3 C 0 km/h
324 17-01-2017 02:55:00 -6.1 C 2.99 g/m*3 -6.1 C 0 km/h
325 17-01-2017 03:00:00 -5.9 C 3.03 g/m*3 -5.9 C 0 km/h
Sensor: Nr:Datum:Temp:Abs-Feuchte:Windchill:Wind:
Aussen-T/F 326 17-01-2017 03:05:00 -5.7 C 3.07 g/m*3 -5.7 C 0 km/h
327 17-01-2017 03:10:00 -5.6 C 3.1 g/m*3 -5.6 C 0 km/h
328 17-01-2017 03:15:00 -5.4 C 3.14 g/m*3 -5.4 C 0 km/h
329 17-01-2017 03:20:00 -5.3 C 3.17 g/m*3 -5.3 C 0 km/h
330 17-01-2017 03:25:00 -5.1 C 3.25 g/m*3 -5.1 C 0 km/h
331 17-01-2017 03:30:00 -5 C 3.27 g/m*3 -5 C 0 km/h
332 17-01-2017 03:35:00 -4.9 C 3.26 g/m*3 -4.9 C 0 km/h
333 17-01-2017 03:40:00 -4.8 C 3.28 g/m*3 -4.8 C 0 km/h
334 17-01-2017 03:45:00 -4.7 C 3.31 g/m*3 -4.7 C 0 km/h
335 17-01-2017 03:50:00 -4.7 C 3.31 g/m*3 -4.7 C 0 km/h
336 17-01-2017 03:55:00 -4.6 C 3.33 g/m*3 -4.6 C 0 km/h
337 17-01-2017 04:00:00 -4.6 C 3.33 g/m*3 -4.6 C 0 km/h
338 17-01-2017 04:05:00 -4.6 C 3.33 g/m*3 -4.6 C 0 km/h
339 17-01-2017 04:10:00 -4.5 C 3.35 g/m*3 -4.5 C 0 km/h
340 17-01-2017 04:15:00 -4.5 C 3.35 g/m*3 -4.5 C 0 km/h
341 17-01-2017 04:20:00 -4.4 C 3.38 g/m*3 -4.4 C 0 km/h
342 17-01-2017 04:25:00 -4.4 C 3.38 g/m*3 -4.4 C 0 km/h
343 17-01-2017 04:30:00 -4.4 C 3.38 g/m*3 -4.4 C 0 km/h
344 17-01-2017 04:35:00 -4.3 C 3.4 g/m*3 -4.3 C 0 km/h
345 17-01-2017 04:40:00 -4.3 C 3.4 g/m*3 -4.3 C 0 km/h
346 17-01-2017 04:45:00 -4.4 C 3.38 g/m*3 -4.4 C 1.6 km/h
347 17-01-2017 04:50:00 -4.4 C 3.38 g/m*3 -4.4 C 1.6 km/h
348 17-01-2017 04:55:00 -4.4 C 3.38 g/m*3 -4.4 C 0 km/h
349 17-01-2017 05:00:00 -4.4 C 3.34 g/m*3 -4.4 C 0 km/h
350 17-01-2017 05:05:00 -4.5 C 3.32 g/m*3 -4.5 C 0 km/h
Sensor: Nr:Datum:Temp:Abs-Feuchte:Windchill:Wind:
Aussen-T/F 351 17-01-2017 05:10:00 -4.6 C 3.33 g/m*3 -4.6 C 0 km/h
352 17-01-2017 05:15:00 -4.6 C 3.33 g/m*3 -4.6 C 0 km/h
353 17-01-2017 05:20:00 -4.6 C 3.29 g/m*3 -4.6 C 0 km/h
354 17-01-2017 05:25:00 -4.6 C 3.29 g/m*3 -4.6 C 0 km/h
355 17-01-2017 05:30:00 -4.6 C 3.29 g/m*3 -4.6 C 0 km/h
356 17-01-2017 05:35:00 -4.6 C 3.29 g/m*3 -4.6 C 0 km/h
357 17-01-2017 05:40:00 -4.6 C 3.33 g/m*3 -4.6 C 0 km/h
358 17-01-2017 05:45:00 -4.6 C 3.33 g/m*3 -4.6 C 1.6 km/h
359 17-01-2017 05:50:00 -4.5 C 3.35 g/m*3 -4.5 C 0 km/h
360 17-01-2017 05:55:00 -4.5 C 3.35 g/m*3 -4.5 C 0 km/h
361 17-01-2017 06:00:00 -4.4 C 3.38 g/m*3 -4.4 C 0 km/h
362 17-01-2017 06:05:00 -4.4 C 3.38 g/m*3 -4.4 C 0 km/h
363 17-01-2017 06:10:00 -4.3 C 3.37 g/m*3 -4.3 C 3.2 km/h
364 17-01-2017 06:15:00 -4.3 C 3.37 g/m*3 -4.3 C 0 km/h
365 17-01-2017 06:20:00 -4.3 C 3.37 g/m*3 -4.3 C 0 km/h
366 17-01-2017 06:25:00 -4.3 C 3.37 g/m*3 -4.3 C 0 km/h
367 17-01-2017 06:30:00 -4.3 C 3.37 g/m*3 -4.3 C 0 km/h
368 17-01-2017 06:35:00 -4.2 C 3.39 g/m*3 -4.2 C 0 km/h
369 17-01-2017 06:40:00 -4.2 C 3.39 g/m*3 -4.2 C 0 km/h
370 17-01-2017 06:45:00 -4.2 C 3.39 g/m*3 -4.2 C 0 km/h
371 17-01-2017 06:50:00 -4.2 C 3.39 g/m*3 -4.2 C 0 km/h
372 17-01-2017 06:55:00 -4.2 C 3.39 g/m*3 -4.2 C 0 km/h
373 17-01-2017 07:00:00 -4.2 C 3.39 g/m*3 -4.2 C 0 km/h
374 17-01-2017 07:05:00 -4.2 C 3.39 g/m*3 -4.2 C 0 km/h
375 17-01-2017 07:10:00 -4.1 C 3.41 g/m*3 -4.1 C 0 km/h
Sensor: Nr:Datum:Temp:Abs-Feuchte:Windchill:Wind:
Aussen-T/F 376 17-01-2017 07:15:00 -4.1 C 3.41 g/m*3 -4.1 C 0 km/h
377 17-01-2017 07:20:00 -4.1 C 3.41 g/m*3 -4.1 C 0 km/h
378 17-01-2017 07:25:00 -4.1 C 3.41 g/m*3 -4.1 C 0 km/h
379 17-01-2017 07:30:00 -4 C 3.44 g/m*3 -4 C 0 km/h
380 17-01-2017 07:35:00 -4 C 3.4 g/m*3 -4 C 0 km/h
381 17-01-2017 07:40:00 -4 C 3.4 g/m*3 -4 C 0 km/h
382 17-01-2017 07:45:00 -4 C 3.44 g/m*3 -4 C 0 km/h
383 17-01-2017 07:50:00 -4 C 3.4 g/m*3 -4 C 0 km/h
384 17-01-2017 07:55:00 -3.9 C 3.43 g/m*3 -3.9 C 0 km/h
385 17-01-2017 08:00:00 -3.9 C 3.43 g/m*3 -3.9 C 0 km/h
386 17-01-2017 08:05:00 -3.9 C 3.43 g/m*3 -3.9 C 0 km/h
387 17-01-2017 08:10:00 -3.9 C 3.43 g/m*3 -3.9 C 0 km/h
388 17-01-2017 08:15:00 -3.9 C 3.43 g/m*3 -3.9 C 0 km/h
389 17-01-2017 08:20:00 -3.9 C 3.43 g/m*3 -3.9 C 0 km/h
390 17-01-2017 08:25:00 -3.9 C 3.43 g/m*3 -3.9 C 0 km/h
391 17-01-2017 08:30:00 -3.9 C 3.43 g/m*3 -3.9 C 0 km/h
392 17-01-2017 08:35:00 -3.9 C 3.43 g/m*3 -3.9 C 0 km/h
393 17-01-2017 08:40:00 -3.9 C 3.43 g/m*3 -3.9 C 0 km/h
394 17-01-2017 08:45:00 -3.9 C 3.43 g/m*3 -3.9 C 0 km/h
395 17-01-2017 08:50:00 -3.9 C 3.43 g/m*3 -3.9 C 0 km/h
396 17-01-2017 08:55:00 -3.9 C 3.43 g/m*3 -3.9 C 0 km/h
397 17-01-2017 09:00:00 -3.8 C 3.45 g/m*3 -3.8 C 0 km/h
398 17-01-2017 09:05:00 -3.8 C 3.45 g/m*3 -3.8 C 0 km/h
399 17-01-2017 09:10:00 -3.8 C 3.45 g/m*3 -3.8 C 0 km/h
400 17-01-2017 09:15:00 -3.9 C 3.43 g/m*3 -3.9 C 0 km/h
Sensor: Nr:Datum:Temp:Abs-Feuchte:Windchill:Wind:
Aussen-T/F 401 17-01-2017 09:20:00 -3.9 C 3.43 g/m*3 -3.9 C 0 km/h
402 17-01-2017 09:25:00 -4 C 3.37 g/m*3 -4 C 0 km/h
403 17-01-2017 09:30:00 -4 C 3.4 g/m*3 -4 C 0 km/h
404 17-01-2017 09:35:00 -4.1 C 3.38 g/m*3 -4.1 C 0 km/h
405 17-01-2017 09:40:00 -4.1 C 3.38 g/m*3 -4.1 C 1.6 km/h
406 17-01-2017 09:45:00 -4.2 C 3.32 g/m*3 -4.2 C 1.6 km/h
407 17-01-2017 09:50:00 -4.3 C 3.29 g/m*3 -4.3 C 0 km/h
408 17-01-2017 09:55:00 -4.3 C 3.29 g/m*3 -4.3 C 0 km/h
409 17-01-2017 10:00:00 -4.4 C 3.27 g/m*3 -4.4 C 1.6 km/h
410 17-01-2017 10:05:00 -4.5 C 3.25 g/m*3 -4.5 C 1.6 km/h
411 17-01-2017 10:10:00 -4.6 C 3.22 g/m*3 -4.6 C 3.2 km/h
412 17-01-2017 10:15:00 -4.6 C 3.22 g/m*3 -4.6 C 3.2 km/h
413 17-01-2017 10:20:00 -4.6 C 3.22 g/m*3 -4.6 C 1.6 km/h
414 17-01-2017 10:25:00 -4.6 C 3.22 g/m*3 -4.6 C 0 km/h
415 17-01-2017 10:30:00 -4.5 C 3.25 g/m*3 -4.5 C 0 km/h
416 17-01-2017 10:35:00 -4.5 C 3.25 g/m*3 -4.5 C 0 km/h
417 17-01-2017 10:40:00 -4.5 C 3.25 g/m*3 -4.5 C 0 km/h
418 17-01-2017 10:45:00 -4.4 C 3.27 g/m*3 -4.4 C 0 km/h
419 17-01-2017 10:50:00 -4.4 C 3.27 g/m*3 -4.4 C 0 km/h
420 17-01-2017 10:55:00 -4.3 C 3.29 g/m*3 -4.3 C 0 km/h
421 17-01-2017 11:00:00 -4.3 C 3.29 g/m*3 -4.3 C 0 km/h
422 17-01-2017 11:05:00 -4.2 C 3.32 g/m*3 -4.2 C 0 km/h
423 17-01-2017 11:10:00 -4.1 C 3.34 g/m*3 -4.1 C 0 km/h
424 17-01-2017 11:15:00 -4.1 C 3.34 g/m*3 -4.1 C 0 km/h
425 17-01-2017 11:20:00 -3.9 C 3.43 g/m*3 -3.9 C 0 km/h
Sensor: Nr:Datum:Temp:Abs-Feuchte:Windchill:Wind:
Aussen-T/F 426 17-01-2017 11:25:00 -3.8 C 3.41 g/m*3 -3.8 C 0 km/h
427 17-01-2017 11:30:00 -3.7 C 3.44 g/m*3 -3.7 C 0 km/h
428 17-01-2017 11:35:00 -3.6 C 3.5 g/m*3 -3.6 C 0 km/h
429 17-01-2017 11:40:00 -3.4 C 3.51 g/m*3 -3.4 C 0 km/h
430 17-01-2017 11:45:00 -3.2 C 3.56 g/m*3 -3.2 C 0 km/h
431 17-01-2017 11:50:00 -2.9 C 3.64 g/m*3 -2.9 C 0 km/h
432 17-01-2017 11:55:00 -2.7 C 3.69 g/m*3 -2.7 C 0 km/h
433 17-01-2017 12:00:00 -2.5 C 3.7 g/m*3 -2.5 C 0 km/h
434 17-01-2017 12:05:00 -2.3 C 3.67 g/m*3 -2.3 C 0 km/h
435 17-01-2017 12:10:00 -2.2 C 3.7 g/m*3 -2.2 C 0 km/h
436 17-01-2017 12:15:00 -2.1 C 3.73 g/m*3 -2.1 C 0 km/h
437 17-01-2017 12:20:00 -1.9 C 3.74 g/m*3 -1.9 C 0 km/h
438 17-01-2017 12:25:00 -1.8 C 3.72 g/m*3 -1.8 C 0 km/h
439 17-01-2017 12:30:00 -1.8 C 3.68 g/m*3 -1.8 C 0 km/h
440 17-01-2017 12:35:00 -1.7 C 3.7 g/m*3 -1.7 C 0 km/h
441 17-01-2017 12:40:00 -1.7 C 3.66 g/m*3 -1.7 C 3.2 km/h
442 17-01-2017 12:45:00 -1.6 C 3.68 g/m*3 -1.6 C 1.6 km/h
443 17-01-2017 12:50:00 -1.6 C 3.68 g/m*3 -1.6 C 1.6 km/h
444 17-01-2017 12:55:00 -1.6 C 3.73 g/m*3 -1.6 C 0 km/h
445 17-01-2017 13:00:00 -1.6 C 3.73 g/m*3 -1.6 C 1.6 km/h
446 17-01-2017 13:05:00 -1.6 C 3.73 g/m*3 -1.6 C 4.8 km/h
447 17-01-2017 13:10:00 -1.5 C 3.71 g/m*3 -1.5 C 4.8 km/h
448 17-01-2017 13:15:00 -1.5 C 3.75 g/m*3 -1.5 C 0 km/h
449 17-01-2017 13:20:00 -1.4 C 3.78 g/m*3 -1.4 C 1.6 km/h
450 17-01-2017 13:25:00 -1.3 C 3.76 g/m*3 -1.3 C 1.6 km/h
Sensor: Nr:Datum:Temp:Abs-Feuchte:Windchill:Wind:
Aussen-T/F 451 17-01-2017 13:30:00 -1.1 C 3.82 g/m*3 -1.1 C 3.2 km/h
452 17-01-2017 13:35:00 -0.9 C 3.82 g/m*3 -3.83 C 8.1 km/h
453 17-01-2017 13:40:00 -0.7 C 3.88 g/m*3 -4.48 C 11.3 km/h
454 17-01-2017 13:45:00 -0.7 C 3.88 g/m*3 -3.59 C 8.1 km/h
455 17-01-2017 13:50:00 -0.7 C 3.88 g/m*3 -4.48 C 11.3 km/h
456 17-01-2017 13:55:00 -0.7 C 3.83 g/m*3 -3.59 C 8.1 km/h
457 17-01-2017 14:00:00 -0.6 C 3.86 g/m*3 -3.48 C 8.1 km/h
458 17-01-2017 14:05:00 -0.6 C 3.86 g/m*3 -3.48 C 8.1 km/h
459 17-01-2017 14:10:00 -0.6 C 3.86 g/m*3 -2.88 C 6.4 km/h
460 17-01-2017 14:15:00 -0.6 C 3.81 g/m*3 -3.48 C 8.1 km/h
461 17-01-2017 14:20:00 -0.6 C 3.86 g/m*3 -2.88 C 6.4 km/h
462 17-01-2017 14:25:00 -0.6 C 3.81 g/m*3 -3.95 C 9.7 km/h
463 17-01-2017 14:30:00 -0.6 C 3.81 g/m*3 -4.36 C 11.3 km/h
464 17-01-2017 14:35:00 -0.6 C 3.81 g/m*3 -3.95 C 9.7 km/h
465 17-01-2017 14:40:00 -0.5 C 3.84 g/m*3 -3.36 C 8.1 km/h
466 17-01-2017 14:45:00 -0.5 C 3.84 g/m*3 -0.5 C 4.8 km/h
467 17-01-2017 14:50:00 -0.4 C 3.91 g/m*3 -0.4 C 4.8 km/h
468 17-01-2017 14:55:00 -0.4 C 3.86 g/m*3 -2.64 C 6.4 km/h
469 17-01-2017 15:00:00 -0.3 C 3.89 g/m*3 -3.12 C 8.1 km/h
470 17-01-2017 15:05:00 -0.3 C 3.84 g/m*3 -4 C 11.3 km/h
471 17-01-2017 15:10:00 -0.3 C 3.89 g/m*3 -3.12 C 8.1 km/h
472 17-01-2017 15:15:00 -0.2 C 3.92 g/m*3 -3 C 8.1 km/h
473 17-01-2017 15:20:00 -0.2 C 3.87 g/m*3 -3.88 C 11.3 km/h
474 17-01-2017 15:25:00 -0.2 C 3.92 g/m*3 -3.47 C 9.7 km/h
475 17-01-2017 15:30:00 -0.3 C 3.84 g/m*3 -3.59 C 9.7 km/h
Sensor: Nr:Datum:Temp:Abs-Feuchte:Windchill:Wind:
Aussen-T/F 476 17-01-2017 15:35:00 -0.4 C 3.86 g/m*3 -0.4 C 4.8 km/h
477 17-01-2017 15:40:00 -0.6 C 3.81 g/m*3 -3.48 C 8.1 km/h
478 17-01-2017 15:45:00 -0.6 C 3.81 g/m*3 -3.95 C 9.7 km/h
479 17-01-2017 15:50:00 -0.7 C 3.78 g/m*3 -2.99 C 6.4 km/h
480 17-01-2017 15:55:00 -0.8 C 3.8 g/m*3 -0.8 C 1.6 km/h
481 17-01-2017 16:00:00 -0.9 C 3.82 g/m*3 -0.9 C 0 km/h
482 17-01-2017 16:05:00 -1.2 C 3.74 g/m*3 -1.2 C 0 km/h
483 17-01-2017 16:10:00 -1.3 C 3.76 g/m*3 -1.3 C 0 km/h
484 17-01-2017 16:15:00 -1.4 C 3.78 g/m*3 -1.4 C 0 km/h
485 17-01-2017 16:20:00 -1.6 C 3.73 g/m*3 -1.6 C 0 km/h
486 17-01-2017 16:25:00 -1.7 C 3.75 g/m*3 -1.7 C 3.2 km/h
487 17-01-2017 16:30:00 -1.7 C 3.75 g/m*3 -1.7 C 3.2 km/h
488 17-01-2017 16:35:00 -1.7 C 3.75 g/m*3 -1.7 C 3.2 km/h
489 17-01-2017 16:40:00 -1.8 C 3.72 g/m*3 -1.8 C 3.2 km/h
490 17-01-2017 16:45:00 -1.8 C 3.76 g/m*3 -1.8 C 3.2 km/h
491 17-01-2017 16:50:00 -1.8 C 3.76 g/m*3 -1.8 C 0 km/h
492 17-01-2017 16:55:00 -1.9 C 3.74 g/m*3 -1.9 C 4.8 km/h
493 17-01-2017 17:00:00 -1.9 C 3.74 g/m*3 -1.9 C 1.6 km/h
494 17-01-2017 17:05:00 -2.1 C 3.68 g/m*3 -2.1 C 0 km/h
495 17-01-2017 17:10:00 -2.1 C 3.73 g/m*3 -2.1 C 3.2 km/h
496 17-01-2017 17:15:00 -2.2 C 3.7 g/m*3 -2.2 C 1.6 km/h
497 17-01-2017 17:20:00 -2.2 C 3.7 g/m*3 -2.2 C 3.2 km/h
498 17-01-2017 17:25:00 -2.3 C 3.67 g/m*3 -2.3 C 1.6 km/h
499 17-01-2017 17:30:00 -2.4 C 3.65 g/m*3 -2.4 C 3.2 km/h
500 17-01-2017 17:35:00 -2.6 C 3.6 g/m*3 -2.6 C 3.2 km/h
Sensor: Nr:Datum:Temp:Abs-Feuchte:Windchill:Wind:
Aussen-T/F 501 17-01-2017 17:40:00 -2.7 C 3.57 g/m*3 -2.7 C 3.2 km/h
502 17-01-2017 17:45:00 -2.8 C 3.55 g/m*3 -2.8 C 3.2 km/h
503 17-01-2017 17:50:00 -2.9 C 3.52 g/m*3 -2.9 C 1.6 km/h
504 17-01-2017 17:55:00 -3.1 C 3.51 g/m*3 -3.1 C 3.2 km/h
505 17-01-2017 18:00:00 -3.2 C 3.49 g/m*3 -3.2 C 4.8 km/h
506 17-01-2017 18:05:00 -3.2 C 3.49 g/m*3 -3.2 C 3.2 km/h
507 17-01-2017 18:10:00 -3.3 C 3.46 g/m*3 -3.3 C 3.2 km/h
508 17-01-2017 18:15:00 -3.4 C 3.47 g/m*3 -3.4 C 3.2 km/h
509 17-01-2017 18:20:00 -3.4 C 3.47 g/m*3 -3.4 C 3.2 km/h
510 17-01-2017 18:25:00 -3.5 C 3.45 g/m*3 -3.5 C 3.2 km/h
511 17-01-2017 18:30:00 -3.6 C 3.43 g/m*3 -3.6 C 3.2 km/h
512 17-01-2017 18:35:00 -3.6 C 3.43 g/m*3 -3.6 C 1.6 km/h
513 17-01-2017 18:40:00 -3.6 C 3.46 g/m*3 -3.6 C 3.2 km/h
514 17-01-2017 18:45:00 -3.7 C 3.44 g/m*3 -3.7 C 1.6 km/h
515 17-01-2017 18:50:00 -3.6 C 3.46 g/m*3 -3.6 C 3.2 km/h
516 17-01-2017 18:55:00 -3.5 C 3.49 g/m*3 -3.5 C 0 km/h
517 17-01-2017 19:00:00 -3.5 C 3.49 g/m*3 -3.5 C 1.6 km/h
518 17-01-2017 19:05:00 -3.4 C 3.51 g/m*3 -3.4 C 0 km/h
519 17-01-2017 19:10:00 -3.5 C 3.49 g/m*3 -3.5 C 1.6 km/h
520 17-01-2017 19:15:00 -3.6 C 3.46 g/m*3 -3.6 C 1.6 km/h
521 17-01-2017 19:20:00 -3.7 C 3.44 g/m*3 -3.7 C 3.2 km/h
522 17-01-2017 19:25:00 -3.7 C 3.44 g/m*3 -3.7 C 3.2 km/h
523 17-01-2017 19:30:00 -3.6 C 3.46 g/m*3 -3.6 C 1.6 km/h
524 17-01-2017 19:35:00 -3.6 C 3.46 g/m*3 -3.6 C 3.2 km/h
525 17-01-2017 19:40:00 -3.6 C 3.46 g/m*3 -3.6 C 0 km/h
Sensor: Nr:Datum:Temp:Abs-Feuchte:Windchill:Wind:
Aussen-T/F 526 17-01-2017 19:45:00 -3.6 C 3.46 g/m*3 -3.6 C 1.6 km/h
527 17-01-2017 19:50:00 -3.6 C 3.46 g/m*3 -3.6 C 1.6 km/h
528 17-01-2017 19:55:00 -3.6 C 3.46 g/m*3 -3.6 C 4.8 km/h
529 17-01-2017 20:00:00 -3.6 C 3.46 g/m*3 -3.6 C 4.8 km/h
530 17-01-2017 20:05:00 -3.6 C 3.46 g/m*3 -3.6 C 3.2 km/h
531 17-01-2017 20:10:00 -3.7 C 3.4 g/m*3 -3.7 C 3.2 km/h
532 17-01-2017 20:15:00 -3.8 C 3.38 g/m*3 -3.8 C 1.6 km/h
533 17-01-2017 20:20:00 -3.9 C 3.35 g/m*3 -3.9 C 0 km/h
534 17-01-2017 20:25:00 -4 C 3.33 g/m*3 -4 C 1.6 km/h
535 17-01-2017 20:30:00 -4.1 C 3.31 g/m*3 -4.1 C 1.6 km/h
536 17-01-2017 20:35:00 -4.2 C 3.28 g/m*3 -4.2 C 1.6 km/h
537 17-01-2017 20:40:00 -4.3 C 3.26 g/m*3 -4.3 C 0 km/h
538 17-01-2017 20:45:00 -4.4 C 3.24 g/m*3 -4.4 C 1.6 km/h
539 17-01-2017 20:50:00 -4.4 C 3.24 g/m*3 -4.4 C 3.2 km/h
540 17-01-2017 20:55:00 -4.5 C 3.25 g/m*3 -4.5 C 3.2 km/h
541 17-01-2017 21:00:00 -4.5 C 3.25 g/m*3 -4.5 C 1.6 km/h
542 17-01-2017 21:05:00 -4.6 C 3.22 g/m*3 -4.6 C 0 km/h
543 17-01-2017 21:10:00 -4.7 C 3.2 g/m*3 -4.7 C 1.6 km/h
544 17-01-2017 21:15:00 -4.8 C 3.18 g/m*3 -4.8 C 1.6 km/h
545 17-01-2017 21:20:00 -4.8 C 3.18 g/m*3 -4.8 C 1.6 km/h
546 17-01-2017 21:25:00 -4.9 C 3.16 g/m*3 -4.9 C 0 km/h
547 17-01-2017 21:30:00 -5 C 3.13 g/m*3 -5 C 0 km/h
548 17-01-2017 21:35:00 -5.1 C 3.11 g/m*3 -5.1 C 0 km/h
549 17-01-2017 21:40:00 -5.1 C 3.11 g/m*3 -5.1 C 0 km/h
550 17-01-2017 21:45:00 -5.2 C 3.09 g/m*3 -5.2 C 0 km/h
Sensor: Nr:Datum:Temp:Abs-Feuchte:Windchill:Wind:
Aussen-T/F 551 17-01-2017 21:50:00 -5.3 C 3.07 g/m*3 -5.3 C 0 km/h
552 17-01-2017 21:55:00 -5.3 C 3.07 g/m*3 -5.3 C 0 km/h
553 17-01-2017 22:00:00 -5.3 C 3.1 g/m*3 -5.3 C 0 km/h
554 17-01-2017 22:05:00 -5.4 C 3.08 g/m*3 -5.4 C 0 km/h
555 17-01-2017 22:10:00 -5.4 C 3.08 g/m*3 -5.4 C 0 km/h
556 17-01-2017 22:15:00 -5.5 C 3.05 g/m*3 -5.5 C 0 km/h
557 17-01-2017 22:20:00 -5.6 C 3 g/m*3 -5.6 C 0 km/h
558 17-01-2017 22:25:00 -5.7 C 2.98 g/m*3 -5.7 C 0 km/h
559 17-01-2017 22:30:00 -5.8 C 2.99 g/m*3 -5.8 C 0 km/h
560 17-01-2017 22:35:00 -5.9 C 2.97 g/m*3 -5.9 C 0 km/h
561 17-01-2017 22:40:00 -5.9 C 2.97 g/m*3 -5.9 C 0 km/h
562 17-01-2017 22:45:00 -5.9 C 2.97 g/m*3 -5.9 C 0 km/h
563 17-01-2017 22:50:00 -5.8 C 2.99 g/m*3 -5.8 C 0 km/h
564 17-01-2017 22:55:00 -5.8 C 2.99 g/m*3 -5.8 C 0 km/h
565 17-01-2017 23:00:00 -5.8 C 2.99 g/m*3 -5.8 C 0 km/h
566 17-01-2017 23:05:00 -6 C 2.95 g/m*3 -6 C 0 km/h
567 17-01-2017 23:10:00 -6.2 C 2.9 g/m*3 -6.2 C 0 km/h
568 17-01-2017 23:15:00 -6.2 C 2.9 g/m*3 -6.2 C 0 km/h
569 17-01-2017 23:20:00 -6.2 C 2.9 g/m*3 -6.2 C 0 km/h
570 17-01-2017 23:25:00 -6.1 C 2.92 g/m*3 -6.1 C 0 km/h
571 17-01-2017 23:30:00 -6.2 C 2.9 g/m*3 -6.2 C 0 km/h
572 17-01-2017 23:35:00 -6.3 C 2.88 g/m*3 -6.3 C 0 km/h
573 17-01-2017 23:40:00 -6.3 C 2.88 g/m*3 -6.3 C 0 km/h
574 17-01-2017 23:45:00 -6.3 C 2.88 g/m*3 -6.3 C 0 km/h
575 17-01-2017 23:50:00 -6.3 C 2.91 g/m*3 -6.3 C 0 km/h
Sensor: Nr:Datum:Temp:Abs-Feuchte:Windchill:Wind:
Aussen-T/F 576 17-01-2017 23:55:00 -6.3 C 2.91 g/m*3 -6.3 C 0 km/h
577 18-01-2017 00:00:00 -6.4 C 2.86 g/m*3 -6.4 C 0 km/h
578 18-01-2017 00:05:00 -6.4 C 2.89 g/m*3 -6.4 C 0 km/h
579 18-01-2017 00:10:00 -6.4 C 2.89 g/m*3 -6.4 C 0 km/h
580 18-01-2017 00:15:00 -6.5 C 2.84 g/m*3 -6.5 C 0 km/h
581 18-01-2017 00:20:00 -6.5 C 2.84 g/m*3 -6.5 C 0 km/h
582 18-01-2017 00:25:00 -6.6 C 2.82 g/m*3 -6.6 C 0 km/h
583 18-01-2017 00:30:00 -6.5 C 2.87 g/m*3 -6.5 C 0 km/h
584 18-01-2017 00:35:00 -6.6 C 2.85 g/m*3 -6.6 C 0 km/h
585 18-01-2017 00:40:00 -6.6 C 2.82 g/m*3 -6.6 C 0 km/h
586 18-01-2017 00:45:00 -6.7 C 2.83 g/m*3 -6.7 C 0 km/h
587 18-01-2017 00:50:00 -6.7 C 2.8 g/m*3 -6.7 C 0 km/h
588 18-01-2017 00:55:00 -6.7 C 2.83 g/m*3 -6.7 C 0 km/h
589 18-01-2017 01:00:00 -6.7 C 2.83 g/m*3 -6.7 C 0 km/h
590 18-01-2017 01:05:00 -6.8 C 2.78 g/m*3 -6.8 C 0 km/h
591 18-01-2017 01:10:00 -6.9 C 2.76 g/m*3 -6.9 C 0 km/h
592 18-01-2017 01:15:00 -6.8 C 2.81 g/m*3 -6.8 C 0 km/h
593 18-01-2017 01:20:00 -6.8 C 2.81 g/m*3 -6.8 C 0 km/h
594 18-01-2017 01:25:00 -6.8 C 2.81 g/m*3 -6.8 C 0 km/h
595 18-01-2017 01:30:00 -6.8 C 2.81 g/m*3 -6.8 C 0 km/h
596 18-01-2017 01:35:00 -6.8 C 2.81 g/m*3 -6.8 C 0 km/h
597 18-01-2017 01:40:00 -6.9 C 2.79 g/m*3 -6.9 C 0 km/h
598 18-01-2017 01:45:00 -7 C 2.77 g/m*3 -7 C 0 km/h
599 18-01-2017 01:50:00 -7.1 C 2.72 g/m*3 -7.1 C 0 km/h
600 18-01-2017 01:55:00 -7.1 C 2.72 g/m*3 -7.1 C 0 km/h
Sensor: Nr:Datum:Temp:Abs-Feuchte:Windchill:Wind:
Aussen-T/F 601 18-01-2017 02:00:00 -7.1 C 2.75 g/m*3 -7.1 C 0 km/h
602 18-01-2017 02:05:00 -7.1 C 2.75 g/m*3 -7.1 C 0 km/h
603 18-01-2017 02:10:00 -7.1 C 2.75 g/m*3 -7.1 C 0 km/h
604 18-01-2017 02:15:00 -7.1 C 2.75 g/m*3 -7.1 C 0 km/h
605 18-01-2017 02:20:00 -7.2 C 2.73 g/m*3 -7.2 C 0 km/h
606 18-01-2017 02:25:00 -7.2 C 2.73 g/m*3 -7.2 C 0 km/h
607 18-01-2017 02:30:00 -7.2 C 2.73 g/m*3 -7.2 C 0 km/h
608 18-01-2017 02:35:00 -7.3 C 2.71 g/m*3 -7.3 C 0 km/h
609 18-01-2017 02:40:00 -7.4 C 2.66 g/m*3 -7.4 C 0 km/h
610 18-01-2017 02:45:00 -7.4 C 2.69 g/m*3 -7.4 C 0 km/h
611 18-01-2017 02:50:00 -7.4 C 2.69 g/m*3 -7.4 C 0 km/h
612 18-01-2017 02:55:00 -7.4 C 2.69 g/m*3 -7.4 C 0 km/h
613 18-01-2017 03:00:00 -7.4 C 2.69 g/m*3 -7.4 C 0 km/h
614 18-01-2017 03:05:00 -7.4 C 2.69 g/m*3 -7.4 C 0 km/h
615 18-01-2017 03:10:00 -7.5 C 2.67 g/m*3 -7.5 C 0 km/h
616 18-01-2017 03:15:00 -7.5 C 2.67 g/m*3 -7.5 C 0 km/h
617 18-01-2017 03:20:00 -7.6 C 2.65 g/m*3 -7.6 C 0 km/h
618 18-01-2017 03:25:00 -7.7 C 2.6 g/m*3 -7.7 C 0 km/h
619 18-01-2017 03:30:00 -7.7 C 2.63 g/m*3 -7.7 C 0 km/h
620 18-01-2017 03:35:00 -7.6 C 2.65 g/m*3 -7.6 C 0 km/h
621 18-01-2017 03:40:00 -7.6 C 2.65 g/m*3 -7.6 C 0 km/h
622 18-01-2017 03:45:00 -7.5 C 2.67 g/m*3 -7.5 C 0 km/h
623 18-01-2017 03:50:00 -7.5 C 2.67 g/m*3 -7.5 C 0 km/h
624 18-01-2017 03:55:00 -7.6 C 2.65 g/m*3 -7.6 C 0 km/h
625 18-01-2017 04:00:00 -7.6 C 2.65 g/m*3 -7.6 C 0 km/h
Sensor: Nr:Datum:Temp:Abs-Feuchte:Windchill:Wind:
Aussen-T/F 626 18-01-2017 04:05:00 -7.7 C 2.63 g/m*3 -7.7 C 0 km/h
627 18-01-2017 04:10:00 -7.7 C 2.63 g/m*3 -7.7 C 0 km/h
628 18-01-2017 04:15:00 -7.7 C 2.63 g/m*3 -7.7 C 0 km/h
629 18-01-2017 04:20:00 -7.7 C 2.63 g/m*3 -7.7 C 0 km/h
630 18-01-2017 04:25:00 -7.8 C 2.61 g/m*3 -7.8 C 0 km/h
631 18-01-2017 04:30:00 -7.8 C 2.61 g/m*3 -7.8 C 0 km/h
632 18-01-2017 04:35:00 -7.8 C 2.61 g/m*3 -7.8 C 0 km/h
633 18-01-2017 04:40:00 -7.8 C 2.61 g/m*3 -7.8 C 0 km/h
634 18-01-2017 04:45:00 -7.8 C 2.61 g/m*3 -7.8 C 0 km/h
635 18-01-2017 04:50:00 -7.8 C 2.61 g/m*3 -7.8 C 0 km/h
636 18-01-2017 04:55:00 -7.8 C 2.61 g/m*3 -7.8 C 0 km/h
637 18-01-2017 05:00:00 -7.8 C 2.61 g/m*3 -7.8 C 0 km/h
638 18-01-2017 05:05:00 -7.8 C 2.61 g/m*3 -7.8 C 0 km/h
639 18-01-2017 05:10:00 -7.7 C 2.63 g/m*3 -7.7 C 0 km/h
640 18-01-2017 05:15:00 -7.8 C 2.61 g/m*3 -7.8 C 0 km/h
641 18-01-2017 05:20:00 -7.8 C 2.61 g/m*3 -7.8 C 0 km/h
642 18-01-2017 05:25:00 -7.7 C 2.63 g/m*3 -7.7 C 0 km/h
643 18-01-2017 05:30:00 -7.7 C 2.63 g/m*3 -7.7 C 0 km/h
644 18-01-2017 05:35:00 -7.6 C 2.65 g/m*3 -7.6 C 0 km/h
645 18-01-2017 05:40:00 -7.6 C 2.65 g/m*3 -7.6 C 0 km/h
646 18-01-2017 05:45:00 -7.5 C 2.67 g/m*3 -7.5 C 0 km/h
647 18-01-2017 05:50:00 -7.5 C 2.67 g/m*3 -7.5 C 0 km/h
648 18-01-2017 05:55:00 -7.5 C 2.67 g/m*3 -7.5 C 0 km/h
649 18-01-2017 06:00:00 -7.5 C 2.67 g/m*3 -7.5 C 0 km/h
650 18-01-2017 06:05:00 -7.4 C 2.69 g/m*3 -7.4 C 3.2 km/h
Sensor: Nr:Datum:Temp:Abs-Feuchte:Windchill:Wind:
Aussen-T/F 651 18-01-2017 06:10:00 -7.3 C 2.71 g/m*3 -7.3 C 3.2 km/h
652 18-01-2017 06:15:00 -7.1 C 2.75 g/m*3 -7.1 C 1.6 km/h
653 18-01-2017 06:20:00 -7.1 C 2.75 g/m*3 -7.1 C 3.2 km/h
654 18-01-2017 06:25:00 -7.1 C 2.75 g/m*3 -7.1 C 3.2 km/h
655 18-01-2017 06:30:00 -7 C 2.77 g/m*3 -7 C 3.2 km/h
656 18-01-2017 06:35:00 -6.9 C 2.79 g/m*3 -6.9 C 1.6 km/h
657 18-01-2017 06:40:00 -6.9 C 2.79 g/m*3 -6.9 C 3.2 km/h
658 18-01-2017 06:45:00 -6.9 C 2.79 g/m*3 -6.9 C 3.2 km/h
659 18-01-2017 06:50:00 -6.9 C 2.79 g/m*3 -6.9 C 4.8 km/h
660 18-01-2017 06:55:00 -6.8 C 2.81 g/m*3 -6.8 C 1.6 km/h
661 18-01-2017 07:00:00 -6.8 C 2.81 g/m*3 -6.8 C 3.2 km/h
662 18-01-2017 07:05:00 -6.8 C 2.81 g/m*3 -6.8 C 3.2 km/h
663 18-01-2017 07:10:00 -6.8 C 2.81 g/m*3 -6.8 C 3.2 km/h
664 18-01-2017 07:15:00 -6.9 C 2.79 g/m*3 -6.9 C 1.6 km/h
665 18-01-2017 07:20:00 -6.9 C 2.79 g/m*3 -6.9 C 3.2 km/h
666 18-01-2017 09:40:00 -6.2 C 2.93 g/m*3 -6.2 C 0 km/h
667 18-01-2017 09:45:00 -6.1 C 2.96 g/m*3 -6.1 C 0 km/h
668 18-01-2017 09:50:00 -6.1 C 2.96 g/m*3 -6.1 C 0 km/h
669 18-01-2017 09:55:00 -6.1 C 2.96 g/m*3 -6.1 C 1.6 km/h
670 18-01-2017 10:00:00 -6.2 C 2.93 g/m*3 -6.2 C 0 km/h
671 18-01-2017 10:05:00 -6.2 C 2.93 g/m*3 -6.2 C 0 km/h
672 18-01-2017 10:10:00 -6.2 C 2.93 g/m*3 -6.2 C 0 km/h
673 18-01-2017 10:15:00 -6.2 C 2.93 g/m*3 -6.2 C 3.2 km/h
674 18-01-2017 10:20:00 -6.2 C 2.93 g/m*3 -6.2 C 0 km/h
675 18-01-2017 10:25:00 -6.2 C 2.93 g/m*3 -6.2 C 0 km/h
Sensor: Nr:Datum:Temp:Abs-Feuchte:Windchill:Wind:
Aussen-T/F 676 18-01-2017 10:30:00 -6.2 C 2.93 g/m*3 -6.2 C 0 km/h
677 18-01-2017 10:35:00 -6.2 C 2.93 g/m*3 -6.2 C 1.6 km/h
678 18-01-2017 10:40:00 -6.2 C 2.93 g/m*3 -6.2 C 0 km/h
679 18-01-2017 10:45:00 -6.2 C 2.93 g/m*3 -6.2 C 0 km/h
680 18-01-2017 10:50:00 -6.2 C 2.93 g/m*3 -6.2 C 0 km/h
681 18-01-2017 10:55:00 -6.1 C 2.96 g/m*3 -6.1 C 0 km/h
682 18-01-2017 11:00:00 -6.1 C 2.96 g/m*3 -6.1 C 0 km/h
683 18-01-2017 11:05:00 -6.1 C 2.96 g/m*3 -6.1 C 0 km/h
684 18-01-2017 11:10:00 -6.1 C 2.96 g/m*3 -6.1 C 0 km/h
685 18-01-2017 11:15:00 -5.9 C 3 g/m*3 -5.9 C 0 km/h
686 18-01-2017 11:20:00 -5.9 C 3 g/m*3 -5.9 C 0 km/h
687 18-01-2017 11:25:00 -5.8 C 3.02 g/m*3 -5.8 C 0 km/h
688 18-01-2017 11:30:00 -5.8 C 3.02 g/m*3 -5.8 C 3.2 km/h
689 18-01-2017 11:35:00 -5.7 C 3.04 g/m*3 -5.7 C 0 km/h
690 18-01-2017 11:40:00 -5.5 C 3.09 g/m*3 -5.5 C 0 km/h
691 18-01-2017 11:45:00 -5.3 C 3.13 g/m*3 -5.3 C 3.2 km/h
692 18-01-2017 11:50:00 -5.2 C 3.15 g/m*3 -5.2 C 1.6 km/h
693 18-01-2017 11:55:00 -5.1 C 3.18 g/m*3 -5.1 C 1.6 km/h
694 18-01-2017 12:00:00 -5 C 3.2 g/m*3 -5 C 1.6 km/h
695 18-01-2017 12:05:00 -4.9 C 3.22 g/m*3 -4.9 C 1.6 km/h
696 18-01-2017 12:10:00 -4.8 C 3.25 g/m*3 -4.8 C 3.2 km/h
697 18-01-2017 12:15:00 -4.7 C 3.27 g/m*3 -4.7 C 1.6 km/h
698 18-01-2017 12:20:00 -4.6 C 3.29 g/m*3 -4.6 C 3.2 km/h
699 18-01-2017 12:25:00 -4.5 C 3.28 g/m*3 -4.5 C 3.2 km/h
700 18-01-2017 12:30:00 -4.4 C 3.31 g/m*3 -4.4 C 3.2 km/h
Sensor: Nr:Datum:Temp:Abs-Feuchte:Windchill:Wind:
Aussen-T/F 701 18-01-2017 12:35:00 -4.4 C 3.31 g/m*3 -4.4 C 1.6 km/h
702 18-01-2017 12:40:00 -4.3 C 3.33 g/m*3 -4.3 C 0 km/h
703 18-01-2017 12:45:00 -4.3 C 3.33 g/m*3 -4.3 C 4.8 km/h
704 18-01-2017 12:50:00 -4.3 C 3.33 g/m*3 -4.3 C 1.6 km/h
705 18-01-2017 12:55:00 -4.2 C 3.35 g/m*3 -4.2 C 3.2 km/h
706 18-01-2017 13:00:00 -4.1 C 3.38 g/m*3 -4.1 C 3.2 km/h
707 18-01-2017 13:05:00 -4.1 C 3.38 g/m*3 -4.1 C 3.2 km/h
708 18-01-2017 13:10:00 -4 C 3.4 g/m*3 -4 C 0 km/h
709 18-01-2017 13:15:00 -3.9 C 3.43 g/m*3 -3.9 C 3.2 km/h
710 18-01-2017 13:20:00 -3.9 C 3.43 g/m*3 -3.9 C 1.6 km/h
711 18-01-2017 13:25:00 -3.8 C 3.45 g/m*3 -3.8 C 1.6 km/h
712 18-01-2017 13:30:00 -3.7 C 3.48 g/m*3 -3.7 C 0 km/h
713 18-01-2017 13:35:00 -3.7 C 3.48 g/m*3 -3.7 C 1.6 km/h
714 18-01-2017 13:40:00 -3.6 C 3.5 g/m*3 -3.6 C 1.6 km/h
715 18-01-2017 13:45:00 -3.4 C 3.51 g/m*3 -3.4 C 1.6 km/h
716 18-01-2017 13:50:00 -3.4 C 3.51 g/m*3 -3.4 C 1.6 km/h
717 18-01-2017 13:55:00 -3.3 C 3.54 g/m*3 -3.3 C 1.6 km/h
718 18-01-2017 14:00:00 -3.3 C 3.5 g/m*3 -3.3 C 3.2 km/h
719 18-01-2017 14:05:00 -3.2 C 3.52 g/m*3 -3.2 C 1.6 km/h
720 18-01-2017 14:10:00 -3.2 C 3.52 g/m*3 -3.2 C 3.2 km/h
721 18-01-2017 14:15:00 -3.2 C 3.52 g/m*3 -3.2 C 1.6 km/h
722 18-01-2017 14:20:00 -3.2 C 3.52 g/m*3 -3.2 C 3.2 km/h
723 18-01-2017 14:25:00 -3.2 C 3.52 g/m*3 -3.2 C 3.2 km/h
724 18-01-2017 14:30:00 -3.2 C 3.52 g/m*3 -3.2 C 1.6 km/h
725 18-01-2017 14:35:00 -3.1 C 3.55 g/m*3 -3.1 C 1.6 km/h
Sensor: Nr:Datum:Temp:Abs-Feuchte:Windchill:Wind:
Aussen-T/F 726 18-01-2017 14:40:00 -2.9 C 3.6 g/m*3 -5.53 C 6.4 km/h
727 18-01-2017 14:45:00 -2.7 C 3.61 g/m*3 -5.3 C 6.4 km/h
728 18-01-2017 14:50:00 -2.7 C 3.61 g/m*3 -2.7 C 1.6 km/h
729 18-01-2017 14:55:00 -2.7 C 3.57 g/m*3 -7.29 C 12.9 km/h
730 18-01-2017 15:00:00 -2.4 C 3.61 g/m*3 -2.4 C 3.2 km/h
731 18-01-2017 15:05:00 -2.4 C 3.61 g/m*3 -2.4 C 1.6 km/h
732 18-01-2017 15:10:00 -2.4 C 3.57 g/m*3 -2.4 C 4.8 km/h
733 18-01-2017 15:15:00 -2.4 C 3.57 g/m*3 -2.4 C 3.2 km/h
734 18-01-2017 15:20:00 -2.3 C 3.63 g/m*3 -2.3 C 3.2 km/h
735 18-01-2017 15:25:00 -2.2 C 3.62 g/m*3 -2.2 C 4.8 km/h
736 18-01-2017 15:30:00 -1.9 C 3.61 g/m*3 -5.5 C 9.7 km/h
737 18-01-2017 15:35:00 -1.7 C 3.66 g/m*3 -1.7 C 4.8 km/h
738 18-01-2017 15:40:00 -1.6 C 3.68 g/m*3 -1.6 C 3.2 km/h
739 18-01-2017 15:45:00 -1.6 C 3.68 g/m*3 -1.6 C 1.6 km/h
740 18-01-2017 15:50:00 -1.5 C 3.75 g/m*3 -1.5 C 3.2 km/h
741 18-01-2017 15:55:00 -1.4 C 3.69 g/m*3 -1.4 C 4.8 km/h
742 18-01-2017 16:00:00 -1.3 C 3.72 g/m*3 -1.3 C 3.2 km/h
743 18-01-2017 16:05:00 -1.2 C 3.7 g/m*3 -1.2 C 4.8 km/h
744 18-01-2017 16:10:00 -1.2 C 3.66 g/m*3 -4.18 C 8.1 km/h
745 18-01-2017 16:15:00 -1.1 C 3.64 g/m*3 -3.45 C 6.4 km/h
746 18-01-2017 16:20:00 -1.1 C 3.73 g/m*3 -1.1 C 1.6 km/h
747 18-01-2017 16:25:00 -1.2 C 3.7 g/m*3 -1.2 C 1.6 km/h
748 18-01-2017 16:30:00 -1.2 C 3.7 g/m*3 -1.2 C 1.6 km/h
749 18-01-2017 16:35:00 -1.3 C 3.72 g/m*3 -1.3 C 3.2 km/h
750 18-01-2017 16:40:00 -1.4 C 3.69 g/m*3 -1.4 C 1.6 km/h
Sensor: Nr:Datum:Temp:Abs-Feuchte:Windchill:Wind:
Aussen-T/F 751 18-01-2017 16:45:00 -1.6 C 3.64 g/m*3 -1.6 C 1.6 km/h
752 18-01-2017 16:50:00 -1.7 C 3.62 g/m*3 -1.7 C 1.6 km/h
753 18-01-2017 16:55:00 -1.8 C 3.63 g/m*3 -1.8 C 3.2 km/h
754 18-01-2017 17:00:00 -2 C 3.58 g/m*3 -2 C 1.6 km/h
755 18-01-2017 17:05:00 -2.2 C 3.53 g/m*3 -2.2 C 4.8 km/h
756 18-01-2017 17:10:00 -2.3 C 3.51 g/m*3 -2.3 C 4.8 km/h
757 18-01-2017 17:15:00 -2.5 C 3.46 g/m*3 -2.5 C 4.8 km/h
758 18-01-2017 17:20:00 -2.6 C 3.43 g/m*3 -2.6 C 4.8 km/h
759 18-01-2017 17:25:00 -2.7 C 3.41 g/m*3 -2.7 C 4.8 km/h
760 18-01-2017 17:30:00 -2.8 C 3.43 g/m*3 -5.42 C 6.4 km/h
761 18-01-2017 17:35:00 -2.9 C 3.4 g/m*3 -2.9 C 4.8 km/h
762 18-01-2017 17:40:00 -2.9 C 3.44 g/m*3 -2.9 C 4.8 km/h
763 18-01-2017 17:45:00 -2.9 C 3.44 g/m*3 -2.9 C 4.8 km/h
764 18-01-2017 17:50:00 -3 C 3.42 g/m*3 -3 C 4.8 km/h
765 18-01-2017 17:55:00 -3.1 C 3.39 g/m*3 -3.1 C 3.2 km/h
766 18-01-2017 18:00:00 -3.1 C 3.39 g/m*3 -3.1 C 1.6 km/h
767 18-01-2017 18:05:00 -3.2 C 3.41 g/m*3 -3.2 C 0 km/h
768 18-01-2017 18:10:00 -3.2 C 3.41 g/m*3 -3.2 C 3.2 km/h
769 18-01-2017 18:15:00 -3.3 C 3.38 g/m*3 -3.3 C 4.8 km/h
770 18-01-2017 18:20:00 -3.3 C 3.38 g/m*3 -3.3 C 3.2 km/h
771 18-01-2017 18:25:00 -3.4 C 3.36 g/m*3 -3.4 C 4.8 km/h
772 18-01-2017 18:30:00 -3.5 C 3.34 g/m*3 -3.5 C 4.8 km/h
773 18-01-2017 18:35:00 -3.5 C 3.34 g/m*3 -3.5 C 4.8 km/h
774 18-01-2017 18:40:00 -3.6 C 3.31 g/m*3 -3.6 C 1.6 km/h
775 18-01-2017 18:45:00 -3.7 C 3.29 g/m*3 -3.7 C 1.6 km/h
Sensor: Nr:Datum:Temp:Abs-Feuchte:Windchill:Wind:
Aussen-T/F 776 18-01-2017 18:50:00 -3.8 C 3.3 g/m*3 -3.8 C 3.2 km/h
777 18-01-2017 18:55:00 -3.8 C 3.3 g/m*3 -3.8 C 3.2 km/h
778 18-01-2017 19:00:00 -3.9 C 3.28 g/m*3 -3.9 C 3.2 km/h
779 18-01-2017 19:05:00 -3.9 C 3.28 g/m*3 -3.9 C 1.6 km/h
780 18-01-2017 19:10:00 -4 C 3.26 g/m*3 -4 C 3.2 km/h
781 18-01-2017 19:15:00 -4.2 C 3.21 g/m*3 -4.2 C 1.6 km/h
782 18-01-2017 19:20:00 -4.3 C 3.19 g/m*3 -4.3 C 0 km/h
783 18-01-2017 19:25:00 -4.4 C 3.16 g/m*3 -4.4 C 3.2 km/h
784 18-01-2017 19:30:00 -4.4 C 3.2 g/m*3 -4.4 C 3.2 km/h
785 18-01-2017 19:35:00 -4.4 C 3.2 g/m*3 -4.4 C 3.2 km/h
786 18-01-2017 19:40:00 -4.4 C 3.2 g/m*3 -4.4 C 3.2 km/h
787 18-01-2017 19:45:00 -4.4 C 3.24 g/m*3 -4.4 C 3.2 km/h
788 18-01-2017 19:50:00 -4.4 C 3.2 g/m*3 -4.4 C 0 km/h
789 18-01-2017 19:55:00 -4.6 C 3.15 g/m*3 -4.6 C 3.2 km/h
790 18-01-2017 20:00:00 -4.5 C 3.21 g/m*3 -4.5 C 3.2 km/h
791 18-01-2017 20:05:00 -4.5 C 3.21 g/m*3 -4.5 C 3.2 km/h
792 18-01-2017 20:10:00 -4.5 C 3.21 g/m*3 -4.5 C 3.2 km/h
793 18-01-2017 20:15:00 -4.4 C 3.24 g/m*3 -4.4 C 3.2 km/h
794 18-01-2017 20:20:00 -4.5 C 3.18 g/m*3 -4.5 C 3.2 km/h
795 18-01-2017 20:25:00 -4.5 C 3.18 g/m*3 -4.5 C 3.2 km/h
796 18-01-2017 20:30:00 -4.6 C 3.15 g/m*3 -4.6 C 1.6 km/h
797 18-01-2017 20:35:00 -4.6 C 3.15 g/m*3 -4.6 C 3.2 km/h
798 18-01-2017 20:40:00 -4.7 C 3.13 g/m*3 -4.7 C 3.2 km/h
799 18-01-2017 20:45:00 -4.7 C 3.13 g/m*3 -4.7 C 0 km/h
800 18-01-2017 20:50:00 -4.8 C 3.11 g/m*3 -4.8 C 1.6 km/h
Sensor: Nr:Datum:Temp:Abs-Feuchte:Windchill:Wind:
Aussen-T/F 801 18-01-2017 20:55:00 -4.9 C 3.09 g/m*3 -4.9 C 0 km/h
802 18-01-2017 21:00:00 -5 C 3.06 g/m*3 -5 C 0 km/h
803 18-01-2017 21:05:00 -5.1 C 3.04 g/m*3 -5.1 C 1.6 km/h
804 18-01-2017 21:10:00 -5.1 C 3.08 g/m*3 -5.1 C 1.6 km/h
805 18-01-2017 21:15:00 -5.1 C 3.08 g/m*3 -5.1 C 0 km/h
806 18-01-2017 21:20:00 -5.2 C 3.05 g/m*3 -5.2 C 1.6 km/h
807 18-01-2017 21:25:00 -5.2 C 3.05 g/m*3 -5.2 C 1.6 km/h
808 18-01-2017 21:30:00 -5.2 C 3.05 g/m*3 -5.2 C 3.2 km/h
809 18-01-2017 21:35:00 -5.2 C 3.09 g/m*3 -5.2 C 1.6 km/h
810 18-01-2017 21:40:00 -5.1 C 3.11 g/m*3 -5.1 C 1.6 km/h
811 18-01-2017 21:45:00 -5.2 C 3.05 g/m*3 -5.2 C 1.6 km/h
812 18-01-2017 21:50:00 -5.2 C 3.05 g/m*3 -5.2 C 3.2 km/h
813 18-01-2017 21:55:00 -5.2 C 3.05 g/m*3 -5.2 C 3.2 km/h
814 18-01-2017 22:00:00 -5.2 C 3.09 g/m*3 -5.2 C 3.2 km/h
815 18-01-2017 22:05:00 -5.2 C 3.09 g/m*3 -5.2 C 1.6 km/h
816 18-01-2017 22:10:00 -5.2 C 3.09 g/m*3 -5.2 C 0 km/h
817 18-01-2017 22:15:00 -5.1 C 3.11 g/m*3 -5.1 C 0 km/h
818 18-01-2017 22:20:00 -5.1 C 3.11 g/m*3 -5.1 C 1.6 km/h
819 18-01-2017 22:25:00 -5 C 3.13 g/m*3 -5 C 1.6 km/h
820 18-01-2017 22:30:00 -5 C 3.1 g/m*3 -5 C 3.2 km/h
821 18-01-2017 22:35:00 -5 C 3.1 g/m*3 -5 C 0 km/h
822 18-01-2017 22:40:00 -5.2 C 3.02 g/m*3 -5.2 C 0 km/h
823 18-01-2017 22:45:00 -5.4 C 2.98 g/m*3 -5.4 C 0 km/h
824 18-01-2017 22:50:00 -5.6 C 2.93 g/m*3 -5.6 C 0 km/h
825 18-01-2017 22:55:00 -5.7 C 2.95 g/m*3 -5.7 C 0 km/h
Sensor: Nr:Datum:Temp:Abs-Feuchte:Windchill:Wind:
Aussen-T/F 826 18-01-2017 23:00:00 -5.8 C 2.92 g/m*3 -5.8 C 0 km/h
827 18-01-2017 23:05:00 -5.9 C 2.9 g/m*3 -5.9 C 3.2 km/h
828 18-01-2017 23:10:00 -5.9 C 2.93 g/m*3 -5.9 C 3.2 km/h
829 18-01-2017 23:15:00 -5.9 C 2.93 g/m*3 -5.9 C 3.2 km/h
830 18-01-2017 23:20:00 -5.8 C 2.96 g/m*3 -5.8 C 1.6 km/h
831 18-01-2017 23:25:00 -5.8 C 2.96 g/m*3 -5.8 C 0 km/h
832 18-01-2017 23:30:00 -5.9 C 2.93 g/m*3 -5.9 C 0 km/h
833 18-01-2017 23:35:00 -6.1 C 2.89 g/m*3 -6.1 C 0 km/h
834 18-01-2017 23:40:00 -6.1 C 2.89 g/m*3 -6.1 C 0 km/h
835 18-01-2017 23:45:00 -6.2 C 2.87 g/m*3 -6.2 C 0 km/h
836 18-01-2017 23:50:00 -6.3 C 2.85 g/m*3 -6.3 C 0 km/h
837 18-01-2017 23:55:00 -6.3 C 2.85 g/m*3 -6.3 C 0 km/h
838 19-01-2017 00:00:00 -6.4 C 2.83 g/m*3 -6.4 C 1.6 km/h
839 19-01-2017 00:05:00 -6.4 C 2.83 g/m*3 -6.4 C 1.6 km/h
840 19-01-2017 00:10:00 -6.4 C 2.83 g/m*3 -6.4 C 0 km/h
841 19-01-2017 00:15:00 -6.4 C 2.83 g/m*3 -6.4 C 0 km/h
842 19-01-2017 00:20:00 -6.4 C 2.83 g/m*3 -6.4 C 0 km/h
843 19-01-2017 00:25:00 -6.5 C 2.81 g/m*3 -6.5 C 0 km/h
844 19-01-2017 00:30:00 -6.6 C 2.79 g/m*3 -6.6 C 0 km/h
845 19-01-2017 00:35:00 -6.6 C 2.79 g/m*3 -6.6 C 0 km/h
846 19-01-2017 00:40:00 -6.6 C 2.79 g/m*3 -6.6 C 0 km/h
847 19-01-2017 00:45:00 -6.6 C 2.79 g/m*3 -6.6 C 0 km/h
848 19-01-2017 00:50:00 -6.6 C 2.82 g/m*3 -6.6 C 0 km/h
849 19-01-2017 00:55:00 -6.8 C 2.75 g/m*3 -6.8 C 0 km/h
850 19-01-2017 01:00:00 -6.8 C 2.75 g/m*3 -6.8 C 0 km/h
Sensor: Nr:Datum:Temp:Abs-Feuchte:Windchill:Wind:
Aussen-T/F 851 19-01-2017 01:05:00 -6.8 C 2.78 g/m*3 -6.8 C 0 km/h
852 19-01-2017 01:10:00 -6.8 C 2.78 g/m*3 -6.8 C 0 km/h
853 19-01-2017 01:15:00 -6.9 C 2.73 g/m*3 -6.9 C 0 km/h
854 19-01-2017 01:20:00 -6.9 C 2.73 g/m*3 -6.9 C 0 km/h
855 19-01-2017 01:25:00 -6.9 C 2.76 g/m*3 -6.9 C 0 km/h
856 19-01-2017 01:30:00 -6.8 C 2.78 g/m*3 -6.8 C 0 km/h
857 19-01-2017 01:35:00 -6.9 C 2.76 g/m*3 -6.9 C 0 km/h
858 19-01-2017 01:40:00 -6.9 C 2.76 g/m*3 -6.9 C 0 km/h
859 19-01-2017 01:45:00 -7.1 C 2.72 g/m*3 -7.1 C 0 km/h
860 19-01-2017 01:50:00 -7.2 C 2.7 g/m*3 -7.2 C 0 km/h
861 19-01-2017 01:55:00 -7.2 C 2.7 g/m*3 -7.2 C 0 km/h
862 19-01-2017 02:00:00 -7.2 C 2.7 g/m*3 -7.2 C 0 km/h
863 19-01-2017 02:05:00 -7.2 C 2.7 g/m*3 -7.2 C 0 km/h
864 19-01-2017 02:10:00 -7.2 C 2.7 g/m*3 -7.2 C 0 km/h
865 19-01-2017 02:15:00 -7.2 C 2.7 g/m*3 -7.2 C 0 km/h
866 19-01-2017 02:20:00 -7.2 C 2.7 g/m*3 -7.2 C 0 km/h
867 19-01-2017 02:25:00 -7.3 C 2.68 g/m*3 -7.3 C 0 km/h
868 19-01-2017 02:30:00 -7.3 C 2.68 g/m*3 -7.3 C 0 km/h
869 19-01-2017 02:35:00 -7.3 C 2.68 g/m*3 -7.3 C 0 km/h
870 19-01-2017 02:40:00 -7.4 C 2.66 g/m*3 -7.4 C 0 km/h
871 19-01-2017 02:45:00 -7.4 C 2.66 g/m*3 -7.4 C 0 km/h
872 19-01-2017 02:50:00 -7.4 C 2.66 g/m*3 -7.4 C 0 km/h
873 19-01-2017 02:55:00 -7.4 C 2.66 g/m*3 -7.4 C 0 km/h
874 19-01-2017 03:00:00 -7.4 C 2.66 g/m*3 -7.4 C 0 km/h
875 19-01-2017 03:05:00 -7.4 C 2.66 g/m*3 -7.4 C 0 km/h
Sensor: Nr:Datum:Temp:Abs-Feuchte:Windchill:Wind:
Aussen-T/F 876 19-01-2017 03:10:00 -7.4 C 2.66 g/m*3 -7.4 C 0 km/h
877 19-01-2017 03:15:00 -7.4 C 2.66 g/m*3 -7.4 C 0 km/h
878 19-01-2017 03:20:00 -7.5 C 2.64 g/m*3 -7.5 C 0 km/h
879 19-01-2017 03:25:00 -7.6 C 2.62 g/m*3 -7.6 C 0 km/h
880 19-01-2017 03:30:00 -7.6 C 2.62 g/m*3 -7.6 C 0 km/h
881 19-01-2017 03:35:00 -7.6 C 2.62 g/m*3 -7.6 C 0 km/h
882 19-01-2017 03:40:00 -7.7 C 2.6 g/m*3 -7.7 C 0 km/h
883 19-01-2017 03:45:00 -7.7 C 2.6 g/m*3 -7.7 C 0 km/h
884 19-01-2017 03:50:00 -7.7 C 2.63 g/m*3 -7.7 C 0 km/h
885 19-01-2017 03:55:00 -7.6 C 2.62 g/m*3 -7.6 C 0 km/h
886 19-01-2017 04:00:00 -7.6 C 2.65 g/m*3 -7.6 C 0 km/h
887 19-01-2017 04:05:00 -7.7 C 2.63 g/m*3 -7.7 C 0 km/h
888 19-01-2017 04:10:00 -7.7 C 2.6 g/m*3 -7.7 C 0 km/h
889 19-01-2017 04:15:00 -7.8 C 2.58 g/m*3 -7.8 C 0 km/h
890 19-01-2017 04:20:00 -7.8 C 2.58 g/m*3 -7.8 C 0 km/h
891 19-01-2017 04:25:00 -7.9 C 2.56 g/m*3 -7.9 C 0 km/h
892 19-01-2017 04:30:00 -8 C 2.54 g/m*3 -8 C 0 km/h
893 19-01-2017 04:35:00 -7.9 C 2.59 g/m*3 -7.9 C 0 km/h
894 19-01-2017 04:40:00 -8 C 2.57 g/m*3 -8 C 0 km/h
895 19-01-2017 04:45:00 -8 C 2.57 g/m*3 -8 C 0 km/h
896 19-01-2017 04:50:00 -8 C 2.54 g/m*3 -8 C 0 km/h
897 19-01-2017 04:55:00 -8 C 2.57 g/m*3 -8 C 0 km/h
898 19-01-2017 05:00:00 -8.1 C 2.52 g/m*3 -8.1 C 0 km/h
899 19-01-2017 05:05:00 -8.2 C 2.51 g/m*3 -8.2 C 0 km/h
900 19-01-2017 05:10:00 -8.2 C 2.51 g/m*3 -8.2 C 0 km/h
Sensor: Nr:Datum:Temp:Abs-Feuchte:Windchill:Wind:
Aussen-T/F 901 19-01-2017 05:15:00 -8.2 C 2.53 g/m*3 -8.2 C 0 km/h
902 19-01-2017 05:20:00 -8.2 C 2.53 g/m*3 -8.2 C 0 km/h
903 19-01-2017 05:25:00 -8.1 C 2.55 g/m*3 -8.1 C 0 km/h
904 19-01-2017 05:30:00 -8.1 C 2.55 g/m*3 -8.1 C 0 km/h
905 19-01-2017 05:35:00 -8.1 C 2.55 g/m*3 -8.1 C 0 km/h
906 19-01-2017 05:40:00 -8.2 C 2.53 g/m*3 -8.2 C 0 km/h
907 19-01-2017 05:45:00 -8.2 C 2.53 g/m*3 -8.2 C 0 km/h
908 19-01-2017 05:50:00 -8.2 C 2.53 g/m*3 -8.2 C 0 km/h
909 19-01-2017 05:55:00 -8.3 C 2.49 g/m*3 -8.3 C 0 km/h
910 19-01-2017 06:00:00 -8.3 C 2.49 g/m*3 -8.3 C 0 km/h
911 19-01-2017 06:05:00 -8.3 C 2.49 g/m*3 -8.3 C 0 km/h
912 19-01-2017 06:10:00 -8.3 C 2.49 g/m*3 -8.3 C 0 km/h
913 19-01-2017 06:15:00 -8.3 C 2.49 g/m*3 -8.3 C 0 km/h
914 19-01-2017 06:20:00 -8.3 C 2.49 g/m*3 -8.3 C 0 km/h
915 19-01-2017 06:25:00 -8.2 C 2.53 g/m*3 -8.2 C 0 km/h
916 19-01-2017 06:30:00 -8.3 C 2.49 g/m*3 -8.3 C 0 km/h
917 19-01-2017 06:35:00 -8.3 C 2.49 g/m*3 -8.3 C 0 km/h
918 19-01-2017 06:40:00 -8.4 C 2.47 g/m*3 -8.4 C 0 km/h
919 19-01-2017 06:45:00 -8.4 C 2.47 g/m*3 -8.4 C 0 km/h
920 19-01-2017 06:50:00 -8.5 C 2.45 g/m*3 -8.5 C 0 km/h
921 19-01-2017 06:55:00 -8.5 C 2.45 g/m*3 -8.5 C 0 km/h
922 19-01-2017 07:00:00 -8.6 C 2.43 g/m*3 -8.6 C 0 km/h
923 19-01-2017 07:05:00 -8.6 C 2.43 g/m*3 -8.6 C 0 km/h
924 19-01-2017 07:10:00 -8.6 C 2.46 g/m*3 -8.6 C 0 km/h
925 19-01-2017 07:15:00 -8.5 C 2.48 g/m*3 -8.5 C 0 km/h
Sensor: Nr:Datum:Temp:Abs-Feuchte:Windchill:Wind:
Aussen-T/F 926 19-01-2017 07:20:00 -8.5 C 2.48 g/m*3 -8.5 C 0 km/h
927 19-01-2017 07:25:00 -8.4 C 2.5 g/m*3 -8.4 C 0 km/h
928 19-01-2017 07:30:00 -8.4 C 2.5 g/m*3 -8.4 C 0 km/h
929 19-01-2017 07:35:00 -8.4 C 2.5 g/m*3 -8.4 C 0 km/h
930 19-01-2017 07:40:00 -8.5 C 2.45 g/m*3 -8.5 C 0 km/h
931 19-01-2017 07:45:00 -8.6 C 2.43 g/m*3 -8.6 C 0 km/h
932 19-01-2017 07:50:00 -8.6 C 2.43 g/m*3 -8.6 C 0 km/h
933 19-01-2017 07:55:00 -8.6 C 2.43 g/m*3 -8.6 C 0 km/h
934 19-01-2017 10:10:00 -7.8 C 2.61 g/m*3 -7.8 C 0 km/h
935 19-01-2017 10:15:00 -7.7 C 2.63 g/m*3 -7.7 C 0 km/h
936 19-01-2017 10:20:00 -7.7 C 2.63 g/m*3 -7.7 C 0 km/h
937 19-01-2017 10:25:00 -7.6 C 2.65 g/m*3 -7.6 C 0 km/h
938 19-01-2017 10:30:00 -7.5 C 2.67 g/m*3 -7.5 C 0 km/h
939 19-01-2017 10:35:00 -7.4 C 2.69 g/m*3 -7.4 C 0 km/h
940 19-01-2017 10:40:00 -7.3 C 2.71 g/m*3 -7.3 C 0 km/h
941 19-01-2017 10:45:00 -7.2 C 2.73 g/m*3 -7.2 C 0 km/h
942 19-01-2017 10:50:00 -7.1 C 2.75 g/m*3 -7.1 C 0 km/h
943 19-01-2017 10:55:00 -6.9 C 2.79 g/m*3 -6.9 C 0 km/h
944 19-01-2017 11:00:00 -6.9 C 2.79 g/m*3 -6.9 C 0 km/h
945 19-01-2017 11:05:00 -6.8 C 2.81 g/m*3 -6.8 C 0 km/h
946 19-01-2017 11:10:00 -6.8 C 2.81 g/m*3 -6.8 C 0 km/h
947 19-01-2017 11:15:00 -6.7 C 2.83 g/m*3 -6.7 C 1.6 km/h
948 19-01-2017 11:20:00 -6.6 C 2.85 g/m*3 -6.6 C 1.6 km/h
949 19-01-2017 11:25:00 -6.6 C 2.85 g/m*3 -6.6 C 0 km/h
950 19-01-2017 11:30:00 -6.4 C 2.89 g/m*3 -6.4 C 0 km/h
Sensor: Nr:Datum:Temp:Abs-Feuchte:Windchill:Wind:
Aussen-T/F 951 19-01-2017 11:35:00 -6.4 C 2.89 g/m*3 -6.4 C 0 km/h
952 19-01-2017 11:40:00 -6.3 C 2.91 g/m*3 -6.3 C 0 km/h
953 19-01-2017 11:45:00 -6.3 C 2.91 g/m*3 -6.3 C 0 km/h
954 19-01-2017 11:50:00 -6.2 C 2.93 g/m*3 -6.2 C 0 km/h
955 19-01-2017 11:55:00 -6.1 C 2.96 g/m*3 -6.1 C 0 km/h
956 19-01-2017 12:00:00 -6.1 C 2.96 g/m*3 -6.1 C 0 km/h
957 19-01-2017 12:05:00 -6 C 2.98 g/m*3 -6 C 0 km/h
958 19-01-2017 12:10:00 -5.9 C 3 g/m*3 -5.9 C 1.6 km/h
959 19-01-2017 12:15:00 -5.8 C 3.02 g/m*3 -5.8 C 3.2 km/h
960 19-01-2017 12:20:00 -5.7 C 3.04 g/m*3 -5.7 C 3.2 km/h
961 19-01-2017 12:25:00 -5.6 C 3.06 g/m*3 -5.6 C 3.2 km/h
962 19-01-2017 12:30:00 -5.5 C 3.09 g/m*3 -5.5 C 3.2 km/h
963 19-01-2017 12:35:00 -5.4 C 3.11 g/m*3 -5.4 C 4.8 km/h
964 19-01-2017 12:40:00 -5.3 C 3.13 g/m*3 -5.3 C 4.8 km/h
965 19-01-2017 12:45:00 -5.2 C 3.15 g/m*3 -5.2 C 1.6 km/h
966 19-01-2017 12:50:00 -5.1 C 3.18 g/m*3 -5.1 C 0 km/h
967 19-01-2017 12:55:00 -5 C 3.2 g/m*3 -5 C 0 km/h
968 19-01-2017 13:00:00 -4.9 C 3.19 g/m*3 -4.9 C 0 km/h
969 19-01-2017 13:05:00 -4.8 C 3.25 g/m*3 -4.8 C 3.2 km/h
970 19-01-2017 13:10:00 -4.8 C 3.21 g/m*3 -4.8 C 3.2 km/h
971 19-01-2017 13:15:00 -4.7 C 3.24 g/m*3 -4.7 C 3.2 km/h
972 19-01-2017 13:20:00 -4.6 C 3.26 g/m*3 -4.6 C 3.2 km/h
973 19-01-2017 13:25:00 -4.6 C 3.26 g/m*3 -4.6 C 3.2 km/h
974 19-01-2017 13:30:00 -4.4 C 3.31 g/m*3 -4.4 C 3.2 km/h
975 19-01-2017 13:35:00 -4.4 C 3.31 g/m*3 -4.4 C 3.2 km/h
Sensor: Nr:Datum:Temp:Abs-Feuchte:Windchill:Wind:
Aussen-T/F 976 19-01-2017 13:40:00 -4.3 C 3.33 g/m*3 -4.3 C 3.2 km/h
977 19-01-2017 13:45:00 -4.2 C 3.35 g/m*3 -4.2 C 3.2 km/h
978 19-01-2017 13:50:00 -4.1 C 3.38 g/m*3 -4.1 C 3.2 km/h
979 19-01-2017 13:55:00 -3.9 C 3.43 g/m*3 -3.9 C 3.2 km/h
980 19-01-2017 14:00:00 -3.9 C 3.43 g/m*3 -3.9 C 3.2 km/h
981 19-01-2017 14:05:00 -3.8 C 3.41 g/m*3 -3.8 C 4.8 km/h
982 19-01-2017 14:10:00 -3.8 C 3.41 g/m*3 -3.8 C 3.2 km/h
983 19-01-2017 14:15:00 -3.7 C 3.44 g/m*3 -3.7 C 3.2 km/h
984 19-01-2017 14:20:00 -3.6 C 3.46 g/m*3 -3.6 C 4.8 km/h
985 19-01-2017 14:25:00 -3.6 C 3.46 g/m*3 -3.6 C 4.8 km/h
986 19-01-2017 14:30:00 -3.4 C 3.51 g/m*3 -3.4 C 4.8 km/h
987 19-01-2017 14:35:00 -3.4 C 3.51 g/m*3 -3.4 C 4.8 km/h
988 19-01-2017 14:40:00 -3.3 C 3.54 g/m*3 -3.3 C 4.8 km/h
989 19-01-2017 14:45:00 -3.2 C 3.52 g/m*3 -3.2 C 4.8 km/h
990 19-01-2017 14:50:00 -3.2 C 3.52 g/m*3 -3.2 C 4.8 km/h
991 19-01-2017 14:55:00 -3.1 C 3.55 g/m*3 -3.1 C 4.8 km/h
992 19-01-2017 15:00:00 -3.1 C 3.55 g/m*3 -3.1 C 3.2 km/h
993 19-01-2017 15:05:00 -3.1 C 3.55 g/m*3 -3.1 C 4.8 km/h
994 19-01-2017 15:10:00 -3 C 3.57 g/m*3 -3 C 4.8 km/h
995 19-01-2017 15:15:00 -2.9 C 3.56 g/m*3 -2.9 C 4.8 km/h
996 19-01-2017 15:20:00 -2.9 C 3.56 g/m*3 -2.9 C 4.8 km/h
997 19-01-2017 15:25:00 -2.9 C 3.56 g/m*3 -2.9 C 4.8 km/h
998 19-01-2017 15:30:00 -2.9 C 3.56 g/m*3 -2.9 C 4.8 km/h
999 19-01-2017 15:35:00 -2.9 C 3.56 g/m*3 -2.9 C 4.8 km/h
1000 19-01-2017 15:40:00 -2.9 C 3.56 g/m*3 -2.9 C 4.8 km/h
Sensor: Nr:Datum:Temp:Abs-Feuchte:Windchill:Wind:
Aussen-T/F 1001 19-01-2017 15:45:00 -2.9 C 3.56 g/m*3 -5.53 C 6.4 km/h
1002 19-01-2017 15:50:00 -2.8 C 3.59 g/m*3 -2.8 C 4.8 km/h
1003 19-01-2017 15:55:00 -2.8 C 3.59 g/m*3 -2.8 C 4.8 km/h
1004 19-01-2017 16:00:00 -2.8 C 3.59 g/m*3 -2.8 C 4.8 km/h
1005 19-01-2017 16:05:00 -2.8 C 3.59 g/m*3 -5.42 C 6.4 km/h
1006 19-01-2017 16:10:00 -2.8 C 3.59 g/m*3 -2.8 C 4.8 km/h
1007 19-01-2017 16:15:00 -2.8 C 3.59 g/m*3 -2.8 C 4.8 km/h
1008 19-01-2017 16:20:00 -2.8 C 3.59 g/m*3 -2.8 C 4.8 km/h
1009 19-01-2017 16:25:00 -2.8 C 3.55 g/m*3 -2.8 C 4.8 km/h
1010 19-01-2017 16:30:00 -2.8 C 3.59 g/m*3 -2.8 C 4.8 km/h
1011 19-01-2017 16:35:00 -2.9 C 3.56 g/m*3 -2.9 C 4.8 km/h
1012 19-01-2017 16:40:00 -2.9 C 3.56 g/m*3 -2.9 C 4.8 km/h
1013 19-01-2017 16:45:00 -2.9 C 3.56 g/m*3 -2.9 C 4.8 km/h
1014 19-01-2017 16:50:00 -2.9 C 3.56 g/m*3 -2.9 C 4.8 km/h
1015 19-01-2017 16:55:00 -2.9 C 3.52 g/m*3 -5.53 C 6.4 km/h
1016 19-01-2017 17:00:00 -2.9 C 3.52 g/m*3 -5.53 C 6.4 km/h
1017 19-01-2017 17:05:00 -3 C 3.5 g/m*3 -5.65 C 6.4 km/h
1018 19-01-2017 17:10:00 -3.1 C 3.47 g/m*3 -5.76 C 6.4 km/h
1019 19-01-2017 17:15:00 -3 C 3.5 g/m*3 -5.65 C 6.4 km/h
1020 19-01-2017 17:20:00 -3 C 3.5 g/m*3 -5.65 C 6.4 km/h
1021 19-01-2017 17:25:00 -3 C 3.5 g/m*3 -5.65 C 6.4 km/h
1022 19-01-2017 17:30:00 -3 C 3.5 g/m*3 -5.65 C 6.4 km/h
1023 19-01-2017 17:35:00 -3 C 3.46 g/m*3 -3 C 4.8 km/h
1024 19-01-2017 17:40:00 -3 C 3.46 g/m*3 -3 C 4.8 km/h
1025 19-01-2017 17:45:00 -3 C 3.46 g/m*3 -3 C 4.8 km/h
Sensor: Nr:Datum:Temp:Abs-Feuchte:Windchill:Wind:
Aussen-T/F 1026 19-01-2017 17:50:00 -3.1 C 3.43 g/m*3 -3.1 C 3.2 km/h
1027 19-01-2017 17:55:00 -3.2 C 3.41 g/m*3 -3.2 C 4.8 km/h
1028 19-01-2017 18:00:00 -3.3 C 3.38 g/m*3 -3.3 C 4.8 km/h
1029 19-01-2017 18:05:00 -3.3 C 3.38 g/m*3 -3.3 C 4.8 km/h
1030 19-01-2017 18:10:00 -3.3 C 3.38 g/m*3 -3.3 C 3.2 km/h
1031 19-01-2017 18:15:00 -3.4 C 3.4 g/m*3 -3.4 C 3.2 km/h
1032 19-01-2017 18:20:00 -3.5 C 3.34 g/m*3 -3.5 C 0 km/h
1033 19-01-2017 18:25:00 -3.6 C 3.35 g/m*3 -3.6 C 0 km/h
1034 19-01-2017 18:30:00 -3.8 C 3.27 g/m*3 -3.8 C 0 km/h
1035 19-01-2017 18:35:00 -4 C 3.26 g/m*3 -4 C 0 km/h
1036 19-01-2017 18:40:00 -4.1 C 3.23 g/m*3 -4.1 C 0 km/h
1037 19-01-2017 18:45:00 -4.1 C 3.27 g/m*3 -4.1 C 1.6 km/h
1038 19-01-2017 18:50:00 -4.3 C 3.22 g/m*3 -4.3 C 1.6 km/h
1039 19-01-2017 18:55:00 -4.3 C 3.22 g/m*3 -4.3 C 1.6 km/h
1040 19-01-2017 19:00:00 -4.3 C 3.22 g/m*3 -4.3 C 1.6 km/h
1041 19-01-2017 19:05:00 -4.4 C 3.2 g/m*3 -4.4 C 0 km/h
1042 19-01-2017 19:10:00 -4.6 C 3.15 g/m*3 -4.6 C 0 km/h
1043 19-01-2017 19:15:00 -4.7 C 3.13 g/m*3 -4.7 C 0 km/h
1044 19-01-2017 19:20:00 -4.8 C 3.11 g/m*3 -4.8 C 0 km/h
1045 19-01-2017 19:25:00 -4.9 C 3.09 g/m*3 -4.9 C 0 km/h
1046 19-01-2017 19:30:00 -5 C 3.06 g/m*3 -5 C 0 km/h
1047 19-01-2017 19:35:00 -5.2 C 3.02 g/m*3 -5.2 C 0 km/h
1048 19-01-2017 19:40:00 -5.3 C 3 g/m*3 -5.3 C 0 km/h
1049 19-01-2017 19:45:00 -5.3 C 3.03 g/m*3 -5.3 C 0 km/h
1050 19-01-2017 19:50:00 -5.3 C 3.03 g/m*3 -5.3 C 0 km/h
Sensor: Nr:Datum:Temp:Abs-Feuchte:Windchill:Wind:
Aussen-T/F 1051 19-01-2017 19:55:00 -5.4 C 3.01 g/m*3 -5.4 C 0 km/h
1052 19-01-2017 20:00:00 -5.4 C 3.01 g/m*3 -5.4 C 0 km/h
1053 19-01-2017 20:05:00 -5.4 C 3.01 g/m*3 -5.4 C 0 km/h
1054 19-01-2017 20:10:00 -5.6 C 2.97 g/m*3 -5.6 C 0 km/h
1055 19-01-2017 20:15:00 -5.6 C 2.97 g/m*3 -5.6 C 0 km/h
1056 19-01-2017 20:20:00 -5.7 C 2.95 g/m*3 -5.7 C 0 km/h
1057 19-01-2017 20:25:00 -5.8 C 2.92 g/m*3 -5.8 C 0 km/h
1058 19-01-2017 20:30:00 -5.9 C 2.9 g/m*3 -5.9 C 0 km/h
1059 19-01-2017 20:35:00 -5.9 C 2.9 g/m*3 -5.9 C 0 km/h
1060 19-01-2017 20:40:00 -5.9 C 2.9 g/m*3 -5.9 C 0 km/h
1061 19-01-2017 20:45:00 -5.8 C 2.96 g/m*3 -5.8 C 0 km/h
1062 19-01-2017 20:50:00 -5.8 C 2.96 g/m*3 -5.8 C 0 km/h
1063 19-01-2017 20:55:00 -5.8 C 2.92 g/m*3 -5.8 C 0 km/h
1064 19-01-2017 21:00:00 -5.8 C 2.92 g/m*3 -5.8 C 0 km/h
1065 19-01-2017 21:05:00 -5.8 C 2.92 g/m*3 -5.8 C 0 km/h
1066 19-01-2017 21:10:00 -5.9 C 2.9 g/m*3 -5.9 C 0 km/h
1067 19-01-2017 21:15:00 -6.1 C 2.86 g/m*3 -6.1 C 0 km/h
1068 19-01-2017 21:20:00 -6.1 C 2.86 g/m*3 -6.1 C 0 km/h
1069 19-01-2017 21:25:00 -6.3 C 2.82 g/m*3 -6.3 C 0 km/h
1070 19-01-2017 21:30:00 -6.3 C 2.82 g/m*3 -6.3 C 0 km/h
1071 19-01-2017 21:35:00 -6.3 C 2.82 g/m*3 -6.3 C 0 km/h
1072 19-01-2017 21:40:00 -6.4 C 2.8 g/m*3 -6.4 C 0 km/h
1073 19-01-2017 21:45:00 -6.4 C 2.8 g/m*3 -6.4 C 0 km/h
1074 19-01-2017 21:50:00 -6.4 C 2.83 g/m*3 -6.4 C 0 km/h
1075 19-01-2017 21:55:00 -6.4 C 2.83 g/m*3 -6.4 C 0 km/h
Sensor: Nr:Datum:Temp:Abs-Feuchte:Windchill:Wind:
Aussen-T/F 1076 19-01-2017 22:00:00 -6.4 C 2.83 g/m*3 -6.4 C 0 km/h
1077 19-01-2017 22:05:00 -6.6 C 2.79 g/m*3 -6.6 C 0 km/h
1078 19-01-2017 22:10:00 -6.6 C 2.79 g/m*3 -6.6 C 0 km/h
1079 19-01-2017 22:15:00 -6.6 C 2.79 g/m*3 -6.6 C 0 km/h
1080 19-01-2017 22:20:00 -6.5 C 2.81 g/m*3 -6.5 C 0 km/h
1081 19-01-2017 22:25:00 -6.6 C 2.79 g/m*3 -6.6 C 0 km/h
1082 19-01-2017 22:30:00 -6.6 C 2.79 g/m*3 -6.6 C 0 km/h
1083 19-01-2017 22:35:00 -6.7 C 2.77 g/m*3 -6.7 C 0 km/h
1084 19-01-2017 22:40:00 -6.7 C 2.77 g/m*3 -6.7 C 0 km/h
1085 19-01-2017 22:45:00 -6.7 C 2.77 g/m*3 -6.7 C 0 km/h
1086 19-01-2017 22:50:00 -6.7 C 2.77 g/m*3 -6.7 C 0 km/h
1087 19-01-2017 22:55:00 -6.7 C 2.77 g/m*3 -6.7 C 0 km/h
1088 19-01-2017 23:00:00 -6.8 C 2.75 g/m*3 -6.8 C 0 km/h
1089 19-01-2017 23:05:00 -6.8 C 2.75 g/m*3 -6.8 C 0 km/h
1090 19-01-2017 23:10:00 -6.8 C 2.75 g/m*3 -6.8 C 0 km/h
1091 19-01-2017 23:15:00 -6.9 C 2.73 g/m*3 -6.9 C 0 km/h
1092 19-01-2017 23:20:00 -6.9 C 2.73 g/m*3 -6.9 C 0 km/h
1093 19-01-2017 23:25:00 -6.9 C 2.73 g/m*3 -6.9 C 0 km/h
1094 19-01-2017 23:30:00 -6.8 C 2.75 g/m*3 -6.8 C 1.6 km/h
1095 19-01-2017 23:35:00 -6.9 C 2.73 g/m*3 -6.9 C 0 km/h
1096 19-01-2017 23:40:00 -6.9 C 2.73 g/m*3 -6.9 C 0 km/h
1097 19-01-2017 23:45:00 -7 C 2.71 g/m*3 -7 C 0 km/h
1098 19-01-2017 23:50:00 -7 C 2.71 g/m*3 -7 C 0 km/h
1099 19-01-2017 23:55:00 -6.9 C 2.73 g/m*3 -6.9 C 0 km/h
1100 20-01-2017 00:00:00 -6.8 C 2.75 g/m*3 -6.8 C 0 km/h
Sensor: Nr:Datum:Temp:Abs-Feuchte:Windchill:Wind:
Aussen-T/F 1101 20-01-2017 00:05:00 -6.8 C 2.75 g/m*3 -6.8 C 0 km/h
1102 20-01-2017 00:10:00 -6.9 C 2.73 g/m*3 -6.9 C 0 km/h
1103 20-01-2017 00:15:00 -7.1 C 2.69 g/m*3 -7.1 C 0 km/h
1104 20-01-2017 00:20:00 -7.2 C 2.67 g/m*3 -7.2 C 0 km/h
1105 20-01-2017 00:25:00 -7.3 C 2.62 g/m*3 -7.3 C 0 km/h
1106 20-01-2017 00:30:00 -7.4 C 2.6 g/m*3 -7.4 C 0 km/h
1107 20-01-2017 00:35:00 -7.5 C 2.61 g/m*3 -7.5 C 0 km/h
1108 20-01-2017 00:40:00 -7.6 C 2.59 g/m*3 -7.6 C 0 km/h
1109 20-01-2017 00:45:00 -7.6 C 2.59 g/m*3 -7.6 C 0 km/h
1110 20-01-2017 00:50:00 -7.7 C 2.57 g/m*3 -7.7 C 0 km/h
1111 20-01-2017 00:55:00 -7.7 C 2.57 g/m*3 -7.7 C 0 km/h
1112 20-01-2017 01:00:00 -7.7 C 2.57 g/m*3 -7.7 C 0 km/h
1113 20-01-2017 01:05:00 -7.7 C 2.57 g/m*3 -7.7 C 0 km/h
1114 20-01-2017 01:10:00 -7.7 C 2.6 g/m*3 -7.7 C 0 km/h
1115 20-01-2017 01:15:00 -7.7 C 2.6 g/m*3 -7.7 C 0 km/h
1116 20-01-2017 01:20:00 -7.7 C 2.6 g/m*3 -7.7 C 0 km/h
1117 20-01-2017 01:25:00 -7.7 C 2.57 g/m*3 -7.7 C 0 km/h
1118 20-01-2017 01:30:00 -7.8 C 2.55 g/m*3 -7.8 C 0 km/h
1119 20-01-2017 01:35:00 -7.7 C 2.6 g/m*3 -7.7 C 0 km/h
1120 20-01-2017 01:40:00 -7.7 C 2.6 g/m*3 -7.7 C 0 km/h
1121 20-01-2017 01:45:00 -7.8 C 2.58 g/m*3 -7.8 C 0 km/h
1122 20-01-2017 01:50:00 -7.8 C 2.55 g/m*3 -7.8 C 0 km/h
1123 20-01-2017 01:55:00 -7.8 C 2.55 g/m*3 -7.8 C 0 km/h
1124 20-01-2017 02:00:00 -7.9 C 2.53 g/m*3 -7.9 C 0 km/h
1125 20-01-2017 02:05:00 -8 C 2.52 g/m*3 -8 C 0 km/h
Sensor: Nr:Datum:Temp:Abs-Feuchte:Windchill:Wind:
Aussen-T/F 1126 20-01-2017 02:10:00 -8.1 C 2.5 g/m*3 -8.1 C 0 km/h
1127 20-01-2017 02:15:00 -8.2 C 2.48 g/m*3 -8.2 C 0 km/h
1128 20-01-2017 02:20:00 -8.2 C 2.48 g/m*3 -8.2 C 0 km/h
1129 20-01-2017 02:25:00 -8.2 C 2.48 g/m*3 -8.2 C 0 km/h
1130 20-01-2017 02:30:00 -8.2 C 2.48 g/m*3 -8.2 C 0 km/h
1131 20-01-2017 02:35:00 -8.3 C 2.46 g/m*3 -8.3 C 0 km/h
1132 20-01-2017 02:40:00 -8.3 C 2.49 g/m*3 -8.3 C 0 km/h
1133 20-01-2017 02:45:00 -8.3 C 2.49 g/m*3 -8.3 C 0 km/h
1134 20-01-2017 02:50:00 -8.3 C 2.49 g/m*3 -8.3 C 0 km/h
1135 20-01-2017 02:55:00 -8.3 C 2.49 g/m*3 -8.3 C 0 km/h
1136 20-01-2017 03:00:00 -8.3 C 2.49 g/m*3 -8.3 C 0 km/h
1137 20-01-2017 03:05:00 -8.3 C 2.49 g/m*3 -8.3 C 0 km/h
1138 20-01-2017 03:10:00 -8.3 C 2.49 g/m*3 -8.3 C 0 km/h
1139 20-01-2017 03:15:00 -8.4 C 2.44 g/m*3 -8.4 C 0 km/h
1140 20-01-2017 03:20:00 -8.6 C 2.41 g/m*3 -8.6 C 0 km/h
1141 20-01-2017 03:25:00 -8.7 C 2.39 g/m*3 -8.7 C 0 km/h
1142 20-01-2017 03:30:00 -8.7 C 2.41 g/m*3 -8.7 C 0 km/h
1143 20-01-2017 03:35:00 -8.7 C 2.41 g/m*3 -8.7 C 0 km/h
1144 20-01-2017 03:40:00 -8.7 C 2.41 g/m*3 -8.7 C 0 km/h
1145 20-01-2017 03:45:00 -8.6 C 2.43 g/m*3 -8.6 C 0 km/h
1146 20-01-2017 03:50:00 -8.6 C 2.43 g/m*3 -8.6 C 0 km/h
1147 20-01-2017 03:55:00 -8.7 C 2.41 g/m*3 -8.7 C 0 km/h
1148 20-01-2017 04:00:00 -8.7 C 2.41 g/m*3 -8.7 C 0 km/h
1149 20-01-2017 04:05:00 -8.6 C 2.43 g/m*3 -8.6 C 0 km/h
1150 20-01-2017 04:10:00 -8.4 C 2.5 g/m*3 -8.4 C 0 km/h
Sensor: Nr:Datum:Temp:Abs-Feuchte:Windchill:Wind:
Aussen-T/F 1151 20-01-2017 04:15:00 -8.4 C 2.47 g/m*3 -8.4 C 0 km/h
1152 20-01-2017 04:20:00 -8.4 C 2.47 g/m*3 -8.4 C 0 km/h
1153 20-01-2017 04:25:00 -8.5 C 2.45 g/m*3 -8.5 C 0 km/h
1154 20-01-2017 04:30:00 -8.6 C 2.43 g/m*3 -8.6 C 0 km/h
1155 20-01-2017 04:35:00 -8.7 C 2.41 g/m*3 -8.7 C 0 km/h
1156 20-01-2017 04:40:00 -8.8 C 2.4 g/m*3 -8.8 C 0 km/h
1157 20-01-2017 04:45:00 -8.9 C 2.38 g/m*3 -8.9 C 0 km/h
1158 20-01-2017 04:50:00 -8.9 C 2.38 g/m*3 -8.9 C 0 km/h
1159 20-01-2017 04:55:00 -9 C 2.36 g/m*3 -9 C 0 km/h
1160 20-01-2017 05:00:00 -9.1 C 2.34 g/m*3 -9.1 C 0 km/h
1161 20-01-2017 05:05:00 -9.1 C 2.34 g/m*3 -9.1 C 0 km/h
1162 20-01-2017 05:10:00 -9.2 C 2.33 g/m*3 -9.2 C 0 km/h
1163 20-01-2017 05:15:00 -9.2 C 2.33 g/m*3 -9.2 C 0 km/h
1164 20-01-2017 05:20:00 -9.2 C 2.33 g/m*3 -9.2 C 0 km/h
1165 20-01-2017 05:25:00 -9.2 C 2.33 g/m*3 -9.2 C 0 km/h
1166 20-01-2017 05:30:00 -9.2 C 2.33 g/m*3 -9.2 C 0 km/h
1167 20-01-2017 05:35:00 -9.2 C 2.33 g/m*3 -9.2 C 0 km/h
1168 20-01-2017 05:40:00 -9.2 C 2.33 g/m*3 -9.2 C 0 km/h
1169 20-01-2017 05:45:00 -9.3 C 2.31 g/m*3 -9.3 C 0 km/h
1170 20-01-2017 05:50:00 -9.3 C 2.31 g/m*3 -9.3 C 0 km/h
1171 20-01-2017 05:55:00 -9.3 C 2.31 g/m*3 -9.3 C 0 km/h
1172 20-01-2017 06:00:00 -9.3 C 2.31 g/m*3 -9.3 C 0 km/h
1173 20-01-2017 06:05:00 -9.3 C 2.31 g/m*3 -9.3 C 0 km/h
1174 20-01-2017 06:10:00 -9.4 C 2.29 g/m*3 -9.4 C 0 km/h
1175 20-01-2017 06:15:00 -9.4 C 2.29 g/m*3 -9.4 C 0 km/h
Sensor: Nr:Datum:Temp:Abs-Feuchte:Windchill:Wind:
Aussen-T/F 1176 20-01-2017 06:20:00 -9.5 C 2.27 g/m*3 -9.5 C 0 km/h
1177 20-01-2017 06:25:00 -9.5 C 2.27 g/m*3 -9.5 C 0 km/h
1178 20-01-2017 06:30:00 -9.6 C 2.26 g/m*3 -9.6 C 0 km/h
1179 20-01-2017 06:35:00 -9.6 C 2.26 g/m*3 -9.6 C 0 km/h
1180 20-01-2017 06:40:00 -9.6 C 2.26 g/m*3 -9.6 C 0 km/h
1181 20-01-2017 06:45:00 -9.6 C 2.26 g/m*3 -9.6 C 0 km/h
1182 20-01-2017 06:50:00 -9.6 C 2.26 g/m*3 -9.6 C 0 km/h
1183 20-01-2017 06:55:00 -9.6 C 2.26 g/m*3 -9.6 C 0 km/h
1184 20-01-2017 07:00:00 -9.6 C 2.26 g/m*3 -9.6 C 0 km/h
1185 20-01-2017 07:05:00 -9.6 C 2.26 g/m*3 -9.6 C 0 km/h
1186 20-01-2017 07:10:00 -9.6 C 2.26 g/m*3 -9.6 C 0 km/h
1187 20-01-2017 07:15:00 -9.6 C 2.26 g/m*3 -9.6 C 0 km/h
1188 20-01-2017 07:20:00 -9.6 C 2.26 g/m*3 -9.6 C 0 km/h
1189 20-01-2017 07:25:00 -9.6 C 2.26 g/m*3 -9.6 C 0 km/h
1190 20-01-2017 07:30:00 -9.6 C 2.26 g/m*3 -9.6 C 0 km/h
1191 20-01-2017 10:10:00 -9.3 C 2.31 g/m*3 -9.3 C 0 km/h
1192 20-01-2017 10:15:00 -9.3 C 2.31 g/m*3 -9.3 C 0 km/h
1193 20-01-2017 10:20:00 -9.2 C 2.33 g/m*3 -9.2 C 0 km/h
1194 20-01-2017 10:25:00 -9.2 C 2.33 g/m*3 -9.2 C 0 km/h
1195 20-01-2017 10:30:00 -9 C 2.36 g/m*3 -9 C 0 km/h
1196 20-01-2017 10:35:00 -8.9 C 2.38 g/m*3 -8.9 C 0 km/h
1197 20-01-2017 10:40:00 -8.7 C 2.44 g/m*3 -8.7 C 0 km/h
1198 20-01-2017 10:45:00 -8.6 C 2.46 g/m*3 -8.6 C 0 km/h
1199 20-01-2017 10:50:00 -8.4 C 2.5 g/m*3 -8.4 C 0 km/h
1200 20-01-2017 10:55:00 -8.2 C 2.53 g/m*3 -8.2 C 0 km/h
Sensor: Nr:Datum:Temp:Abs-Feuchte:Windchill:Wind:
Aussen-T/F 1201 20-01-2017 11:00:00 -8.1 C 2.55 g/m*3 -8.1 C 1.6 km/h
1202 20-01-2017 11:05:00 -7.9 C 2.59 g/m*3 -7.9 C 0 km/h
1203 20-01-2017 11:10:00 -7.7 C 2.63 g/m*3 -7.7 C 1.6 km/h
1204 20-01-2017 11:15:00 -7.6 C 2.65 g/m*3 -7.6 C 0 km/h
1205 20-01-2017 11:20:00 -7.4 C 2.69 g/m*3 -7.4 C 0 km/h
1206 20-01-2017 11:25:00 -7.3 C 2.71 g/m*3 -7.3 C 0 km/h
1207 20-01-2017 11:30:00 -7.3 C 2.71 g/m*3 -7.3 C 0 km/h
1208 20-01-2017 11:35:00 -7.2 C 2.73 g/m*3 -7.2 C 0 km/h
1209 20-01-2017 11:40:00 -7.2 C 2.73 g/m*3 -7.2 C 0 km/h
1210 20-01-2017 11:45:00 -7 C 2.77 g/m*3 -7 C 1.6 km/h
1211 20-01-2017 11:50:00 -6.9 C 2.79 g/m*3 -6.9 C 0 km/h
1212 20-01-2017 11:55:00 -6.7 C 2.83 g/m*3 -6.7 C 0 km/h
1213 20-01-2017 12:00:00 -6.6 C 2.85 g/m*3 -6.6 C 1.6 km/h
1214 20-01-2017 12:05:00 -6.4 C 2.89 g/m*3 -6.4 C 0 km/h
1215 20-01-2017 12:10:00 -6.3 C 2.91 g/m*3 -6.3 C 0 km/h
1216 20-01-2017 12:15:00 -6.2 C 2.93 g/m*3 -6.2 C 0 km/h
1217 20-01-2017 12:20:00 -6.1 C 2.96 g/m*3 -6.1 C 3.2 km/h
1218 20-01-2017 12:25:00 -5.9 C 3 g/m*3 -5.9 C 3.2 km/h
1219 20-01-2017 12:30:00 -5.7 C 3.04 g/m*3 -5.7 C 1.6 km/h
1220 20-01-2017 12:35:00 -5.6 C 3.06 g/m*3 -5.6 C 1.6 km/h
1221 20-01-2017 12:40:00 -5.4 C 3.11 g/m*3 -5.4 C 1.6 km/h
1222 20-01-2017 12:45:00 -5.3 C 3.13 g/m*3 -5.3 C 1.6 km/h
1223 20-01-2017 12:50:00 -5.2 C 3.15 g/m*3 -5.2 C 1.6 km/h
1224 20-01-2017 12:55:00 -5 C 3.2 g/m*3 -5 C 3.2 km/h
1225 20-01-2017 13:00:00 -4.9 C 3.19 g/m*3 -4.9 C 3.2 km/h
Sensor: Nr:Datum:Temp:Abs-Feuchte:Windchill:Wind:
Aussen-T/F 1226 20-01-2017 13:05:00 -4.8 C 3.21 g/m*3 -4.8 C 1.6 km/h
1227 20-01-2017 13:10:00 -4.7 C 3.24 g/m*3 -4.7 C 3.2 km/h
1228 20-01-2017 13:15:00 -4.6 C 3.22 g/m*3 -4.6 C 1.6 km/h
1229 20-01-2017 13:20:00 -4.4 C 3.27 g/m*3 -4.4 C 3.2 km/h
1230 20-01-2017 13:25:00 -4.3 C 3.29 g/m*3 -4.3 C 3.2 km/h
1231 20-01-2017 13:30:00 -4.2 C 3.32 g/m*3 -4.2 C 3.2 km/h
1232 20-01-2017 13:35:00 -4.1 C 3.31 g/m*3 -4.1 C 3.2 km/h
1233 20-01-2017 13:40:00 -4 C 3.33 g/m*3 -4 C 3.2 km/h
1234 20-01-2017 13:45:00 -3.9 C 3.35 g/m*3 -3.9 C 3.2 km/h
1235 20-01-2017 13:50:00 -3.8 C 3.38 g/m*3 -3.8 C 4.8 km/h
1236 20-01-2017 13:55:00 -3.6 C 3.43 g/m*3 -3.6 C 4.8 km/h
1237 20-01-2017 14:00:00 -3.5 C 3.45 g/m*3 -3.5 C 4.8 km/h
1238 20-01-2017 14:05:00 -3.4 C 3.44 g/m*3 -3.4 C 4.8 km/h
1239 20-01-2017 14:10:00 -3.3 C 3.46 g/m*3 -3.3 C 4.8 km/h
1240 20-01-2017 14:15:00 -3.3 C 3.46 g/m*3 -3.3 C 4.8 km/h
1241 20-01-2017 14:20:00 -3.2 C 3.45 g/m*3 -3.2 C 4.8 km/h
1242 20-01-2017 14:25:00 -3.1 C 3.47 g/m*3 -3.1 C 4.8 km/h
1243 20-01-2017 14:30:00 -3.1 C 3.47 g/m*3 -5.76 C 6.4 km/h
1244 20-01-2017 14:35:00 -3 C 3.46 g/m*3 -5.65 C 6.4 km/h
1245 20-01-2017 14:40:00 -2.9 C 3.48 g/m*3 -2.9 C 4.8 km/h
1246 20-01-2017 14:45:00 -2.9 C 3.48 g/m*3 -2.9 C 4.8 km/h
1247 20-01-2017 14:50:00 -2.8 C 3.51 g/m*3 -2.8 C 4.8 km/h
1248 20-01-2017 14:55:00 -2.8 C 3.51 g/m*3 -2.8 C 4.8 km/h
1249 20-01-2017 15:00:00 -2.7 C 3.53 g/m*3 -2.7 C 4.8 km/h
1250 20-01-2017 15:05:00 -2.7 C 3.53 g/m*3 -2.7 C 4.8 km/h
Sensor: Nr:Datum:Temp:Abs-Feuchte:Windchill:Wind:
Aussen-T/F 1251 20-01-2017 15:10:00 -2.6 C 3.56 g/m*3 -2.6 C 4.8 km/h
1252 20-01-2017 15:15:00 -2.6 C 3.56 g/m*3 -2.6 C 4.8 km/h
1253 20-01-2017 15:20:00 -2.5 C 3.58 g/m*3 -2.5 C 4.8 km/h
1254 20-01-2017 15:25:00 -2.4 C 3.61 g/m*3 -2.4 C 4.8 km/h
1255 20-01-2017 15:30:00 -2.4 C 3.61 g/m*3 -4.95 C 6.4 km/h
1256 20-01-2017 15:35:00 -2.3 C 3.63 g/m*3 -2.3 C 4.8 km/h
1257 20-01-2017 15:40:00 -2.3 C 3.63 g/m*3 -2.3 C 4.8 km/h
1258 20-01-2017 15:45:00 -2.3 C 3.59 g/m*3 -2.3 C 4.8 km/h
1259 20-01-2017 15:50:00 -2.3 C 3.59 g/m*3 -2.3 C 4.8 km/h
1260 20-01-2017 15:55:00 -2.3 C 3.59 g/m*3 -4.84 C 6.4 km/h
1261 20-01-2017 16:00:00 -2.2 C 3.62 g/m*3 -4.72 C 6.4 km/h
1262 20-01-2017 16:05:00 -2.2 C 3.66 g/m*3 -4.72 C 6.4 km/h
1263 20-01-2017 16:10:00 -2.2 C 3.66 g/m*3 -4.72 C 6.4 km/h
1264 20-01-2017 16:15:00 -2.1 C 3.64 g/m*3 -4.61 C 6.4 km/h
1265 20-01-2017 16:20:00 -2.1 C 3.64 g/m*3 -4.61 C 6.4 km/h
1266 20-01-2017 16:25:00 -2.1 C 3.64 g/m*3 -4.61 C 6.4 km/h
1267 20-01-2017 16:30:00 -2 C 3.67 g/m*3 -2 C 4.8 km/h
1268 20-01-2017 16:35:00 -2.1 C 3.6 g/m*3 -2.1 C 4.8 km/h
1269 20-01-2017 16:40:00 -2.1 C 3.6 g/m*3 -2.1 C 4.8 km/h
1270 20-01-2017 16:45:00 -2.1 C 3.6 g/m*3 -2.1 C 4.8 km/h
1271 20-01-2017 16:50:00 -2.1 C 3.6 g/m*3 -2.1 C 4.8 km/h
1272 20-01-2017 16:55:00 -2.1 C 3.6 g/m*3 -4.61 C 6.4 km/h
1273 20-01-2017 17:00:00 -2.2 C 3.57 g/m*3 -2.2 C 4.8 km/h
1274 20-01-2017 17:05:00 -2.2 C 3.53 g/m*3 -2.2 C 4.8 km/h
1275 20-01-2017 17:10:00 -2.3 C 3.51 g/m*3 -2.3 C 1.6 km/h
Sensor: Nr:Datum:Temp:Abs-Feuchte:Windchill:Wind:
Aussen-T/F 1276 20-01-2017 17:15:00 -2.4 C 3.48 g/m*3 -2.4 C 4.8 km/h
1277 20-01-2017 17:20:00 -2.5 C 3.46 g/m*3 -2.5 C 4.8 km/h
1278 20-01-2017 17:25:00 -2.6 C 3.48 g/m*3 -2.6 C 3.2 km/h
1279 20-01-2017 17:30:00 -2.7 C 3.45 g/m*3 -2.7 C 3.2 km/h
1280 20-01-2017 17:35:00 -2.7 C 3.45 g/m*3 -2.7 C 3.2 km/h
1281 20-01-2017 17:40:00 -2.8 C 3.43 g/m*3 -2.8 C 3.2 km/h
1282 20-01-2017 17:45:00 -2.8 C 3.47 g/m*3 -2.8 C 1.6 km/h
1283 20-01-2017 17:50:00 -2.9 C 3.44 g/m*3 -2.9 C 3.2 km/h
1284 20-01-2017 17:55:00 -3.1 C 3.35 g/m*3 -3.1 C 3.2 km/h
1285 20-01-2017 18:00:00 -3.3 C 3.31 g/m*3 -3.3 C 3.2 km/h
1286 20-01-2017 18:05:00 -3.3 C 3.35 g/m*3 -3.3 C 3.2 km/h
1287 20-01-2017 18:10:00 -3.3 C 3.35 g/m*3 -3.3 C 3.2 km/h
1288 20-01-2017 18:15:00 -3.4 C 3.32 g/m*3 -3.4 C 1.6 km/h
1289 20-01-2017 18:20:00 -3.4 C 3.36 g/m*3 -3.4 C 0 km/h
1290 20-01-2017 18:25:00 -3.5 C 3.34 g/m*3 -3.5 C 0 km/h
1291 20-01-2017 18:30:00 -3.5 C 3.34 g/m*3 -3.5 C 3.2 km/h
1292 20-01-2017 18:35:00 -3.6 C 3.31 g/m*3 -3.6 C 1.6 km/h
1293 20-01-2017 18:40:00 -3.6 C 3.35 g/m*3 -3.6 C 0 km/h
1294 20-01-2017 18:45:00 -3.6 C 3.35 g/m*3 -3.6 C 0 km/h
1295 20-01-2017 18:50:00 -3.6 C 3.35 g/m*3 -3.6 C 0 km/h
1296 20-01-2017 18:55:00 -3.7 C 3.29 g/m*3 -3.7 C 0 km/h
1297 20-01-2017 19:00:00 -3.8 C 3.3 g/m*3 -3.8 C 0 km/h
1298 20-01-2017 19:05:00 -3.9 C 3.24 g/m*3 -3.9 C 0 km/h
1299 20-01-2017 19:10:00 -4.1 C 3.2 g/m*3 -4.1 C 0 km/h
1300 20-01-2017 19:15:00 -4.2 C 3.17 g/m*3 -4.2 C 0 km/h
Sensor: Nr:Datum:Temp:Abs-Feuchte:Windchill:Wind:
Aussen-T/F 1301 20-01-2017 19:20:00 -4.4 C 3.13 g/m*3 -4.4 C 0 km/h
1302 20-01-2017 19:25:00 -4.6 C 3.08 g/m*3 -4.6 C 0 km/h
1303 20-01-2017 19:30:00 -4.7 C 3.06 g/m*3 -4.7 C 0 km/h
1304 20-01-2017 19:35:00 -4.7 C 3.1 g/m*3 -4.7 C 0 km/h
1305 20-01-2017 19:40:00 -4.7 C 3.1 g/m*3 -4.7 C 0 km/h
1306 20-01-2017 19:45:00 -4.7 C 3.13 g/m*3 -4.7 C 0 km/h
1307 20-01-2017 19:50:00 -4.8 C 3.11 g/m*3 -4.8 C 0 km/h
1308 20-01-2017 19:55:00 -4.8 C 3.11 g/m*3 -4.8 C 0 km/h
1309 20-01-2017 20:00:00 -4.9 C 3.05 g/m*3 -4.9 C 0 km/h
1310 20-01-2017 20:05:00 -4.9 C 3.05 g/m*3 -4.9 C 0 km/h
1311 20-01-2017 20:10:00 -4.9 C 3.05 g/m*3 -4.9 C 0 km/h
1312 20-01-2017 20:15:00 -5.1 C 3.01 g/m*3 -5.1 C 0 km/h
1313 20-01-2017 20:20:00 -5.2 C 2.99 g/m*3 -5.2 C 0 km/h
1314 20-01-2017 20:25:00 -5.1 C 3.04 g/m*3 -5.1 C 0 km/h
1315 20-01-2017 20:30:00 -5.2 C 2.99 g/m*3 -5.2 C 0 km/h
1316 20-01-2017 20:35:00 -5.3 C 2.97 g/m*3 -5.3 C 0 km/h
1317 20-01-2017 20:40:00 -5.3 C 2.97 g/m*3 -5.3 C 0 km/h
1318 20-01-2017 20:45:00 -5.3 C 3 g/m*3 -5.3 C 0 km/h
1319 20-01-2017 20:50:00 -5.4 C 2.94 g/m*3 -5.4 C 0 km/h
1320 20-01-2017 20:55:00 -5.6 C 2.9 g/m*3 -5.6 C 0 km/h
1321 20-01-2017 21:00:00 -5.7 C 2.88 g/m*3 -5.7 C 0 km/h
1322 20-01-2017 21:05:00 -5.7 C 2.91 g/m*3 -5.7 C 0 km/h
1323 20-01-2017 21:10:00 -5.7 C 2.91 g/m*3 -5.7 C 0 km/h
1324 20-01-2017 21:15:00 -5.8 C 2.89 g/m*3 -5.8 C 0 km/h
1325 20-01-2017 21:20:00 -5.8 C 2.89 g/m*3 -5.8 C 0 km/h
Sensor: Nr:Datum:Temp:Abs-Feuchte:Windchill:Wind:
Aussen-T/F 1326 20-01-2017 21:25:00 -5.9 C 2.87 g/m*3 -5.9 C 0 km/h
1327 20-01-2017 21:30:00 -6 C 2.85 g/m*3 -6 C 0 km/h
1328 20-01-2017 21:35:00 -6.1 C 2.83 g/m*3 -6.1 C 0 km/h
1329 20-01-2017 21:40:00 -6.1 C 2.83 g/m*3 -6.1 C 0 km/h
1330 20-01-2017 21:45:00 -6 C 2.88 g/m*3 -6 C 0 km/h
1331 20-01-2017 21:50:00 -6.1 C 2.83 g/m*3 -6.1 C 0 km/h
1332 20-01-2017 21:55:00 -6.2 C 2.81 g/m*3 -6.2 C 0 km/h
1333 20-01-2017 22:00:00 -6.2 C 2.81 g/m*3 -6.2 C 0 km/h
1334 20-01-2017 22:05:00 -6.3 C 2.79 g/m*3 -6.3 C 0 km/h
1335 20-01-2017 22:10:00 -6.3 C 2.79 g/m*3 -6.3 C 0 km/h
1336 20-01-2017 22:15:00 -6.4 C 2.77 g/m*3 -6.4 C 0 km/h
1337 20-01-2017 22:20:00 -6.3 C 2.82 g/m*3 -6.3 C 0 km/h
1338 20-01-2017 22:25:00 -6.4 C 2.8 g/m*3 -6.4 C 0 km/h
1339 20-01-2017 22:30:00 -6.4 C 2.8 g/m*3 -6.4 C 0 km/h
1340 20-01-2017 22:35:00 -6.4 C 2.8 g/m*3 -6.4 C 0 km/h
1341 20-01-2017 22:40:00 -6.6 C 2.73 g/m*3 -6.6 C 0 km/h
1342 20-01-2017 22:45:00 -6.7 C 2.71 g/m*3 -6.7 C 0 km/h
1343 20-01-2017 22:50:00 -6.7 C 2.74 g/m*3 -6.7 C 0 km/h
1344 20-01-2017 22:55:00 -6.8 C 2.72 g/m*3 -6.8 C 0 km/h
1345 20-01-2017 23:00:00 -6.8 C 2.72 g/m*3 -6.8 C 0 km/h
1346 20-01-2017 23:05:00 -6.7 C 2.77 g/m*3 -6.7 C 0 km/h
1347 20-01-2017 23:10:00 -6.7 C 2.77 g/m*3 -6.7 C 3.2 km/h
1348 20-01-2017 23:15:00 -6.7 C 2.74 g/m*3 -6.7 C 0 km/h
1349 20-01-2017 23:20:00 -6.7 C 2.77 g/m*3 -6.7 C 0 km/h
1350 20-01-2017 23:25:00 -6.7 C 2.74 g/m*3 -6.7 C 0 km/h
Sensor: Nr:Datum:Temp:Abs-Feuchte:Windchill:Wind:
Aussen-T/F 1351 20-01-2017 23:30:00 -6.8 C 2.72 g/m*3 -6.8 C 0 km/h
1352 20-01-2017 23:35:00 -6.9 C 2.7 g/m*3 -6.9 C 0 km/h
1353 20-01-2017 23:40:00 -7 C 2.68 g/m*3 -7 C 0 km/h
1354 20-01-2017 23:45:00 -7.1 C 2.66 g/m*3 -7.1 C 0 km/h
1355 20-01-2017 23:50:00 -7.2 C 2.64 g/m*3 -7.2 C 0 km/h
1356 20-01-2017 23:55:00 -7.3 C 2.62 g/m*3 -7.3 C 0 km/h
1357 21-01-2017 00:00:00 -7.3 C 2.65 g/m*3 -7.3 C 0 km/h
1358 21-01-2017 00:05:00 -7.2 C 2.67 g/m*3 -7.2 C 0 km/h
1359 21-01-2017 00:10:00 -7.2 C 2.67 g/m*3 -7.2 C 0 km/h
1360 21-01-2017 00:15:00 -7.2 C 2.67 g/m*3 -7.2 C 0 km/h
1361 21-01-2017 00:20:00 -7.3 C 2.65 g/m*3 -7.3 C 0 km/h
1362 21-01-2017 00:25:00 -7.3 C 2.65 g/m*3 -7.3 C 0 km/h
1363 21-01-2017 00:30:00 -7.3 C 2.65 g/m*3 -7.3 C 1.6 km/h
1364 21-01-2017 00:35:00 -7.3 C 2.65 g/m*3 -7.3 C 0 km/h
1365 21-01-2017 00:40:00 -7.3 C 2.65 g/m*3 -7.3 C 0 km/h
1366 21-01-2017 00:45:00 -7.3 C 2.65 g/m*3 -7.3 C 0 km/h
1367 21-01-2017 00:50:00 -7.3 C 2.65 g/m*3 -7.3 C 0 km/h
1368 21-01-2017 00:55:00 -7.4 C 2.63 g/m*3 -7.4 C 0 km/h
1369 21-01-2017 01:00:00 -7.4 C 2.63 g/m*3 -7.4 C 0 km/h
1370 21-01-2017 01:05:00 -7.3 C 2.68 g/m*3 -7.3 C 0 km/h
1371 21-01-2017 01:10:00 -7.3 C 2.68 g/m*3 -7.3 C 0 km/h
1372 21-01-2017 01:15:00 -7.2 C 2.7 g/m*3 -7.2 C 0 km/h
1373 21-01-2017 01:20:00 -7.2 C 2.7 g/m*3 -7.2 C 0 km/h
1374 21-01-2017 01:25:00 -7.3 C 2.65 g/m*3 -7.3 C 0 km/h
1375 21-01-2017 01:30:00 -7.4 C 2.63 g/m*3 -7.4 C 0 km/h
Sensor: Nr:Datum:Temp:Abs-Feuchte:Windchill:Wind:
Aussen-T/F 1376 21-01-2017 01:35:00 -7.4 C 2.63 g/m*3 -7.4 C 0 km/h
1377 21-01-2017 01:40:00 -7.5 C 2.61 g/m*3 -7.5 C 0 km/h
1378 21-01-2017 01:45:00 -7.6 C 2.59 g/m*3 -7.6 C 0 km/h
1379 21-01-2017 01:50:00 -7.6 C 2.59 g/m*3 -7.6 C 0 km/h
1380 21-01-2017 01:55:00 -7.7 C 2.57 g/m*3 -7.7 C 0 km/h
1381 21-01-2017 02:00:00 -7.7 C 2.6 g/m*3 -7.7 C 0 km/h
1382 21-01-2017 02:05:00 -7.6 C 2.62 g/m*3 -7.6 C 0 km/h
1383 21-01-2017 02:10:00 -7.7 C 2.6 g/m*3 -7.7 C 0 km/h
1384 21-01-2017 02:15:00 -7.6 C 2.62 g/m*3 -7.6 C 0 km/h
1385 21-01-2017 02:20:00 -7.6 C 2.62 g/m*3 -7.6 C 0 km/h
1386 21-01-2017 02:25:00 -7.7 C 2.6 g/m*3 -7.7 C 0 km/h
1387 21-01-2017 02:30:00 -7.7 C 2.6 g/m*3 -7.7 C 0 km/h
1388 21-01-2017 02:35:00 -7.7 C 2.6 g/m*3 -7.7 C 0 km/h
1389 21-01-2017 02:40:00 -7.8 C 2.58 g/m*3 -7.8 C 0 km/h
1390 21-01-2017 02:45:00 -7.8 C 2.58 g/m*3 -7.8 C 0 km/h
1391 21-01-2017 02:50:00 -7.8 C 2.58 g/m*3 -7.8 C 0 km/h
1392 21-01-2017 02:55:00 -7.9 C 2.56 g/m*3 -7.9 C 0 km/h
1393 21-01-2017 03:00:00 -7.9 C 2.56 g/m*3 -7.9 C 0 km/h
1394 21-01-2017 03:05:00 -8 C 2.54 g/m*3 -8 C 0 km/h
1395 21-01-2017 03:10:00 -8.1 C 2.52 g/m*3 -8.1 C 0 km/h
1396 21-01-2017 03:15:00 -8.1 C 2.52 g/m*3 -8.1 C 0 km/h
1397 21-01-2017 03:20:00 -8.1 C 2.52 g/m*3 -8.1 C 0 km/h
1398 21-01-2017 03:25:00 -8.1 C 2.52 g/m*3 -8.1 C 0 km/h
1399 21-01-2017 03:30:00 -8.1 C 2.52 g/m*3 -8.1 C 0 km/h
1400 21-01-2017 03:35:00 -8.1 C 2.52 g/m*3 -8.1 C 0 km/h
Sensor: Nr:Datum:Temp:Abs-Feuchte:Windchill:Wind:
Aussen-T/F 1401 21-01-2017 03:40:00 -8.1 C 2.52 g/m*3 -8.1 C 0 km/h
1402 21-01-2017 03:45:00 -8.1 C 2.52 g/m*3 -8.1 C 0 km/h
1403 21-01-2017 03:50:00 -8.1 C 2.52 g/m*3 -8.1 C 0 km/h
1404 21-01-2017 03:55:00 -8.2 C 2.51 g/m*3 -8.2 C 0 km/h
1405 21-01-2017 04:00:00 -8.2 C 2.51 g/m*3 -8.2 C 0 km/h
1406 21-01-2017 04:05:00 -8.2 C 2.51 g/m*3 -8.2 C 0 km/h
1407 21-01-2017 04:10:00 -8.3 C 2.49 g/m*3 -8.3 C 0 km/h
1408 21-01-2017 04:15:00 -8.3 C 2.49 g/m*3 -8.3 C 0 km/h
1409 21-01-2017 04:20:00 -8.3 C 2.49 g/m*3 -8.3 C 0 km/h
1410 21-01-2017 04:25:00 -8.3 C 2.49 g/m*3 -8.3 C 0 km/h
1411 21-01-2017 04:30:00 -8.3 C 2.49 g/m*3 -8.3 C 0 km/h
1412 21-01-2017 04:35:00 -8.3 C 2.49 g/m*3 -8.3 C 0 km/h
1413 21-01-2017 04:40:00 -8.4 C 2.47 g/m*3 -8.4 C 0 km/h
1414 21-01-2017 04:45:00 -8.4 C 2.47 g/m*3 -8.4 C 0 km/h
1415 21-01-2017 04:50:00 -8.5 C 2.45 g/m*3 -8.5 C 0 km/h
1416 21-01-2017 04:55:00 -8.6 C 2.43 g/m*3 -8.6 C 0 km/h
1417 21-01-2017 05:00:00 -8.6 C 2.43 g/m*3 -8.6 C 0 km/h
1418 21-01-2017 05:05:00 -8.6 C 2.43 g/m*3 -8.6 C 0 km/h
1419 21-01-2017 05:10:00 -8.6 C 2.43 g/m*3 -8.6 C 0 km/h
1420 21-01-2017 05:15:00 -8.6 C 2.43 g/m*3 -8.6 C 0 km/h
1421 21-01-2017 05:20:00 -8.5 C 2.48 g/m*3 -8.5 C 0 km/h
1422 21-01-2017 05:25:00 -8.4 C 2.5 g/m*3 -8.4 C 0 km/h
1423 21-01-2017 05:30:00 -8.4 C 2.47 g/m*3 -8.4 C 0 km/h
1424 21-01-2017 05:35:00 -8.5 C 2.45 g/m*3 -8.5 C 0 km/h
1425 21-01-2017 05:40:00 -8.6 C 2.43 g/m*3 -8.6 C 0 km/h
Sensor: Nr:Datum:Temp:Abs-Feuchte:Windchill:Wind:
Aussen-T/F 1426 21-01-2017 05:45:00 -8.6 C 2.43 g/m*3 -8.6 C 0 km/h
1427 21-01-2017 05:50:00 -8.6 C 2.43 g/m*3 -8.6 C 0 km/h
1428 21-01-2017 05:55:00 -8.6 C 2.43 g/m*3 -8.6 C 0 km/h
1429 21-01-2017 06:00:00 -8.5 C 2.48 g/m*3 -8.5 C 0 km/h
1430 21-01-2017 06:05:00 -8.5 C 2.48 g/m*3 -8.5 C 0 km/h
1431 21-01-2017 06:10:00 -8.5 C 2.45 g/m*3 -8.5 C 0 km/h
1432 21-01-2017 06:15:00 -8.6 C 2.43 g/m*3 -8.6 C 0 km/h
1433 21-01-2017 06:20:00 -8.7 C 2.41 g/m*3 -8.7 C 0 km/h
1434 21-01-2017 06:25:00 -8.7 C 2.41 g/m*3 -8.7 C 0 km/h
1435 21-01-2017 06:30:00 -8.6 C 2.43 g/m*3 -8.6 C 0 km/h
1436 21-01-2017 06:35:00 -8.7 C 2.41 g/m*3 -8.7 C 0 km/h
1437 21-01-2017 06:40:00 -8.7 C 2.41 g/m*3 -8.7 C 0 km/h
1438 21-01-2017 06:45:00 -8.7 C 2.41 g/m*3 -8.7 C 0 km/h
1439 21-01-2017 10:10:00 -8.1 C 2.55 g/m*3 -8.1 C 0 km/h
1440 21-01-2017 10:15:00 -7.9 C 2.59 g/m*3 -7.9 C 0 km/h
1441 21-01-2017 10:20:00 -7.9 C 2.59 g/m*3 -7.9 C 0 km/h
1442 21-01-2017 10:25:00 -7.8 C 2.61 g/m*3 -7.8 C 0 km/h
1443 21-01-2017 10:30:00 -7.7 C 2.63 g/m*3 -7.7 C 0 km/h
1444 21-01-2017 10:35:00 -7.7 C 2.63 g/m*3 -7.7 C 0 km/h
1445 21-01-2017 10:40:00 -7.6 C 2.65 g/m*3 -7.6 C 0 km/h
1446 21-01-2017 10:45:00 -7.5 C 2.67 g/m*3 -7.5 C 0 km/h
1447 21-01-2017 10:50:00 -7.4 C 2.69 g/m*3 -7.4 C 0 km/h
1448 21-01-2017 10:55:00 -7.3 C 2.71 g/m*3 -7.3 C 0 km/h
1449 21-01-2017 11:00:00 -7.1 C 2.75 g/m*3 -7.1 C 0 km/h
1450 21-01-2017 11:05:00 -7 C 2.77 g/m*3 -7 C 0 km/h
Sensor: Nr:Datum:Temp:Abs-Feuchte:Windchill:Wind:
Aussen-T/F 1451 21-01-2017 11:10:00 -6.9 C 2.79 g/m*3 -6.9 C 0 km/h
1452 21-01-2017 11:15:00 -6.8 C 2.81 g/m*3 -6.8 C 0 km/h
1453 21-01-2017 11:20:00 -6.8 C 2.81 g/m*3 -6.8 C 0 km/h
1454 21-01-2017 11:25:00 -6.7 C 2.83 g/m*3 -6.7 C 0 km/h
1455 21-01-2017 11:30:00 -6.6 C 2.85 g/m*3 -6.6 C 0 km/h
1456 21-01-2017 11:35:00 -6.5 C 2.87 g/m*3 -6.5 C 0 km/h
1457 21-01-2017 11:40:00 -6.4 C 2.89 g/m*3 -6.4 C 0 km/h
1458 21-01-2017 11:45:00 -6.3 C 2.91 g/m*3 -6.3 C 0 km/h
1459 21-01-2017 11:50:00 -6.2 C 2.93 g/m*3 -6.2 C 0 km/h
1460 21-01-2017 11:55:00 -6 C 2.98 g/m*3 -6 C 0 km/h
1461 21-01-2017 12:00:00 -5.9 C 3.03 g/m*3 -5.9 C 0 km/h
1462 21-01-2017 12:05:00 -5.7 C 3.07 g/m*3 -5.7 C 0 km/h
1463 21-01-2017 12:10:00 -5.6 C 3.1 g/m*3 -5.6 C 0 km/h
1464 21-01-2017 12:15:00 -5.4 C 3.14 g/m*3 -5.4 C 0 km/h
1465 21-01-2017 12:20:00 -5.3 C 3.17 g/m*3 -5.3 C 1.6 km/h
1466 21-01-2017 12:25:00 -5.1 C 3.21 g/m*3 -5.1 C 0 km/h
1467 21-01-2017 12:30:00 -4.9 C 3.26 g/m*3 -4.9 C 0 km/h
1468 21-01-2017 12:35:00 -4.8 C 3.28 g/m*3 -4.8 C 0 km/h
1469 21-01-2017 12:40:00 -4.7 C 3.31 g/m*3 -4.7 C 0 km/h
1470 21-01-2017 12:45:00 -4.6 C 3.33 g/m*3 -4.6 C 0 km/h
1471 21-01-2017 12:50:00 -4.5 C 3.35 g/m*3 -4.5 C 1.6 km/h
1472 21-01-2017 12:55:00 -4.4 C 3.38 g/m*3 -4.4 C 0 km/h
1473 21-01-2017 13:00:00 -4.3 C 3.4 g/m*3 -4.3 C 1.6 km/h
1474 21-01-2017 13:05:00 -4.2 C 3.43 g/m*3 -4.2 C 3.2 km/h
1475 21-01-2017 13:10:00 -4 C 3.48 g/m*3 -4 C 1.6 km/h
Sensor: Nr:Datum:Temp:Abs-Feuchte:Windchill:Wind:
Aussen-T/F 1476 21-01-2017 13:15:00 -3.9 C 3.5 g/m*3 -3.9 C 1.6 km/h
1477 21-01-2017 13:20:00 -3.7 C 3.55 g/m*3 -3.7 C 3.2 km/h
1478 21-01-2017 13:25:00 -3.6 C 3.58 g/m*3 -3.6 C 1.6 km/h
1479 21-01-2017 13:30:00 -3.5 C 3.56 g/m*3 -3.5 C 1.6 km/h
1480 21-01-2017 13:35:00 -3.4 C 3.59 g/m*3 -3.4 C 3.2 km/h
1481 21-01-2017 13:40:00 -3.3 C 3.61 g/m*3 -3.3 C 3.2 km/h
1482 21-01-2017 13:45:00 -3.1 C 3.67 g/m*3 -3.1 C 3.2 km/h
1483 21-01-2017 13:50:00 -2.9 C 3.72 g/m*3 -2.9 C 3.2 km/h
1484 21-01-2017 13:55:00 -2.8 C 3.71 g/m*3 -2.8 C 3.2 km/h
1485 21-01-2017 14:00:00 -2.7 C 3.73 g/m*3 -2.7 C 3.2 km/h
1486 21-01-2017 14:05:00 -2.6 C 3.76 g/m*3 -2.6 C 3.2 km/h
1487 21-01-2017 14:10:00 -2.5 C 3.78 g/m*3 -2.5 C 3.2 km/h
1488 21-01-2017 14:15:00 -2.3 C 3.84 g/m*3 -2.3 C 3.2 km/h
1489 21-01-2017 14:20:00 -2.2 C 3.87 g/m*3 -2.2 C 3.2 km/h
1490 21-01-2017 14:25:00 -2.1 C 3.89 g/m*3 -2.1 C 3.2 km/h
1491 21-01-2017 14:30:00 -2 C 3.88 g/m*3 -2 C 3.2 km/h
1492 21-01-2017 14:35:00 -1.9 C 3.91 g/m*3 -1.9 C 3.2 km/h
1493 21-01-2017 14:40:00 -1.8 C 3.93 g/m*3 -1.8 C 3.2 km/h
1494 21-01-2017 14:45:00 -1.8 C 3.89 g/m*3 -1.8 C 4.8 km/h
1495 21-01-2017 14:50:00 -1.7 C 3.92 g/m*3 -1.7 C 3.2 km/h
1496 21-01-2017 14:55:00 -1.6 C 3.94 g/m*3 -1.6 C 4.8 km/h
1497 21-01-2017 15:00:00 -1.5 C 3.97 g/m*3 -1.5 C 4.8 km/h
1498 21-01-2017 15:05:00 -1.4 C 4 g/m*3 -1.4 C 4.8 km/h
1499 21-01-2017 15:10:00 -1.3 C 4.03 g/m*3 -1.3 C 4.8 km/h
1500 21-01-2017 15:15:00 -1.3 C 3.98 g/m*3 -1.3 C 4.8 km/h
Sensor: Nr:Datum:Temp:Abs-Feuchte:Windchill:Wind:
Aussen-T/F 1501 21-01-2017 15:20:00 -1.2 C 4.01 g/m*3 -3.57 C 6.4 km/h
1502 21-01-2017 15:25:00 -1.2 C 4.01 g/m*3 -3.57 C 6.4 km/h
1503 21-01-2017 15:30:00 -1.2 C 4.01 g/m*3 -3.57 C 6.4 km/h
1504 21-01-2017 15:35:00 -1.2 C 4.01 g/m*3 -1.2 C 4.8 km/h
1505 21-01-2017 15:40:00 -1.1 C 4 g/m*3 -1.1 C 4.8 km/h
1506 21-01-2017 15:45:00 -1.1 C 4 g/m*3 -3.45 C 6.4 km/h
1507 21-01-2017 15:50:00 -1.1 C 4 g/m*3 -3.45 C 6.4 km/h
1508 21-01-2017 15:55:00 -1.1 C 4 g/m*3 -3.45 C 6.4 km/h
1509 21-01-2017 16:00:00 -1.1 C 4 g/m*3 -3.45 C 6.4 km/h
1510 21-01-2017 16:05:00 -1.1 C 4 g/m*3 -3.45 C 6.4 km/h
1511 21-01-2017 16:10:00 -1.1 C 3.95 g/m*3 -3.45 C 6.4 km/h
1512 21-01-2017 16:15:00 -1.2 C 3.92 g/m*3 -3.57 C 6.4 km/h
1513 21-01-2017 16:20:00 -1.2 C 3.92 g/m*3 -3.57 C 6.4 km/h
1514 21-01-2017 16:25:00 -1.2 C 3.92 g/m*3 -3.57 C 6.4 km/h
1515 21-01-2017 16:30:00 -1.2 C 3.92 g/m*3 -3.57 C 6.4 km/h
1516 21-01-2017 16:35:00 -1.3 C 3.9 g/m*3 -3.68 C 6.4 km/h
1517 21-01-2017 16:40:00 -1.3 C 3.9 g/m*3 -3.68 C 6.4 km/h
1518 21-01-2017 16:45:00 -1.3 C 3.9 g/m*3 -3.68 C 6.4 km/h
1519 21-01-2017 16:50:00 -1.3 C 3.9 g/m*3 -3.68 C 6.4 km/h
1520 21-01-2017 16:55:00 -1.3 C 3.9 g/m*3 -3.68 C 6.4 km/h
1521 21-01-2017 17:00:00 -1.4 C 3.82 g/m*3 -3.8 C 6.4 km/h
1522 21-01-2017 17:05:00 -1.5 C 3.84 g/m*3 -1.5 C 4.8 km/h
1523 21-01-2017 17:10:00 -1.6 C 3.77 g/m*3 -4.03 C 6.4 km/h
1524 21-01-2017 17:15:00 -1.6 C 3.77 g/m*3 -4.03 C 6.4 km/h
1525 21-01-2017 17:20:00 -1.6 C 3.77 g/m*3 -1.6 C 4.8 km/h
Sensor: Nr:Datum:Temp:Abs-Feuchte:Windchill:Wind:
Aussen-T/F 1526 21-01-2017 17:25:00 -1.7 C 3.75 g/m*3 -1.7 C 4.8 km/h
1527 21-01-2017 17:30:00 -1.7 C 3.75 g/m*3 -4.15 C 6.4 km/h
1528 21-01-2017 17:35:00 -1.8 C 3.72 g/m*3 -4.26 C 6.4 km/h
1529 21-01-2017 17:40:00 -1.9 C 3.69 g/m*3 -1.9 C 4.8 km/h
1530 21-01-2017 17:45:00 -2 C 3.67 g/m*3 -2 C 4.8 km/h
1531 21-01-2017 17:50:00 -2.2 C 3.62 g/m*3 -2.2 C 1.6 km/h
1532 21-01-2017 17:55:00 -2.3 C 3.63 g/m*3 -2.3 C 3.2 km/h
1533 21-01-2017 18:00:00 -2.3 C 3.63 g/m*3 -2.3 C 4.8 km/h
1534 21-01-2017 18:05:00 -2.4 C 3.61 g/m*3 -2.4 C 3.2 km/h
1535 21-01-2017 18:10:00 -2.5 C 3.58 g/m*3 -2.5 C 3.2 km/h
1536 21-01-2017 18:15:00 -2.7 C 3.53 g/m*3 -2.7 C 3.2 km/h
1537 21-01-2017 18:20:00 -2.8 C 3.51 g/m*3 -2.8 C 1.6 km/h
1538 21-01-2017 18:25:00 -2.9 C 3.48 g/m*3 -2.9 C 0 km/h
1539 21-01-2017 18:30:00 -3.1 C 3.47 g/m*3 -3.1 C 0 km/h
1540 21-01-2017 18:35:00 -3.2 C 3.45 g/m*3 -3.2 C 0 km/h
1541 21-01-2017 18:40:00 -3.4 C 3.4 g/m*3 -3.4 C 0 km/h
1542 21-01-2017 18:45:00 -3.6 C 3.35 g/m*3 -3.6 C 1.6 km/h
1543 21-01-2017 18:50:00 -3.7 C 3.33 g/m*3 -3.7 C 0 km/h
1544 21-01-2017 18:55:00 -3.8 C 3.3 g/m*3 -3.8 C 0 km/h
1545 21-01-2017 19:00:00 -4.1 C 3.23 g/m*3 -4.1 C 0 km/h
1546 21-01-2017 19:05:00 -4.2 C 3.21 g/m*3 -4.2 C 0 km/h
1547 21-01-2017 19:10:00 -4.2 C 3.25 g/m*3 -4.2 C 0 km/h
1548 21-01-2017 19:15:00 -4.2 C 3.25 g/m*3 -4.2 C 0 km/h
1549 21-01-2017 19:20:00 -4.2 C 3.25 g/m*3 -4.2 C 0 km/h
1550 21-01-2017 19:25:00 -4.3 C 3.22 g/m*3 -4.3 C 0 km/h
Sensor: Nr:Datum:Temp:Abs-Feuchte:Windchill:Wind:
Aussen-T/F 1551 21-01-2017 19:30:00 -4.4 C 3.24 g/m*3 -4.4 C 1.6 km/h
1552 21-01-2017 19:35:00 -4.3 C 3.26 g/m*3 -4.3 C 4.8 km/h
1553 21-01-2017 19:40:00 -4.2 C 3.32 g/m*3 -4.2 C 3.2 km/h
1554 21-01-2017 19:45:00 -4.2 C 3.28 g/m*3 -4.2 C 0 km/h
1555 21-01-2017 19:50:00 -4.3 C 3.22 g/m*3 -4.3 C 1.6 km/h
1556 21-01-2017 19:55:00 -4.5 C 3.18 g/m*3 -4.5 C 0 km/h
1557 21-01-2017 20:00:00 -4.6 C 3.15 g/m*3 -4.6 C 1.6 km/h
1558 21-01-2017 20:05:00 -4.6 C 3.19 g/m*3 -4.6 C 0 km/h
1559 21-01-2017 20:10:00 -4.8 C 3.11 g/m*3 -4.8 C 0 km/h
1560 21-01-2017 20:15:00 -4.8 C 3.14 g/m*3 -4.8 C 0 km/h
1561 21-01-2017 20:20:00 -4.8 C 3.14 g/m*3 -4.8 C 0 km/h
1562 21-01-2017 20:25:00 -5.1 C 3.04 g/m*3 -5.1 C 0 km/h
1563 21-01-2017 20:30:00 -5.2 C 3.02 g/m*3 -5.2 C 0 km/h
1564 21-01-2017 20:35:00 -5.3 C 3.03 g/m*3 -5.3 C 0 km/h
1565 21-01-2017 20:40:00 -5.2 C 3.05 g/m*3 -5.2 C 0 km/h
1566 21-01-2017 20:45:00 -5.3 C 3.03 g/m*3 -5.3 C 0 km/h
1567 21-01-2017 20:50:00 -5.3 C 3.03 g/m*3 -5.3 C 0 km/h
1568 21-01-2017 20:55:00 -5.4 C 3.04 g/m*3 -5.4 C 0 km/h
1569 21-01-2017 21:00:00 -5.4 C 3.04 g/m*3 -5.4 C 0 km/h
1570 21-01-2017 21:05:00 -5.4 C 3.01 g/m*3 -5.4 C 0 km/h
1571 21-01-2017 21:10:00 -5.4 C 3.04 g/m*3 -5.4 C 0 km/h
1572 21-01-2017 21:15:00 -5.5 C 3.02 g/m*3 -5.5 C 0 km/h
1573 21-01-2017 21:20:00 -5.6 C 2.97 g/m*3 -5.6 C 0 km/h
1574 21-01-2017 21:25:00 -5.7 C 2.95 g/m*3 -5.7 C 0 km/h
1575 21-01-2017 21:30:00 -5.7 C 2.98 g/m*3 -5.7 C 0 km/h
Sensor: Nr:Datum:Temp:Abs-Feuchte:Windchill:Wind:
Aussen-T/F 1576 21-01-2017 21:35:00 -5.8 C 2.92 g/m*3 -5.8 C 0 km/h
1577 21-01-2017 21:40:00 -6 C 2.88 g/m*3 -6 C 0 km/h
1578 21-01-2017 21:45:00 -6 C 2.91 g/m*3 -6 C 1.6 km/h
1579 21-01-2017 21:50:00 -5.9 C 2.93 g/m*3 -5.9 C 0 km/h
1580 21-01-2017 21:55:00 -6.1 C 2.89 g/m*3 -6.1 C 0 km/h
1581 21-01-2017 22:00:00 -6.2 C 2.87 g/m*3 -6.2 C 0 km/h
1582 21-01-2017 22:05:00 -6.2 C 2.87 g/m*3 -6.2 C 0 km/h
1583 21-01-2017 22:10:00 -6.3 C 2.85 g/m*3 -6.3 C 0 km/h
1584 21-01-2017 22:15:00 -6.3 C 2.85 g/m*3 -6.3 C 0 km/h
1585 21-01-2017 22:20:00 -6.3 C 2.85 g/m*3 -6.3 C 0 km/h
1586 21-01-2017 22:25:00 -6.3 C 2.85 g/m*3 -6.3 C 0 km/h
1587 21-01-2017 22:30:00 -6.3 C 2.85 g/m*3 -6.3 C 0 km/h
1588 21-01-2017 22:35:00 -6.2 C 2.9 g/m*3 -6.2 C 0 km/h
1589 21-01-2017 22:40:00 -6.3 C 2.85 g/m*3 -6.3 C 0 km/h
1590 21-01-2017 22:45:00 -6.4 C 2.83 g/m*3 -6.4 C 0 km/h
1591 21-01-2017 22:50:00 -6.5 C 2.81 g/m*3 -6.5 C 0 km/h
1592 21-01-2017 22:55:00 -6.6 C 2.79 g/m*3 -6.6 C 0 km/h
1593 21-01-2017 23:00:00 -6.6 C 2.79 g/m*3 -6.6 C 0 km/h
1594 21-01-2017 23:05:00 -6.7 C 2.77 g/m*3 -6.7 C 0 km/h
1595 21-01-2017 23:10:00 -6.8 C 2.75 g/m*3 -6.8 C 0 km/h
1596 21-01-2017 23:15:00 -6.8 C 2.75 g/m*3 -6.8 C 0 km/h
1597 21-01-2017 23:20:00 -6.9 C 2.73 g/m*3 -6.9 C 0 km/h
1598 21-01-2017 23:25:00 -6.9 C 2.73 g/m*3 -6.9 C 0 km/h
1599 21-01-2017 23:30:00 -7 C 2.71 g/m*3 -7 C 0 km/h
1600 21-01-2017 23:35:00 -6.9 C 2.76 g/m*3 -6.9 C 0 km/h
Sensor: Nr:Datum:Temp:Abs-Feuchte:Windchill:Wind:
Aussen-T/F 1601 21-01-2017 23:40:00 -6.8 C 2.78 g/m*3 -6.8 C 0 km/h
1602 21-01-2017 23:45:00 -6.8 C 2.78 g/m*3 -6.8 C 0 km/h
1603 21-01-2017 23:50:00 -6.9 C 2.73 g/m*3 -6.9 C 0 km/h
1604 21-01-2017 23:55:00 -7.1 C 2.69 g/m*3 -7.1 C 0 km/h
1605 22-01-2017 00:00:00 -7.2 C 2.7 g/m*3 -7.2 C 0 km/h
1606 22-01-2017 00:05:00 -7.3 C 2.65 g/m*3 -7.3 C 0 km/h
1607 22-01-2017 00:10:00 -7.1 C 2.72 g/m*3 -7.1 C 0 km/h
1608 22-01-2017 00:15:00 -6.9 C 2.79 g/m*3 -6.9 C 3.2 km/h
1609 22-01-2017 00:20:00 -6.8 C 2.81 g/m*3 -6.8 C 1.6 km/h
1610 22-01-2017 00:25:00 -6.7 C 2.8 g/m*3 -6.7 C 0 km/h
1611 22-01-2017 00:30:00 -6.7 C 2.8 g/m*3 -6.7 C 0 km/h
1612 22-01-2017 00:35:00 -6.8 C 2.78 g/m*3 -6.8 C 0 km/h
1613 22-01-2017 00:40:00 -7 C 2.74 g/m*3 -7 C 0 km/h
1614 22-01-2017 00:45:00 -7.2 C 2.7 g/m*3 -7.2 C 0 km/h
1615 22-01-2017 00:50:00 -7.3 C 2.65 g/m*3 -7.3 C 0 km/h
1616 22-01-2017 00:55:00 -7.5 C 2.61 g/m*3 -7.5 C 0 km/h
1617 22-01-2017 01:00:00 -7.6 C 2.59 g/m*3 -7.6 C 0 km/h
1618 22-01-2017 01:05:00 -7.7 C 2.6 g/m*3 -7.7 C 0 km/h
1619 22-01-2017 01:10:00 -7.5 C 2.64 g/m*3 -7.5 C 0 km/h
1620 22-01-2017 01:15:00 -7.4 C 2.66 g/m*3 -7.4 C 0 km/h
1621 22-01-2017 01:20:00 -7.5 C 2.64 g/m*3 -7.5 C 0 km/h
1622 22-01-2017 01:25:00 -7.6 C 2.62 g/m*3 -7.6 C 0 km/h
1623 22-01-2017 01:30:00 -7.7 C 2.6 g/m*3 -7.7 C 0 km/h
1624 22-01-2017 01:35:00 -7.7 C 2.6 g/m*3 -7.7 C 0 km/h
1625 22-01-2017 01:40:00 -7.7 C 2.6 g/m*3 -7.7 C 0 km/h
Sensor: Nr:Datum:Temp:Abs-Feuchte:Windchill:Wind:
Aussen-T/F 1626 22-01-2017 01:45:00 -7.6 C 2.65 g/m*3 -7.6 C 0 km/h
1627 22-01-2017 01:50:00 -7.5 C 2.67 g/m*3 -7.5 C 0 km/h
1628 22-01-2017 01:55:00 -7.4 C 2.69 g/m*3 -7.4 C 0 km/h
1629 22-01-2017 02:00:00 -7.4 C 2.69 g/m*3 -7.4 C 0 km/h
1630 22-01-2017 02:05:00 -7.6 C 2.62 g/m*3 -7.6 C 1.6 km/h
1631 22-01-2017 02:10:00 -7.7 C 2.6 g/m*3 -7.7 C 0 km/h
1632 22-01-2017 02:15:00 -7.7 C 2.6 g/m*3 -7.7 C 0 km/h
1633 22-01-2017 02:20:00 -7.8 C 2.58 g/m*3 -7.8 C 0 km/h
1634 22-01-2017 02:25:00 -8 C 2.54 g/m*3 -8 C 0 km/h
1635 22-01-2017 02:30:00 -8.2 C 2.51 g/m*3 -8.2 C 0 km/h
1636 22-01-2017 02:35:00 -8.2 C 2.51 g/m*3 -8.2 C 0 km/h
1637 22-01-2017 02:40:00 -8.3 C 2.49 g/m*3 -8.3 C 0 km/h
1638 22-01-2017 02:45:00 -8.3 C 2.49 g/m*3 -8.3 C 0 km/h
1639 22-01-2017 02:50:00 -8.4 C 2.47 g/m*3 -8.4 C 0 km/h
1640 22-01-2017 02:55:00 -8.6 C 2.43 g/m*3 -8.6 C 0 km/h
1641 22-01-2017 03:00:00 -8.7 C 2.39 g/m*3 -8.7 C 0 km/h
1642 22-01-2017 03:05:00 -8.8 C 2.37 g/m*3 -8.8 C 0 km/h
1643 22-01-2017 03:10:00 -8.9 C 2.38 g/m*3 -8.9 C 0 km/h
1644 22-01-2017 03:15:00 -9 C 2.36 g/m*3 -9 C 0 km/h
1645 22-01-2017 03:20:00 -9 C 2.36 g/m*3 -9 C 0 km/h
1646 22-01-2017 03:25:00 -9 C 2.36 g/m*3 -9 C 0 km/h
1647 22-01-2017 03:30:00 -8.9 C 2.38 g/m*3 -8.9 C 0 km/h
1648 22-01-2017 03:35:00 -9.1 C 2.34 g/m*3 -9.1 C 0 km/h
1649 22-01-2017 03:40:00 -9.1 C 2.34 g/m*3 -9.1 C 0 km/h
1650 22-01-2017 03:45:00 -9.1 C 2.34 g/m*3 -9.1 C 0 km/h
Sensor: Nr:Datum:Temp:Abs-Feuchte:Windchill:Wind:
Aussen-T/F 1651 22-01-2017 03:50:00 -9.1 C 2.34 g/m*3 -9.1 C 0 km/h
1652 22-01-2017 03:55:00 -9.1 C 2.34 g/m*3 -9.1 C 0 km/h
1653 22-01-2017 04:00:00 -9 C 2.36 g/m*3 -9 C 0 km/h
1654 22-01-2017 04:05:00 -8.8 C 2.42 g/m*3 -8.8 C 0 km/h
1655 22-01-2017 04:10:00 -8.7 C 2.44 g/m*3 -8.7 C 0 km/h
1656 22-01-2017 04:15:00 -8.7 C 2.44 g/m*3 -8.7 C 0 km/h
1657 22-01-2017 04:20:00 -8.7 C 2.41 g/m*3 -8.7 C 0 km/h
1658 22-01-2017 04:25:00 -8.7 C 2.41 g/m*3 -8.7 C 0 km/h
1659 22-01-2017 04:30:00 -8.7 C 2.41 g/m*3 -8.7 C 1.6 km/h
1660 22-01-2017 04:35:00 -8.8 C 2.4 g/m*3 -8.8 C 0 km/h
1661 22-01-2017 04:40:00 -8.7 C 2.41 g/m*3 -8.7 C 1.6 km/h
1662 22-01-2017 04:45:00 -8.7 C 2.41 g/m*3 -8.7 C 1.6 km/h
1663 22-01-2017 04:50:00 -8.7 C 2.41 g/m*3 -8.7 C 0 km/h
1664 22-01-2017 04:55:00 -8.7 C 2.41 g/m*3 -8.7 C 0 km/h
1665 22-01-2017 05:00:00 -8.7 C 2.41 g/m*3 -8.7 C 0 km/h
1666 22-01-2017 05:05:00 -8.9 C 2.38 g/m*3 -8.9 C 0 km/h
1667 22-01-2017 05:10:00 -9.1 C 2.32 g/m*3 -9.1 C 0 km/h
1668 22-01-2017 05:15:00 -9.2 C 2.3 g/m*3 -9.2 C 0 km/h
1669 22-01-2017 05:20:00 -9.3 C 2.31 g/m*3 -9.3 C 0 km/h
1670 22-01-2017 05:25:00 -9.3 C 2.31 g/m*3 -9.3 C 0 km/h
1671 22-01-2017 05:30:00 -9.2 C 2.33 g/m*3 -9.2 C 0 km/h
1672 22-01-2017 05:35:00 -9.2 C 2.33 g/m*3 -9.2 C 0 km/h
1673 22-01-2017 05:40:00 -9.3 C 2.31 g/m*3 -9.3 C 0 km/h
1674 22-01-2017 05:45:00 -9.3 C 2.31 g/m*3 -9.3 C 0 km/h
1675 22-01-2017 05:50:00 -9.4 C 2.29 g/m*3 -9.4 C 0 km/h
Sensor: Nr:Datum:Temp:Abs-Feuchte:Windchill:Wind:
Aussen-T/F 1676 22-01-2017 05:55:00 -9.5 C 2.25 g/m*3 -9.5 C 0 km/h
1677 22-01-2017 06:00:00 -9.7 C 2.22 g/m*3 -9.7 C 0 km/h
1678 22-01-2017 06:05:00 -9.8 C 2.2 g/m*3 -9.8 C 0 km/h
1679 22-01-2017 06:10:00 -9.9 C 2.18 g/m*3 -9.9 C 0 km/h
1680 22-01-2017 06:15:00 -10 C 2.17 g/m*3 -10 C 0 km/h
1681 22-01-2017 06:20:00 -10.1 C 2.15 g/m*3 -10.1 C 0 km/h
1682 22-01-2017 06:25:00 -10.1 C 2.15 g/m*3 -10.1 C 0 km/h
1683 22-01-2017 06:30:00 -10.1 C 2.15 g/m*3 -10.1 C 0 km/h
1684 22-01-2017 06:35:00 -10.1 C 2.15 g/m*3 -10.1 C 0 km/h
1685 22-01-2017 06:40:00 -10.1 C 2.15 g/m*3 -10.1 C 0 km/h
1686 22-01-2017 06:45:00 -10.1 C 2.17 g/m*3 -10.1 C 0 km/h
1687 22-01-2017 06:50:00 -10.1 C 2.17 g/m*3 -10.1 C 0 km/h
1688 22-01-2017 06:55:00 -9.9 C 2.21 g/m*3 -9.9 C 0 km/h
1689 22-01-2017 07:00:00 -9.9 C 2.21 g/m*3 -9.9 C 0 km/h
1690 22-01-2017 07:05:00 -9.8 C 2.22 g/m*3 -9.8 C 0 km/h
1691 22-01-2017 07:10:00 -9.8 C 2.22 g/m*3 -9.8 C 0 km/h
1692 22-01-2017 07:15:00 -9.8 C 2.22 g/m*3 -9.8 C 0 km/h
1693 22-01-2017 07:20:00 -9.9 C 2.21 g/m*3 -9.9 C 0 km/h
1694 22-01-2017 07:25:00 -10.1 C 2.15 g/m*3 -10.1 C 0 km/h
1695 22-01-2017 07:30:00 -10.2 C 2.13 g/m*3 -10.2 C 0 km/h
1696 22-01-2017 07:35:00 -10.3 C 2.12 g/m*3 -10.3 C 0 km/h
1697 22-01-2017 09:55:00 -9.9 C 2.21 g/m*3 -9.9 C 0 km/h
1698 22-01-2017 10:00:00 -9.8 C 2.22 g/m*3 -9.8 C 0 km/h
1699 22-01-2017 10:05:00 -9.8 C 2.22 g/m*3 -9.8 C 0 km/h
1700 22-01-2017 10:10:00 -9.7 C 2.24 g/m*3 -9.7 C 0 km/h
Sensor: Nr:Datum:Temp:Abs-Feuchte:Windchill:Wind:
Aussen-T/F 1701 22-01-2017 10:15:00 -9.7 C 2.24 g/m*3 -9.7 C 0 km/h
1702 22-01-2017 10:20:00 -9.7 C 2.24 g/m*3 -9.7 C 0 km/h
1703 22-01-2017 10:25:00 -9.6 C 2.26 g/m*3 -9.6 C 0 km/h
1704 22-01-2017 10:30:00 -9.6 C 2.26 g/m*3 -9.6 C 0 km/h
1705 22-01-2017 10:35:00 -9.6 C 2.26 g/m*3 -9.6 C 0 km/h
1706 22-01-2017 10:40:00 -9.5 C 2.27 g/m*3 -9.5 C 0 km/h
1707 22-01-2017 10:45:00 -9.4 C 2.29 g/m*3 -9.4 C 0 km/h
1708 22-01-2017 10:50:00 -9.3 C 2.31 g/m*3 -9.3 C 0 km/h
1709 22-01-2017 10:55:00 -9.2 C 2.33 g/m*3 -9.2 C 0 km/h
1710 22-01-2017 11:00:00 -9.1 C 2.34 g/m*3 -9.1 C 0 km/h
1711 22-01-2017 11:05:00 -9 C 2.36 g/m*3 -9 C 0 km/h
1712 22-01-2017 11:10:00 -8.8 C 2.4 g/m*3 -8.8 C 0 km/h
1713 22-01-2017 11:15:00 -8.7 C 2.41 g/m*3 -8.7 C 0 km/h
1714 22-01-2017 11:20:00 -8.6 C 2.46 g/m*3 -8.6 C 0 km/h
1715 22-01-2017 11:25:00 -8.5 C 2.45 g/m*3 -8.5 C 0 km/h
1716 22-01-2017 11:30:00 -8.4 C 2.47 g/m*3 -8.4 C 0 km/h
1717 22-01-2017 11:35:00 -8.3 C 2.49 g/m*3 -8.3 C 0 km/h
1718 22-01-2017 11:40:00 -8.3 C 2.49 g/m*3 -8.3 C 0 km/h
1719 22-01-2017 11:45:00 -8.2 C 2.53 g/m*3 -8.2 C 0 km/h
1720 22-01-2017 11:50:00 -8.1 C 2.55 g/m*3 -8.1 C 0 km/h
1721 22-01-2017 11:55:00 -7.9 C 2.59 g/m*3 -7.9 C 0 km/h
1722 22-01-2017 12:00:00 -7.8 C 2.61 g/m*3 -7.8 C 0 km/h
1723 22-01-2017 12:05:00 -7.7 C 2.63 g/m*3 -7.7 C 0 km/h
1724 22-01-2017 12:10:00 -7.5 C 2.67 g/m*3 -7.5 C 0 km/h
1725 22-01-2017 12:15:00 -7.4 C 2.69 g/m*3 -7.4 C 0 km/h
Sensor: Nr:Datum:Temp:Abs-Feuchte:Windchill:Wind:
Aussen-T/F 1726 22-01-2017 12:20:00 -7.3 C 2.71 g/m*3 -7.3 C 0 km/h
1727 22-01-2017 12:25:00 -7.2 C 2.73 g/m*3 -7.2 C 0 km/h
1728 22-01-2017 12:30:00 -7 C 2.77 g/m*3 -7 C 0 km/h
1729 22-01-2017 12:35:00 -6.9 C 2.79 g/m*3 -6.9 C 1.6 km/h
1730 22-01-2017 12:40:00 -6.8 C 2.81 g/m*3 -6.8 C 1.6 km/h
1731 22-01-2017 12:45:00 -6.7 C 2.83 g/m*3 -6.7 C 1.6 km/h
1732 22-01-2017 12:50:00 -6.7 C 2.83 g/m*3 -6.7 C 1.6 km/h
1733 22-01-2017 12:55:00 -6.6 C 2.85 g/m*3 -6.6 C 3.2 km/h
1734 22-01-2017 13:00:00 -6.4 C 2.89 g/m*3 -6.4 C 3.2 km/h
1735 22-01-2017 13:05:00 -6.3 C 2.91 g/m*3 -6.3 C 1.6 km/h
1736 22-01-2017 13:10:00 -6.2 C 2.93 g/m*3 -6.2 C 3.2 km/h
1737 22-01-2017 13:15:00 -6.1 C 2.96 g/m*3 -6.1 C 3.2 km/h
1738 22-01-2017 13:20:00 -6 C 2.98 g/m*3 -6 C 1.6 km/h
1739 22-01-2017 13:25:00 -5.9 C 3 g/m*3 -5.9 C 3.2 km/h
1740 22-01-2017 13:30:00 -5.8 C 3.02 g/m*3 -5.8 C 1.6 km/h
1741 22-01-2017 13:35:00 -5.7 C 3.04 g/m*3 -5.7 C 0 km/h
1742 22-01-2017 13:40:00 -5.6 C 3.06 g/m*3 -5.6 C 1.6 km/h
1743 22-01-2017 13:45:00 -5.6 C 3.06 g/m*3 -5.6 C 3.2 km/h
1744 22-01-2017 13:50:00 -5.4 C 3.11 g/m*3 -5.4 C 3.2 km/h
1745 22-01-2017 13:55:00 -5.3 C 3.13 g/m*3 -5.3 C 1.6 km/h
1746 22-01-2017 14:00:00 -5.3 C 3.13 g/m*3 -5.3 C 1.6 km/h
1747 22-01-2017 14:05:00 -5.2 C 3.15 g/m*3 -5.2 C 3.2 km/h
1748 22-01-2017 14:10:00 -5.1 C 3.18 g/m*3 -5.1 C 3.2 km/h
1749 22-01-2017 14:15:00 -5 C 3.2 g/m*3 -5 C 3.2 km/h
1750 22-01-2017 14:20:00 -4.9 C 3.22 g/m*3 -4.9 C 3.2 km/h
Sensor: Nr:Datum:Temp:Abs-Feuchte:Windchill:Wind:
Aussen-T/F 1751 22-01-2017 14:25:00 -4.8 C 3.25 g/m*3 -4.8 C 3.2 km/h
1752 22-01-2017 14:30:00 -4.7 C 3.27 g/m*3 -4.7 C 3.2 km/h
1753 22-01-2017 14:35:00 -4.6 C 3.29 g/m*3 -4.6 C 3.2 km/h
1754 22-01-2017 14:40:00 -4.5 C 3.32 g/m*3 -4.5 C 3.2 km/h
1755 22-01-2017 14:45:00 -4.4 C 3.34 g/m*3 -4.4 C 3.2 km/h
1756 22-01-2017 14:50:00 -4.4 C 3.31 g/m*3 -4.4 C 3.2 km/h
1757 22-01-2017 14:55:00 -4.3 C 3.33 g/m*3 -4.3 C 3.2 km/h
1758 22-01-2017 15:00:00 -4.3 C 3.33 g/m*3 -4.3 C 3.2 km/h
1759 22-01-2017 15:05:00 -4.2 C 3.35 g/m*3 -4.2 C 3.2 km/h
1760 22-01-2017 15:10:00 -4.1 C 3.38 g/m*3 -4.1 C 3.2 km/h
1761 22-01-2017 15:15:00 -4.1 C 3.38 g/m*3 -4.1 C 3.2 km/h
1762 22-01-2017 15:20:00 -4 C 3.4 g/m*3 -4 C 4.8 km/h
1763 22-01-2017 15:25:00 -3.9 C 3.43 g/m*3 -3.9 C 3.2 km/h
1764 22-01-2017 15:30:00 -3.9 C 3.43 g/m*3 -3.9 C 4.8 km/h
1765 22-01-2017 15:35:00 -3.8 C 3.41 g/m*3 -3.8 C 3.2 km/h
1766 22-01-2017 15:40:00 -3.8 C 3.41 g/m*3 -3.8 C 3.2 km/h
1767 22-01-2017 15:45:00 -3.8 C 3.41 g/m*3 -3.8 C 3.2 km/h
1768 22-01-2017 15:50:00 -3.7 C 3.44 g/m*3 -3.7 C 4.8 km/h
1769 22-01-2017 15:55:00 -3.7 C 3.44 g/m*3 -3.7 C 4.8 km/h
1770 22-01-2017 16:00:00 -3.7 C 3.44 g/m*3 -3.7 C 4.8 km/h
1771 22-01-2017 16:05:00 -3.7 C 3.44 g/m*3 -3.7 C 4.8 km/h
1772 22-01-2017 16:10:00 -3.7 C 3.44 g/m*3 -3.7 C 4.8 km/h
1773 22-01-2017 16:15:00 -3.7 C 3.44 g/m*3 -3.7 C 4.8 km/h
1774 22-01-2017 16:20:00 -3.7 C 3.44 g/m*3 -3.7 C 4.8 km/h
1775 22-01-2017 16:25:00 -3.7 C 3.44 g/m*3 -3.7 C 4.8 km/h
Sensor: Nr:Datum:Temp:Abs-Feuchte:Windchill:Wind:
Aussen-T/F 1776 22-01-2017 16:30:00 -3.6 C 3.46 g/m*3 -3.6 C 4.8 km/h
1777 22-01-2017 16:35:00 -3.6 C 3.46 g/m*3 -3.6 C 4.8 km/h
1778 22-01-2017 16:40:00 -3.6 C 3.43 g/m*3 -3.6 C 4.8 km/h
1779 22-01-2017 16:45:00 -3.6 C 3.43 g/m*3 -3.6 C 4.8 km/h
1780 22-01-2017 16:50:00 -3.7 C 3.4 g/m*3 -3.7 C 4.8 km/h
1781 22-01-2017 16:55:00 -3.7 C 3.4 g/m*3 -3.7 C 4.8 km/h
1782 22-01-2017 17:00:00 -3.7 C 3.4 g/m*3 -3.7 C 4.8 km/h
1783 22-01-2017 17:05:00 -3.7 C 3.4 g/m*3 -3.7 C 3.2 km/h
1784 22-01-2017 17:10:00 -3.8 C 3.34 g/m*3 -3.8 C 0 km/h
1785 22-01-2017 17:15:00 -4 C 3.29 g/m*3 -4 C 3.2 km/h
1786 22-01-2017 17:20:00 -4.1 C 3.27 g/m*3 -4.1 C 3.2 km/h
1787 22-01-2017 17:25:00 -4.2 C 3.25 g/m*3 -4.2 C 4.8 km/h
1788 22-01-2017 17:30:00 -4.1 C 3.31 g/m*3 -4.1 C 4.8 km/h
1789 22-01-2017 17:35:00 -4.2 C 3.25 g/m*3 -4.2 C 0 km/h
1790 22-01-2017 17:40:00 -4.4 C 3.16 g/m*3 -4.4 C 0 km/h
1791 22-01-2017 17:45:00 -4.7 C 3.1 g/m*3 -4.7 C 0 km/h
1792 22-01-2017 17:50:00 -4.9 C 3.05 g/m*3 -4.9 C 1.6 km/h
1793 22-01-2017 17:55:00 -5 C 3.06 g/m*3 -5 C 0 km/h
1794 22-01-2017 18:00:00 -4.9 C 3.12 g/m*3 -4.9 C 0 km/h
1795 22-01-2017 18:05:00 -4.9 C 3.12 g/m*3 -4.9 C 0 km/h
1796 22-01-2017 18:10:00 -4.9 C 3.12 g/m*3 -4.9 C 0 km/h
1797 22-01-2017 18:15:00 -5 C 3.1 g/m*3 -5 C 1.6 km/h
1798 22-01-2017 18:20:00 -5.2 C 3.05 g/m*3 -5.2 C 1.6 km/h
1799 22-01-2017 18:25:00 -5.3 C 3.03 g/m*3 -5.3 C 3.2 km/h
1800 22-01-2017 18:30:00 -5.3 C 3.03 g/m*3 -5.3 C 3.2 km/h
Sensor: Nr:Datum:Temp:Abs-Feuchte:Windchill:Wind:
Aussen-T/F 1801 22-01-2017 18:35:00 -5.2 C 3.09 g/m*3 -5.2 C 3.2 km/h
1802 22-01-2017 18:40:00 -5.3 C 3.07 g/m*3 -5.3 C 0 km/h
1803 22-01-2017 18:45:00 -5.6 C 2.97 g/m*3 -5.6 C 0 km/h
1804 22-01-2017 18:50:00 -5.7 C 2.95 g/m*3 -5.7 C 1.6 km/h
1805 22-01-2017 18:55:00 -5.8 C 2.92 g/m*3 -5.8 C 0 km/h
1806 22-01-2017 19:00:00 -5.8 C 2.92 g/m*3 -5.8 C 0 km/h
1807 22-01-2017 19:05:00 -5.9 C 2.93 g/m*3 -5.9 C 0 km/h
1808 22-01-2017 19:10:00 -6 C 2.91 g/m*3 -6 C 0 km/h
1809 22-01-2017 19:15:00 -6.1 C 2.89 g/m*3 -6.1 C 0 km/h
1810 22-01-2017 19:20:00 -6.1 C 2.89 g/m*3 -6.1 C 0 km/h
1811 22-01-2017 19:25:00 -6.2 C 2.87 g/m*3 -6.2 C 0 km/h
1812 22-01-2017 19:30:00 -6.3 C 2.85 g/m*3 -6.3 C 0 km/h
1813 22-01-2017 19:35:00 -6.4 C 2.83 g/m*3 -6.4 C 0 km/h
1814 22-01-2017 19:40:00 -6.4 C 2.83 g/m*3 -6.4 C 1.6 km/h
1815 22-01-2017 19:45:00 -6.4 C 2.83 g/m*3 -6.4 C 0 km/h
1816 22-01-2017 19:50:00 -6.4 C 2.83 g/m*3 -6.4 C 0 km/h
1817 22-01-2017 19:55:00 -6.6 C 2.79 g/m*3 -6.6 C 0 km/h
1818 22-01-2017 20:00:00 -6.6 C 2.79 g/m*3 -6.6 C 0 km/h
1819 22-01-2017 20:05:00 -6.6 C 2.79 g/m*3 -6.6 C 0 km/h
1820 22-01-2017 20:10:00 -6.6 C 2.79 g/m*3 -6.6 C 0 km/h
1821 22-01-2017 20:15:00 -6.6 C 2.79 g/m*3 -6.6 C 0 km/h
1822 22-01-2017 20:20:00 -6.7 C 2.77 g/m*3 -6.7 C 0 km/h
1823 22-01-2017 20:25:00 -6.9 C 2.73 g/m*3 -6.9 C 0 km/h
1824 22-01-2017 20:30:00 -7 C 2.71 g/m*3 -7 C 0 km/h
1825 22-01-2017 20:35:00 -7.1 C 2.69 g/m*3 -7.1 C 0 km/h
Sensor: Nr:Datum:Temp:Abs-Feuchte:Windchill:Wind:
Aussen-T/F 1826 22-01-2017 20:40:00 -7.3 C 2.65 g/m*3 -7.3 C 0 km/h
1827 22-01-2017 20:45:00 -7.3 C 2.65 g/m*3 -7.3 C 0 km/h
1828 22-01-2017 20:50:00 -7.4 C 2.63 g/m*3 -7.4 C 0 km/h
1829 22-01-2017 20:55:00 -7.3 C 2.65 g/m*3 -7.3 C 0 km/h
1830 22-01-2017 21:00:00 -7.4 C 2.63 g/m*3 -7.4 C 0 km/h
1831 22-01-2017 21:05:00 -7.6 C 2.59 g/m*3 -7.6 C 0 km/h
1832 22-01-2017 21:10:00 -7.6 C 2.59 g/m*3 -7.6 C 0 km/h
1833 22-01-2017 21:15:00 -7.5 C 2.64 g/m*3 -7.5 C 0 km/h
1834 22-01-2017 21:20:00 -7.4 C 2.66 g/m*3 -7.4 C 0 km/h
1835 22-01-2017 21:25:00 -7.3 C 2.68 g/m*3 -7.3 C 0 km/h
1836 22-01-2017 21:30:00 -7.5 C 2.64 g/m*3 -7.5 C 0 km/h
1837 22-01-2017 21:35:00 -7.4 C 2.66 g/m*3 -7.4 C 0 km/h
1838 22-01-2017 21:40:00 -7.5 C 2.64 g/m*3 -7.5 C 0 km/h
1839 22-01-2017 21:45:00 -7.6 C 2.62 g/m*3 -7.6 C 0 km/h
1840 22-01-2017 21:50:00 -7.7 C 2.6 g/m*3 -7.7 C 0 km/h
1841 22-01-2017 21:55:00 -7.7 C 2.6 g/m*3 -7.7 C 0 km/h
1842 22-01-2017 22:00:00 -7.8 C 2.58 g/m*3 -7.8 C 0 km/h
1843 22-01-2017 22:05:00 -7.9 C 2.56 g/m*3 -7.9 C 0 km/h
1844 22-01-2017 22:10:00 -8 C 2.54 g/m*3 -8 C 0 km/h
1845 22-01-2017 22:15:00 -8.1 C 2.52 g/m*3 -8.1 C 0 km/h
1846 22-01-2017 22:20:00 -8.1 C 2.52 g/m*3 -8.1 C 0 km/h
1847 22-01-2017 22:25:00 -8.1 C 2.52 g/m*3 -8.1 C 0 km/h
1848 22-01-2017 22:30:00 -8.2 C 2.51 g/m*3 -8.2 C 0 km/h
1849 22-01-2017 22:35:00 -8.2 C 2.51 g/m*3 -8.2 C 0 km/h
1850 22-01-2017 22:40:00 -8.1 C 2.52 g/m*3 -8.1 C 0 km/h
Sensor: Nr:Datum:Temp:Abs-Feuchte:Windchill:Wind:
Aussen-T/F 1851 22-01-2017 22:45:00 -8.1 C 2.55 g/m*3 -8.1 C 0 km/h
1852 22-01-2017 22:50:00 -7.9 C 2.59 g/m*3 -7.9 C 0 km/h
1853 22-01-2017 22:55:00 -7.7 C 2.63 g/m*3 -7.7 C 3.2 km/h
1854 22-01-2017 23:00:00 -7.6 C 2.65 g/m*3 -7.6 C 0 km/h
1855 22-01-2017 23:05:00 -7.7 C 2.6 g/m*3 -7.7 C 0 km/h
1856 22-01-2017 23:10:00 -7.7 C 2.6 g/m*3 -7.7 C 0 km/h
1857 22-01-2017 23:15:00 -7.8 C 2.58 g/m*3 -7.8 C 0 km/h
1858 22-01-2017 23:20:00 -8 C 2.54 g/m*3 -8 C 0 km/h
1859 22-01-2017 23:25:00 -8.1 C 2.52 g/m*3 -8.1 C 3.2 km/h
1860 22-01-2017 23:30:00 -8.2 C 2.51 g/m*3 -8.2 C 3.2 km/h
1861 22-01-2017 23:35:00 -8.2 C 2.51 g/m*3 -8.2 C 0 km/h
1862 22-01-2017 23:40:00 -8.2 C 2.51 g/m*3 -8.2 C 0 km/h
1863 22-01-2017 23:45:00 -8.3 C 2.49 g/m*3 -8.3 C 0 km/h
1864 22-01-2017 23:50:00 -8.4 C 2.47 g/m*3 -8.4 C 0 km/h
1865 22-01-2017 23:55:00 -8.3 C 2.49 g/m*3 -8.3 C 4.8 km/h
1866 23-01-2017 00:00:00 -8.2 C 2.53 g/m*3 -8.2 C 0 km/h
1867 23-01-2017 00:05:00 -8.2 C 2.53 g/m*3 -8.2 C 0 km/h
1868 23-01-2017 00:10:00 -8.2 C 2.51 g/m*3 -8.2 C 0 km/h
1869 23-01-2017 00:15:00 -8.3 C 2.49 g/m*3 -8.3 C 1.6 km/h
1870 23-01-2017 00:20:00 -8.3 C 2.49 g/m*3 -8.3 C 0 km/h
1871 23-01-2017 00:25:00 -8.3 C 2.49 g/m*3 -8.3 C 0 km/h
1872 23-01-2017 00:30:00 -8.3 C 2.49 g/m*3 -8.3 C 0 km/h
1873 23-01-2017 00:35:00 -8.2 C 2.51 g/m*3 -8.2 C 0 km/h
1874 23-01-2017 00:40:00 -8.2 C 2.53 g/m*3 -8.2 C 0 km/h
1875 23-01-2017 00:45:00 -8.2 C 2.51 g/m*3 -8.2 C 0 km/h
Sensor: Nr:Datum:Temp:Abs-Feuchte:Windchill:Wind:
Aussen-T/F 1876 23-01-2017 00:50:00 -8.2 C 2.51 g/m*3 -8.2 C 0 km/h
1877 23-01-2017 00:55:00 -8.3 C 2.49 g/m*3 -8.3 C 0 km/h
1878 23-01-2017 01:00:00 -8.3 C 2.49 g/m*3 -8.3 C 0 km/h
1879 23-01-2017 01:05:00 -8.4 C 2.47 g/m*3 -8.4 C 0 km/h
1880 23-01-2017 01:10:00 -8.6 C 2.43 g/m*3 -8.6 C 0 km/h
1881 23-01-2017 01:15:00 -8.8 C 2.37 g/m*3 -8.8 C 0 km/h
1882 23-01-2017 01:20:00 -8.9 C 2.35 g/m*3 -8.9 C 0 km/h
1883 23-01-2017 01:25:00 -9 C 2.36 g/m*3 -9 C 0 km/h
1884 23-01-2017 01:30:00 -8.9 C 2.38 g/m*3 -8.9 C 0 km/h
1885 23-01-2017 01:35:00 -9.1 C 2.34 g/m*3 -9.1 C 0 km/h
1886 23-01-2017 01:40:00 -9.2 C 2.3 g/m*3 -9.2 C 0 km/h
1887 23-01-2017 01:45:00 -9.2 C 2.33 g/m*3 -9.2 C 0 km/h
1888 23-01-2017 01:50:00 -9.3 C 2.28 g/m*3 -9.3 C 0 km/h
1889 23-01-2017 01:55:00 -9.3 C 2.31 g/m*3 -9.3 C 0 km/h
1890 23-01-2017 02:00:00 -9.4 C 2.29 g/m*3 -9.4 C 0 km/h
1891 23-01-2017 02:05:00 -9.4 C 2.29 g/m*3 -9.4 C 0 km/h
1892 23-01-2017 02:10:00 -9.5 C 2.27 g/m*3 -9.5 C 0 km/h
1893 23-01-2017 02:15:00 -9.5 C 2.27 g/m*3 -9.5 C 0 km/h
1894 23-01-2017 02:20:00 -9.6 C 2.26 g/m*3 -9.6 C 0 km/h
1895 23-01-2017 02:25:00 -9.6 C 2.23 g/m*3 -9.6 C 0 km/h
1896 23-01-2017 02:30:00 -9.6 C 2.26 g/m*3 -9.6 C 0 km/h
1897 23-01-2017 02:35:00 -9.7 C 2.24 g/m*3 -9.7 C 0 km/h
1898 23-01-2017 02:40:00 -9.7 C 2.24 g/m*3 -9.7 C 0 km/h
1899 23-01-2017 02:45:00 -9.7 C 2.24 g/m*3 -9.7 C 0 km/h
1900 23-01-2017 02:50:00 -9.7 C 2.24 g/m*3 -9.7 C 0 km/h
Sensor: Nr:Datum:Temp:Abs-Feuchte:Windchill:Wind:
Aussen-T/F 1901 23-01-2017 02:55:00 -9.7 C 2.24 g/m*3 -9.7 C 0 km/h
1902 23-01-2017 03:00:00 -9.7 C 2.24 g/m*3 -9.7 C 0 km/h
1903 23-01-2017 03:05:00 -9.7 C 2.24 g/m*3 -9.7 C 0 km/h
1904 23-01-2017 03:10:00 -9.8 C 2.22 g/m*3 -9.8 C 0 km/h
1905 23-01-2017 03:15:00 -9.8 C 2.22 g/m*3 -9.8 C 0 km/h
1906 23-01-2017 03:20:00 -9.9 C 2.21 g/m*3 -9.9 C 0 km/h
1907 23-01-2017 03:25:00 -9.9 C 2.21 g/m*3 -9.9 C 0 km/h
1908 23-01-2017 03:30:00 -9.9 C 2.21 g/m*3 -9.9 C 0 km/h
1909 23-01-2017 03:35:00 -10 C 2.19 g/m*3 -10 C 0 km/h
1910 23-01-2017 03:40:00 -10.1 C 2.15 g/m*3 -10.1 C 0 km/h
1911 23-01-2017 03:45:00 -9.9 C 2.21 g/m*3 -9.9 C 0 km/h
1912 23-01-2017 03:50:00 -9.7 C 2.24 g/m*3 -9.7 C 0 km/h
1913 23-01-2017 03:55:00 -9.6 C 2.26 g/m*3 -9.6 C 0 km/h
1914 23-01-2017 04:00:00 -9.5 C 2.27 g/m*3 -9.5 C 0 km/h
1915 23-01-2017 04:05:00 -9.5 C 2.27 g/m*3 -9.5 C 0 km/h
1916 23-01-2017 04:10:00 -9.5 C 2.27 g/m*3 -9.5 C 0 km/h
1917 23-01-2017 04:15:00 -9.5 C 2.27 g/m*3 -9.5 C 0 km/h
1918 23-01-2017 04:20:00 -9.6 C 2.26 g/m*3 -9.6 C 0 km/h
1919 23-01-2017 04:25:00 -9.6 C 2.26 g/m*3 -9.6 C 0 km/h
1920 23-01-2017 04:30:00 -9.6 C 2.26 g/m*3 -9.6 C 0 km/h
1921 23-01-2017 04:35:00 -9.6 C 2.26 g/m*3 -9.6 C 0 km/h
1922 23-01-2017 04:40:00 -9.6 C 2.26 g/m*3 -9.6 C 0 km/h
1923 23-01-2017 04:45:00 -9.7 C 2.24 g/m*3 -9.7 C 0 km/h
1924 23-01-2017 04:50:00 -9.7 C 2.24 g/m*3 -9.7 C 0 km/h
1925 23-01-2017 04:55:00 -9.8 C 2.22 g/m*3 -9.8 C 0 km/h
Sensor: Nr:Datum:Temp:Abs-Feuchte:Windchill:Wind:
Aussen-T/F 1926 23-01-2017 05:00:00 -9.8 C 2.22 g/m*3 -9.8 C 0 km/h
1927 23-01-2017 05:05:00 -9.9 C 2.18 g/m*3 -9.9 C 0 km/h
1928 23-01-2017 05:10:00 -10.1 C 2.15 g/m*3 -10.1 C 0 km/h
1929 23-01-2017 05:15:00 -10.1 C 2.15 g/m*3 -10.1 C 0 km/h
1930 23-01-2017 05:20:00 -10.1 C 2.15 g/m*3 -10.1 C 0 km/h
1931 23-01-2017 05:25:00 -10.1 C 2.15 g/m*3 -10.1 C 0 km/h
1932 23-01-2017 05:30:00 -10.2 C 2.13 g/m*3 -10.2 C 0 km/h
1933 23-01-2017 05:35:00 -10.3 C 2.12 g/m*3 -10.3 C 0 km/h
1934 23-01-2017 05:40:00 -10.3 C 2.12 g/m*3 -10.3 C 0 km/h
1935 23-01-2017 05:45:00 -10.4 C 2.1 g/m*3 -10.4 C 0 km/h
1936 23-01-2017 05:50:00 -10.5 C 2.09 g/m*3 -10.5 C 0 km/h
1937 23-01-2017 05:55:00 -10.5 C 2.09 g/m*3 -10.5 C 0 km/h
1938 23-01-2017 06:00:00 -10.4 C 2.1 g/m*3 -10.4 C 0 km/h
1939 23-01-2017 06:05:00 -10.3 C 2.14 g/m*3 -10.3 C 1.6 km/h
1940 23-01-2017 06:10:00 -10.2 C 2.16 g/m*3 -10.2 C 0 km/h
1941 23-01-2017 06:15:00 -10.2 C 2.16 g/m*3 -10.2 C 0 km/h
1942 23-01-2017 06:20:00 -10.2 C 2.16 g/m*3 -10.2 C 0 km/h
1943 23-01-2017 06:25:00 -10.2 C 2.13 g/m*3 -10.2 C 0 km/h
1944 23-01-2017 06:30:00 -10.3 C 2.12 g/m*3 -10.3 C 0 km/h
1945 23-01-2017 06:35:00 -10.3 C 2.12 g/m*3 -10.3 C 0 km/h
1946 23-01-2017 06:40:00 -10.2 C 2.16 g/m*3 -10.2 C 0 km/h
1947 23-01-2017 06:45:00 -10.2 C 2.16 g/m*3 -10.2 C 0 km/h
1948 23-01-2017 06:50:00 -10.2 C 2.16 g/m*3 -10.2 C 3.2 km/h
1949 23-01-2017 06:55:00 -10 C 2.19 g/m*3 -10 C 0 km/h
1950 23-01-2017 07:00:00 -9.9 C 2.21 g/m*3 -9.9 C 0 km/h
Sensor: Nr:Datum:Temp:Abs-Feuchte:Windchill:Wind:
Aussen-T/F 1951 23-01-2017 07:05:00 -9.7 C 2.24 g/m*3 -9.7 C 1.6 km/h
1952 23-01-2017 07:10:00 -9.6 C 2.26 g/m*3 -9.6 C 1.6 km/h
1953 23-01-2017 07:15:00 -9.4 C 2.29 g/m*3 -9.4 C 0 km/h
1954 23-01-2017 07:20:00 -9.3 C 2.31 g/m*3 -9.3 C 3.2 km/h
1955 23-01-2017 07:25:00 -9.2 C 2.33 g/m*3 -9.2 C 1.6 km/h
1956 23-01-2017 07:30:00 -9.1 C 2.34 g/m*3 -9.1 C 1.6 km/h
1957 23-01-2017 07:35:00 -9 C 2.36 g/m*3 -9 C 0 km/h
1958 23-01-2017 07:40:00 -8.9 C 2.38 g/m*3 -8.9 C 3.2 km/h
1959 23-01-2017 07:45:00 -8.8 C 2.4 g/m*3 -8.8 C 0 km/h
1960 23-01-2017 07:50:00 -8.7 C 2.41 g/m*3 -8.7 C 1.6 km/h
1961 23-01-2017 07:55:00 -8.7 C 2.41 g/m*3 -8.7 C 1.6 km/h
1962 23-01-2017 08:00:00 -8.6 C 2.43 g/m*3 -8.6 C 0 km/h
1963 23-01-2017 08:05:00 -8.6 C 2.43 g/m*3 -8.6 C 0 km/h
1964 23-01-2017 08:10:00 -8.5 C 2.45 g/m*3 -8.5 C 0 km/h
1965 23-01-2017 08:15:00 -8.4 C 2.47 g/m*3 -8.4 C 1.6 km/h
1966 23-01-2017 08:20:00 -8.4 C 2.47 g/m*3 -8.4 C 0 km/h
1967 23-01-2017 08:25:00 -8.3 C 2.49 g/m*3 -8.3 C 0 km/h
1968 23-01-2017 08:30:00 -8.3 C 2.49 g/m*3 -8.3 C 0 km/h
1969 23-01-2017 08:35:00 -8.2 C 2.51 g/m*3 -8.2 C 0 km/h
1970 23-01-2017 08:40:00 -8.2 C 2.51 g/m*3 -8.2 C 0 km/h
1971 23-01-2017 08:45:00 -8.1 C 2.52 g/m*3 -8.1 C 0 km/h
1972 23-01-2017 08:50:00 -8 C 2.54 g/m*3 -8 C 3.2 km/h
1973 23-01-2017 08:55:00 -7.9 C 2.56 g/m*3 -7.9 C 1.6 km/h
1974 23-01-2017 09:00:00 -7.9 C 2.56 g/m*3 -7.9 C 3.2 km/h
1975 23-01-2017 09:05:00 -7.8 C 2.58 g/m*3 -7.8 C 1.6 km/h
Sensor: Nr:Datum:Temp:Abs-Feuchte:Windchill:Wind:
Aussen-T/F 1976 23-01-2017 09:10:00 -7.8 C 2.58 g/m*3 -7.8 C 3.2 km/h
1977 23-01-2017 09:15:00 -7.7 C 2.6 g/m*3 -7.7 C 1.6 km/h
1978 23-01-2017 09:20:00 -7.7 C 2.6 g/m*3 -7.7 C 3.2 km/h
1979 23-01-2017 09:25:00 -7.6 C 2.62 g/m*3 -7.6 C 3.2 km/h
1980 23-01-2017 09:30:00 -7.6 C 2.62 g/m*3 -7.6 C 3.2 km/h
1981 23-01-2017 09:35:00 -7.5 C 2.64 g/m*3 -7.5 C 1.6 km/h
1982 23-01-2017 09:40:00 -7.4 C 2.66 g/m*3 -7.4 C 0 km/h
1983 23-01-2017 09:45:00 -7.4 C 2.66 g/m*3 -7.4 C 0 km/h
1984 23-01-2017 09:50:00 -7.3 C 2.68 g/m*3 -7.3 C 0 km/h
1985 23-01-2017 09:55:00 -7.2 C 2.7 g/m*3 -7.2 C 0 km/h
1986 23-01-2017 10:00:00 -7.1 C 2.72 g/m*3 -7.1 C 0 km/h
1987 23-01-2017 10:05:00 -7 C 2.74 g/m*3 -7 C 0 km/h
1988 23-01-2017 10:10:00 -6.9 C 2.76 g/m*3 -6.9 C 0 km/h
1989 23-01-2017 10:15:00 -6.8 C 2.78 g/m*3 -6.8 C 0 km/h
1990 23-01-2017 10:20:00 -6.7 C 2.8 g/m*3 -6.7 C 0 km/h
1991 23-01-2017 10:25:00 -6.7 C 2.8 g/m*3 -6.7 C 0 km/h
1992 23-01-2017 10:30:00 -6.6 C 2.82 g/m*3 -6.6 C 1.6 km/h
1993 23-01-2017 10:35:00 -6.5 C 2.84 g/m*3 -6.5 C 0 km/h
1994 23-01-2017 10:40:00 -6.4 C 2.86 g/m*3 -6.4 C 0 km/h
1995 23-01-2017 10:45:00 -6.3 C 2.88 g/m*3 -6.3 C 0 km/h
1996 23-01-2017 10:50:00 -6.2 C 2.9 g/m*3 -6.2 C 0 km/h
1997 23-01-2017 10:55:00 -6.2 C 2.9 g/m*3 -6.2 C 0 km/h
1998 23-01-2017 11:00:00 -6.1 C 2.92 g/m*3 -6.1 C 0 km/h
1999 23-01-2017 11:05:00 -5.9 C 2.97 g/m*3 -5.9 C 0 km/h
2000 23-01-2017 11:10:00 -5.8 C 2.99 g/m*3 -5.8 C 0 km/h
Sensor: Nr:Datum:Temp:Abs-Feuchte:Windchill:Wind:
Aussen-T/F 2001 23-01-2017 11:15:00 -5.7 C 3.01 g/m*3 -5.7 C 1.6 km/h
2002 23-01-2017 11:20:00 -5.6 C 3.03 g/m*3 -5.6 C 0 km/h
2003 23-01-2017 11:25:00 -5.5 C 3.05 g/m*3 -5.5 C 0 km/h
2004 23-01-2017 11:30:00 -5.4 C 3.08 g/m*3 -5.4 C 0 km/h
2005 23-01-2017 11:35:00 -5.3 C 3.1 g/m*3 -5.3 C 0 km/h
2006 23-01-2017 11:40:00 -5.3 C 3.1 g/m*3 -5.3 C 0 km/h
2007 23-01-2017 11:45:00 -5.2 C 3.12 g/m*3 -5.2 C 1.6 km/h
2008 23-01-2017 11:50:00 -5.2 C 3.12 g/m*3 -5.2 C 1.6 km/h
2009 23-01-2017 11:55:00 -5.2 C 3.09 g/m*3 -5.2 C 1.6 km/h
2010 23-01-2017 12:00:00 -5.1 C 3.14 g/m*3 -5.1 C 0 km/h
2011 23-01-2017 12:05:00 -5 C 3.17 g/m*3 -5 C 0 km/h
2012 23-01-2017 12:10:00 -5 C 3.17 g/m*3 -5 C 0 km/h
2013 23-01-2017 12:15:00 -4.9 C 3.16 g/m*3 -4.9 C 0 km/h
2014 23-01-2017 12:20:00 -4.9 C 3.16 g/m*3 -4.9 C 0 km/h
2015 23-01-2017 12:25:00 -4.9 C 3.16 g/m*3 -4.9 C 0 km/h
2016 23-01-2017 12:30:00 -4.8 C 3.18 g/m*3 -4.8 C 0 km/h
2017 23-01-2017 12:35:00 -4.7 C 3.2 g/m*3 -4.7 C 0 km/h
2018 23-01-2017 12:40:00 -4.7 C 3.2 g/m*3 -4.7 C 0 km/h
2019 23-01-2017 12:45:00 -4.6 C 3.26 g/m*3 -4.6 C 0 km/h
2020 23-01-2017 12:50:00 -4.5 C 3.25 g/m*3 -4.5 C 1.6 km/h
2021 23-01-2017 12:55:00 -4.4 C 3.27 g/m*3 -4.4 C 1.6 km/h
2022 23-01-2017 13:00:00 -4.3 C 3.29 g/m*3 -4.3 C 0 km/h
2023 23-01-2017 13:05:00 -4.2 C 3.35 g/m*3 -4.2 C 1.6 km/h
2024 23-01-2017 13:10:00 -4.2 C 3.35 g/m*3 -4.2 C 1.6 km/h
2025 23-01-2017 13:15:00 -4.1 C 3.34 g/m*3 -4.1 C 0 km/h
Sensor: Nr:Datum:Temp:Abs-Feuchte:Windchill:Wind:
Aussen-T/F 2026 23-01-2017 13:20:00 -4 C 3.4 g/m*3 -4 C 0 km/h
2027 23-01-2017 13:25:00 -3.8 C 3.45 g/m*3 -3.8 C 0 km/h
2028 23-01-2017 13:30:00 -3.7 C 3.48 g/m*3 -3.7 C 0 km/h
2029 23-01-2017 13:35:00 -3.5 C 3.53 g/m*3 -3.5 C 1.6 km/h
2030 23-01-2017 13:40:00 -3.3 C 3.61 g/m*3 -3.3 C 0 km/h
2031 23-01-2017 13:45:00 -3.2 C 3.6 g/m*3 -3.2 C 3.2 km/h
2032 23-01-2017 13:50:00 -3.1 C 3.63 g/m*3 -3.1 C 0 km/h
2033 23-01-2017 13:55:00 -3.1 C 3.63 g/m*3 -3.1 C 0 km/h
2034 23-01-2017 14:00:00 -2.9 C 3.68 g/m*3 -2.9 C 3.2 km/h
2035 23-01-2017 14:05:00 -2.9 C 3.68 g/m*3 -2.9 C 3.2 km/h
2036 23-01-2017 14:10:00 -2.8 C 3.71 g/m*3 -2.8 C 1.6 km/h
2037 23-01-2017 14:15:00 -2.8 C 3.71 g/m*3 -2.8 C 3.2 km/h
2038 23-01-2017 14:20:00 -2.8 C 3.67 g/m*3 -2.8 C 1.6 km/h
2039 23-01-2017 14:25:00 -2.8 C 3.67 g/m*3 -2.8 C 1.6 km/h
2040 23-01-2017 14:30:00 -2.8 C 3.67 g/m*3 -2.8 C 1.6 km/h
2041 23-01-2017 14:35:00 -2.8 C 3.67 g/m*3 -2.8 C 0 km/h
2042 23-01-2017 14:40:00 -2.7 C 3.73 g/m*3 -2.7 C 0 km/h
2043 23-01-2017 14:45:00 -2.7 C 3.73 g/m*3 -2.7 C 0 km/h
2044 23-01-2017 14:50:00 -2.6 C 3.76 g/m*3 -2.6 C 0 km/h
2045 23-01-2017 14:55:00 -2.6 C 3.76 g/m*3 -2.6 C 0 km/h
2046 23-01-2017 15:00:00 -2.5 C 3.78 g/m*3 -2.5 C 0 km/h
2047 23-01-2017 15:05:00 -2.4 C 3.81 g/m*3 -2.4 C 0 km/h
2048 23-01-2017 15:10:00 -2.4 C 3.81 g/m*3 -2.4 C 0 km/h
2049 23-01-2017 15:15:00 -2.3 C 3.84 g/m*3 -2.3 C 0 km/h
2050 23-01-2017 15:20:00 -2.3 C 3.84 g/m*3 -2.3 C 0 km/h
Sensor: Nr:Datum:Temp:Abs-Feuchte:Windchill:Wind:
Aussen-T/F 2051 23-01-2017 15:25:00 -2.3 C 3.84 g/m*3 -2.3 C 0 km/h
2052 23-01-2017 15:30:00 -2.2 C 3.82 g/m*3 -2.2 C 0 km/h
2053 23-01-2017 15:35:00 -2.2 C 3.82 g/m*3 -2.2 C 0 km/h
2054 23-01-2017 15:40:00 -2.1 C 3.85 g/m*3 -2.1 C 0 km/h
2055 23-01-2017 15:45:00 -2.1 C 3.85 g/m*3 -2.1 C 0 km/h
2056 23-01-2017 15:50:00 -2.1 C 3.85 g/m*3 -2.1 C 0 km/h
2057 23-01-2017 15:55:00 -2.1 C 3.85 g/m*3 -2.1 C 0 km/h
2058 23-01-2017 16:00:00 -2.1 C 3.85 g/m*3 -2.1 C 0 km/h
2059 23-01-2017 16:05:00 -2.1 C 3.85 g/m*3 -2.1 C 0 km/h
2060 23-01-2017 16:10:00 -2 C 3.88 g/m*3 -2 C 0 km/h
2061 23-01-2017 16:15:00 -2 C 3.88 g/m*3 -2 C 0 km/h
2062 23-01-2017 16:20:00 -1.9 C 3.91 g/m*3 -1.9 C 0 km/h
2063 23-01-2017 16:25:00 -1.9 C 3.91 g/m*3 -1.9 C 0 km/h
2064 23-01-2017 16:30:00 -1.9 C 3.91 g/m*3 -1.9 C 0 km/h
2065 23-01-2017 16:35:00 -1.9 C 3.91 g/m*3 -1.9 C 0 km/h
2066 23-01-2017 16:40:00 -1.9 C 3.91 g/m*3 -1.9 C 0 km/h
2067 23-01-2017 16:45:00 -1.9 C 3.91 g/m*3 -1.9 C 0 km/h
2068 23-01-2017 16:50:00 -1.8 C 3.93 g/m*3 -1.8 C 0 km/h
2069 23-01-2017 16:55:00 -1.8 C 3.93 g/m*3 -1.8 C 0 km/h
2070 23-01-2017 17:00:00 -1.8 C 3.98 g/m*3 -1.8 C 0 km/h
2071 23-01-2017 17:05:00 -1.8 C 3.98 g/m*3 -1.8 C 0 km/h
2072 23-01-2017 17:10:00 -1.8 C 3.98 g/m*3 -1.8 C 0 km/h
2073 23-01-2017 17:15:00 -1.8 C 3.98 g/m*3 -1.8 C 0 km/h
2074 23-01-2017 17:20:00 -1.8 C 3.98 g/m*3 -1.8 C 0 km/h
2075 23-01-2017 17:25:00 -1.8 C 3.98 g/m*3 -1.8 C 0 km/h
Sensor: Nr:Datum:Temp:Abs-Feuchte:Windchill:Wind:
Aussen-T/F 2076 23-01-2017 17:30:00 -1.8 C 3.98 g/m*3 -1.8 C 0 km/h
2077 23-01-2017 17:35:00 -1.8 C 3.98 g/m*3 -1.8 C 0 km/h
2078 23-01-2017 17:40:00 -1.8 C 3.98 g/m*3 -1.8 C 0 km/h
2079 23-01-2017 17:45:00 -1.8 C 3.98 g/m*3 -1.8 C 0 km/h
2080 23-01-2017 17:50:00 -1.8 C 3.98 g/m*3 -1.8 C 1.6 km/h
2081 23-01-2017 17:55:00 -1.9 C 3.95 g/m*3 -1.9 C 0 km/h
2082 23-01-2017 18:00:00 -1.9 C 3.95 g/m*3 -1.9 C 0 km/h
2083 23-01-2017 18:05:00 -1.9 C 3.95 g/m*3 -1.9 C 0 km/h
2084 23-01-2017 18:10:00 -1.9 C 3.95 g/m*3 -1.9 C 0 km/h
2085 23-01-2017 18:15:00 -1.9 C 3.95 g/m*3 -1.9 C 0 km/h
2086 23-01-2017 18:20:00 -1.9 C 3.95 g/m*3 -1.9 C 0 km/h
2087 23-01-2017 18:25:00 -1.9 C 3.95 g/m*3 -1.9 C 0 km/h
2088 23-01-2017 18:30:00 -1.9 C 3.95 g/m*3 -1.9 C 0 km/h
2089 23-01-2017 18:35:00 -1.8 C 3.98 g/m*3 -1.8 C 1.6 km/h
2090 23-01-2017 18:40:00 -1.8 C 3.98 g/m*3 -1.8 C 0 km/h
2091 23-01-2017 18:45:00 -1.8 C 3.98 g/m*3 -1.8 C 0 km/h
2092 23-01-2017 18:50:00 -1.8 C 3.98 g/m*3 -1.8 C 0 km/h
2093 23-01-2017 18:55:00 -1.8 C 3.98 g/m*3 -1.8 C 1.6 km/h
2094 23-01-2017 19:00:00 -1.8 C 3.98 g/m*3 -1.8 C 1.6 km/h
2095 23-01-2017 19:05:00 -1.7 C 4 g/m*3 -1.7 C 3.2 km/h
2096 23-01-2017 19:10:00 -1.7 C 4 g/m*3 -1.7 C 0 km/h
2097 23-01-2017 19:15:00 -1.7 C 4 g/m*3 -1.7 C 1.6 km/h
2098 23-01-2017 19:20:00 -1.7 C 4 g/m*3 -1.7 C 0 km/h
2099 23-01-2017 19:25:00 -1.7 C 4 g/m*3 -1.7 C 0 km/h
2100 23-01-2017 19:30:00 -1.7 C 4 g/m*3 -1.7 C 0 km/h
Sensor: Nr:Datum:Temp:Abs-Feuchte:Windchill:Wind:
Aussen-T/F 2101 23-01-2017 19:35:00 -1.7 C 4 g/m*3 -1.7 C 0 km/h
2102 23-01-2017 19:40:00 -1.7 C 4 g/m*3 -1.7 C 0 km/h
2103 23-01-2017 19:45:00 -1.7 C 4.05 g/m*3 -1.7 C 0 km/h
2104 23-01-2017 19:50:00 -1.7 C 4.05 g/m*3 -1.7 C 1.6 km/h
2105 23-01-2017 19:55:00 -1.6 C 4.07 g/m*3 -1.6 C 1.6 km/h
2106 23-01-2017 20:00:00 -1.6 C 4.07 g/m*3 -1.6 C 1.6 km/h
2107 23-01-2017 20:05:00 -1.6 C 4.07 g/m*3 -1.6 C 1.6 km/h
2108 23-01-2017 20:10:00 -1.5 C 4.1 g/m*3 -1.5 C 0 km/h
2109 23-01-2017 20:15:00 -1.5 C 4.1 g/m*3 -1.5 C 1.6 km/h
2110 23-01-2017 20:20:00 -1.4 C 4.13 g/m*3 -1.4 C 3.2 km/h
2111 23-01-2017 20:25:00 -1.4 C 4.13 g/m*3 -1.4 C 3.2 km/h
2112 23-01-2017 20:30:00 -1.4 C 4.13 g/m*3 -1.4 C 3.2 km/h
2113 23-01-2017 20:35:00 -1.4 C 4.13 g/m*3 -1.4 C 0 km/h
2114 23-01-2017 20:40:00 -1.4 C 4.13 g/m*3 -1.4 C 1.6 km/h
2115 23-01-2017 20:45:00 -1.3 C 4.16 g/m*3 -1.3 C 3.2 km/h
2116 23-01-2017 20:50:00 -1.3 C 4.16 g/m*3 -1.3 C 1.6 km/h
2117 23-01-2017 20:55:00 -1.3 C 4.16 g/m*3 -1.3 C 3.2 km/h
2118 23-01-2017 21:00:00 -1.3 C 4.16 g/m*3 -1.3 C 4.8 km/h
2119 23-01-2017 21:05:00 -1.3 C 4.16 g/m*3 -4.3 C 8.1 km/h
2120 23-01-2017 21:10:00 -1.3 C 4.16 g/m*3 -4.3 C 8.1 km/h
2121 23-01-2017 21:15:00 -1.3 C 4.16 g/m*3 -1.3 C 1.6 km/h
2122 23-01-2017 21:20:00 -1.3 C 4.16 g/m*3 -1.3 C 0 km/h
2123 23-01-2017 21:25:00 -1.3 C 4.16 g/m*3 -1.3 C 0 km/h
2124 23-01-2017 21:30:00 -1.3 C 4.16 g/m*3 -1.3 C 0 km/h
2125 23-01-2017 21:35:00 -1.3 C 4.16 g/m*3 -1.3 C 0 km/h
Sensor: Nr:Datum:Temp:Abs-Feuchte:Windchill:Wind:
Aussen-T/F 2126 23-01-2017 21:40:00 -1.3 C 4.16 g/m*3 -1.3 C 1.6 km/h
2127 23-01-2017 21:45:00 -1.3 C 4.16 g/m*3 -1.3 C 0 km/h
2128 23-01-2017 21:50:00 -1.3 C 4.16 g/m*3 -1.3 C 0 km/h
2129 23-01-2017 21:55:00 -1.3 C 4.16 g/m*3 -1.3 C 0 km/h
2130 23-01-2017 22:00:00 -1.3 C 4.16 g/m*3 -1.3 C 3.2 km/h
2131 23-01-2017 22:05:00 -1.3 C 4.16 g/m*3 -1.3 C 1.6 km/h
2132 23-01-2017 22:10:00 -1.3 C 4.16 g/m*3 -1.3 C 1.6 km/h
2133 23-01-2017 22:15:00 -1.3 C 4.16 g/m*3 -1.3 C 0 km/h
2134 23-01-2017 22:20:00 -1.3 C 4.16 g/m*3 -1.3 C 1.6 km/h
2135 23-01-2017 22:25:00 -1.3 C 4.16 g/m*3 -1.3 C 1.6 km/h
2136 23-01-2017 22:30:00 -1.3 C 4.16 g/m*3 -1.3 C 1.6 km/h
2137 23-01-2017 22:35:00 -1.3 C 4.16 g/m*3 -1.3 C 0 km/h
2138 23-01-2017 22:40:00 -1.3 C 4.16 g/m*3 -1.3 C 0 km/h
2139 23-01-2017 22:45:00 -1.3 C 4.16 g/m*3 -1.3 C 0 km/h
2140 23-01-2017 22:50:00 -1.3 C 4.16 g/m*3 -1.3 C 0 km/h
2141 23-01-2017 22:55:00 -1.3 C 4.16 g/m*3 -1.3 C 0 km/h
2142 23-01-2017 23:00:00 -1.3 C 4.16 g/m*3 -1.3 C 0 km/h
2143 23-01-2017 23:05:00 -1.3 C 4.16 g/m*3 -1.3 C 0 km/h
2144 23-01-2017 23:10:00 -1.3 C 4.16 g/m*3 -1.3 C 0 km/h
2145 23-01-2017 23:15:00 -1.3 C 4.16 g/m*3 -1.3 C 0 km/h
2146 23-01-2017 23:20:00 -1.3 C 4.16 g/m*3 -1.3 C 0 km/h
2147 23-01-2017 23:25:00 -1.3 C 4.16 g/m*3 -1.3 C 0 km/h
2148 23-01-2017 23:30:00 -1.3 C 4.16 g/m*3 -1.3 C 0 km/h
2149 23-01-2017 23:35:00 -1.3 C 4.16 g/m*3 -1.3 C 0 km/h
2150 23-01-2017 23:40:00 -1.3 C 4.16 g/m*3 -1.3 C 1.6 km/h
Sensor: Nr:Datum:Temp:Abs-Feuchte:Windchill:Wind:
Aussen-T/F 2151 23-01-2017 23:45:00 -1.3 C 4.16 g/m*3 -1.3 C 0 km/h
2152 23-01-2017 23:50:00 -1.4 C 4.13 g/m*3 -1.4 C 0 km/h
2153 23-01-2017 23:55:00 -1.4 C 4.13 g/m*3 -1.4 C 0 km/h
2154 24-01-2017 00:00:00 -1.4 C 4.13 g/m*3 -1.4 C 0 km/h
2155 24-01-2017 00:05:00 -1.4 C 4.13 g/m*3 -1.4 C 0 km/h
2156 24-01-2017 00:10:00 -1.4 C 4.13 g/m*3 -1.4 C 0 km/h
2157 24-01-2017 00:15:00 -1.4 C 4.13 g/m*3 -1.4 C 0 km/h
2158 24-01-2017 00:20:00 -1.4 C 4.13 g/m*3 -1.4 C 0 km/h
2159 24-01-2017 00:25:00 -1.4 C 4.13 g/m*3 -1.4 C 0 km/h
2160 24-01-2017 00:30:00 -1.4 C 4.13 g/m*3 -1.4 C 0 km/h
2161 24-01-2017 00:35:00 -1.4 C 4.13 g/m*3 -1.4 C 0 km/h
2162 24-01-2017 00:40:00 -1.4 C 4.13 g/m*3 -1.4 C 0 km/h
2163 24-01-2017 00:45:00 -1.4 C 4.13 g/m*3 -1.4 C 0 km/h
2164 24-01-2017 00:50:00 -1.4 C 4.13 g/m*3 -1.4 C 0 km/h
2165 24-01-2017 00:55:00 -1.4 C 4.13 g/m*3 -1.4 C 0 km/h
2166 24-01-2017 01:00:00 -1.4 C 4.13 g/m*3 -1.4 C 0 km/h
2167 24-01-2017 01:05:00 -1.4 C 4.13 g/m*3 -1.4 C 0 km/h
2168 24-01-2017 01:10:00 -1.4 C 4.13 g/m*3 -1.4 C 0 km/h
2169 24-01-2017 01:15:00 -1.4 C 4.13 g/m*3 -1.4 C 0 km/h
2170 24-01-2017 01:20:00 -1.5 C 4.1 g/m*3 -1.5 C 0 km/h
2171 24-01-2017 01:25:00 -1.5 C 4.06 g/m*3 -1.5 C 0 km/h
2172 24-01-2017 01:30:00 -1.5 C 4.06 g/m*3 -1.5 C 0 km/h
2173 24-01-2017 01:35:00 -1.5 C 4.06 g/m*3 -1.5 C 0 km/h
2174 24-01-2017 01:40:00 -1.6 C 4.03 g/m*3 -1.6 C 0 km/h
2175 24-01-2017 01:45:00 -1.6 C 4.03 g/m*3 -1.6 C 0 km/h
Sensor: Nr:Datum:Temp:Abs-Feuchte:Windchill:Wind:
Aussen-T/F 2176 24-01-2017 01:50:00 -1.6 C 4.03 g/m*3 -1.6 C 0 km/h
2177 24-01-2017 01:55:00 -1.6 C 4.03 g/m*3 -1.6 C 0 km/h
2178 24-01-2017 02:00:00 -1.6 C 4.03 g/m*3 -1.6 C 1.6 km/h
2179 24-01-2017 02:05:00 -1.6 C 4.03 g/m*3 -1.6 C 0 km/h
2180 24-01-2017 02:10:00 -1.6 C 4.03 g/m*3 -1.6 C 0 km/h
2181 24-01-2017 02:15:00 -1.6 C 4.03 g/m*3 -1.6 C 0 km/h
2182 24-01-2017 02:20:00 -1.6 C 4.03 g/m*3 -1.6 C 0 km/h
2183 24-01-2017 02:25:00 -1.6 C 4.03 g/m*3 -1.6 C 0 km/h
2184 24-01-2017 02:30:00 -1.6 C 4.03 g/m*3 -1.6 C 1.6 km/h
2185 24-01-2017 02:35:00 -1.7 C 4 g/m*3 -1.7 C 0 km/h
2186 24-01-2017 02:40:00 -1.7 C 4 g/m*3 -1.7 C 0 km/h
2187 24-01-2017 02:45:00 -1.7 C 4 g/m*3 -1.7 C 0 km/h
2188 24-01-2017 02:50:00 -1.7 C 4 g/m*3 -1.7 C 1.6 km/h
2189 24-01-2017 02:55:00 -1.7 C 4 g/m*3 -1.7 C 0 km/h
2190 24-01-2017 03:00:00 -1.7 C 4 g/m*3 -1.7 C 0 km/h
2191 24-01-2017 03:05:00 -1.7 C 4 g/m*3 -1.7 C 0 km/h
2192 24-01-2017 03:10:00 -1.7 C 4 g/m*3 -1.7 C 0 km/h
2193 24-01-2017 03:15:00 -1.7 C 4 g/m*3 -1.7 C 0 km/h
2194 24-01-2017 03:20:00 -1.7 C 4 g/m*3 -1.7 C 0 km/h
2195 24-01-2017 03:25:00 -1.7 C 4 g/m*3 -1.7 C 0 km/h
2196 24-01-2017 03:30:00 -1.7 C 4 g/m*3 -1.7 C 0 km/h
2197 24-01-2017 03:35:00 -1.7 C 4 g/m*3 -1.7 C 0 km/h
2198 24-01-2017 03:40:00 -1.7 C 4 g/m*3 -1.7 C 0 km/h
2199 24-01-2017 03:45:00 -1.7 C 4 g/m*3 -1.7 C 0 km/h
2200 24-01-2017 03:50:00 -1.7 C 4 g/m*3 -1.7 C 0 km/h
Sensor: Nr:Datum:Temp:Abs-Feuchte:Windchill:Wind:
Aussen-T/F 2201 24-01-2017 03:55:00 -1.7 C 4 g/m*3 -1.7 C 0 km/h
2202 24-01-2017 04:00:00 -1.8 C 3.98 g/m*3 -1.8 C 0 km/h
2203 24-01-2017 04:05:00 -1.8 C 3.98 g/m*3 -1.8 C 0 km/h
2204 24-01-2017 04:10:00 -1.8 C 3.98 g/m*3 -1.8 C 0 km/h
2205 24-01-2017 04:15:00 -1.8 C 3.98 g/m*3 -1.8 C 0 km/h
2206 24-01-2017 04:20:00 -1.8 C 3.98 g/m*3 -1.8 C 0 km/h
2207 24-01-2017 04:25:00 -1.8 C 3.98 g/m*3 -1.8 C 0 km/h
2208 24-01-2017 04:30:00 -1.8 C 3.98 g/m*3 -1.8 C 0 km/h
2209 24-01-2017 04:35:00 -1.8 C 3.98 g/m*3 -1.8 C 0 km/h
2210 24-01-2017 04:40:00 -1.9 C 3.95 g/m*3 -1.9 C 0 km/h
2211 24-01-2017 04:45:00 -1.9 C 3.95 g/m*3 -1.9 C 0 km/h
2212 24-01-2017 04:50:00 -1.9 C 3.95 g/m*3 -1.9 C 0 km/h
2213 24-01-2017 04:55:00 -1.9 C 3.95 g/m*3 -1.9 C 0 km/h
2214 24-01-2017 05:00:00 -1.9 C 3.95 g/m*3 -1.9 C 0 km/h
2215 24-01-2017 05:05:00 -1.9 C 3.95 g/m*3 -1.9 C 0 km/h
2216 24-01-2017 05:10:00 -1.9 C 3.95 g/m*3 -1.9 C 0 km/h
2217 24-01-2017 05:15:00 -1.9 C 3.95 g/m*3 -1.9 C 0 km/h
2218 24-01-2017 05:20:00 -1.9 C 3.95 g/m*3 -1.9 C 0 km/h
2219 24-01-2017 05:25:00 -1.9 C 3.99 g/m*3 -1.9 C 0 km/h
2220 24-01-2017 05:30:00 -1.9 C 3.99 g/m*3 -1.9 C 0 km/h
2221 24-01-2017 05:35:00 -1.9 C 3.99 g/m*3 -1.9 C 0 km/h
2222 24-01-2017 05:40:00 -1.9 C 3.99 g/m*3 -1.9 C 0 km/h
2223 24-01-2017 05:45:00 -1.9 C 3.99 g/m*3 -1.9 C 0 km/h
2224 24-01-2017 05:50:00 -1.9 C 3.99 g/m*3 -1.9 C 0 km/h
2225 24-01-2017 05:55:00 -1.9 C 3.99 g/m*3 -1.9 C 0 km/h
Sensor: Nr:Datum:Temp:Abs-Feuchte:Windchill:Wind:
Aussen-T/F 2226 24-01-2017 06:00:00 -1.8 C 4.02 g/m*3 -1.8 C 0 km/h
2227 24-01-2017 06:05:00 -1.8 C 4.02 g/m*3 -1.8 C 0 km/h
2228 24-01-2017 06:10:00 -1.9 C 3.99 g/m*3 -1.9 C 0 km/h
2229 24-01-2017 06:15:00 -1.8 C 4.02 g/m*3 -1.8 C 0 km/h
2230 24-01-2017 06:20:00 -1.8 C 4.02 g/m*3 -1.8 C 0 km/h
2231 24-01-2017 06:25:00 -1.8 C 4.02 g/m*3 -1.8 C 0 km/h
2232 24-01-2017 06:30:00 -1.8 C 4.02 g/m*3 -1.8 C 0 km/h
2233 24-01-2017 06:35:00 -1.8 C 4.02 g/m*3 -1.8 C 0 km/h
2234 24-01-2017 06:40:00 -1.8 C 4.02 g/m*3 -1.8 C 0 km/h
2235 24-01-2017 06:45:00 -1.8 C 4.02 g/m*3 -1.8 C 0 km/h
2236 24-01-2017 06:50:00 -1.8 C 4.02 g/m*3 -1.8 C 0 km/h
2237 24-01-2017 06:55:00 -1.8 C 4.02 g/m*3 -1.8 C 0 km/h
2238 24-01-2017 07:00:00 -1.8 C 4.02 g/m*3 -1.8 C 0 km/h
2239 24-01-2017 07:05:00 -1.8 C 4.02 g/m*3 -1.8 C 0 km/h
2240 24-01-2017 07:10:00 -1.8 C 4.02 g/m*3 -1.8 C 0 km/h
2241 24-01-2017 07:15:00 -1.8 C 4.02 g/m*3 -1.8 C 0 km/h
2242 24-01-2017 07:20:00 -1.8 C 4.02 g/m*3 -1.8 C 0 km/h
2243 24-01-2017 07:25:00 -1.8 C 4.02 g/m*3 -1.8 C 0 km/h
2244 24-01-2017 07:30:00 -1.8 C 4.02 g/m*3 -1.8 C 0 km/h
2245 24-01-2017 07:35:00 -1.8 C 4.02 g/m*3 -1.8 C 0 km/h
2246 24-01-2017 07:40:00 -1.8 C 4.02 g/m*3 -1.8 C 0 km/h
2247 24-01-2017 07:45:00 -1.8 C 4.02 g/m*3 -1.8 C 0 km/h
2248 24-01-2017 07:50:00 -1.8 C 4.02 g/m*3 -1.8 C 0 km/h
2249 24-01-2017 07:55:00 -1.8 C 4.02 g/m*3 -1.8 C 0 km/h
2250 24-01-2017 08:00:00 -1.8 C 4.02 g/m*3 -1.8 C 0 km/h
Sensor: Nr:Datum:Temp:Abs-Feuchte:Windchill:Wind:
Aussen-T/F 2251 24-01-2017 08:05:00 -1.8 C 4.02 g/m*3 -1.8 C 0 km/h
2252 24-01-2017 08:10:00 -1.8 C 4.02 g/m*3 -1.8 C 0 km/h
2253 24-01-2017 08:15:00 -1.8 C 4.02 g/m*3 -1.8 C 0 km/h
2254 24-01-2017 08:20:00 -1.8 C 4.02 g/m*3 -1.8 C 0 km/h
2255 24-01-2017 08:25:00 -1.8 C 4.02 g/m*3 -1.8 C 0 km/h
2256 24-01-2017 08:30:00 -1.8 C 4.02 g/m*3 -1.8 C 0 km/h
2257 24-01-2017 08:35:00 -1.8 C 4.02 g/m*3 -1.8 C 0 km/h
2258 24-01-2017 08:40:00 -1.8 C 4.02 g/m*3 -1.8 C 0 km/h
2259 24-01-2017 08:45:00 -1.8 C 4.02 g/m*3 -1.8 C 0 km/h
2260 24-01-2017 08:50:00 -1.8 C 4.02 g/m*3 -1.8 C 0 km/h
2261 24-01-2017 08:55:00 -1.7 C 4.05 g/m*3 -1.7 C 0 km/h
2262 24-01-2017 09:00:00 -1.7 C 4.05 g/m*3 -1.7 C 0 km/h
2263 24-01-2017 09:05:00 -1.7 C 4.05 g/m*3 -1.7 C 0 km/h
2264 24-01-2017 09:10:00 -1.7 C 4.05 g/m*3 -1.7 C 0 km/h
2265 24-01-2017 09:15:00 -1.7 C 4.05 g/m*3 -1.7 C 0 km/h
2266 24-01-2017 09:20:00 -1.6 C 4.07 g/m*3 -1.6 C 0 km/h
2267 24-01-2017 09:25:00 -1.6 C 4.07 g/m*3 -1.6 C 0 km/h
2268 24-01-2017 09:30:00 -1.6 C 4.07 g/m*3 -1.6 C 0 km/h
2269 24-01-2017 09:35:00 -1.5 C 4.1 g/m*3 -1.5 C 0 km/h
2270 24-01-2017 09:40:00 -1.4 C 4.13 g/m*3 -1.4 C 1.6 km/h
2271 24-01-2017 09:45:00 -1.4 C 4.13 g/m*3 -1.4 C 1.6 km/h
2272 24-01-2017 09:50:00 -1.3 C 4.16 g/m*3 -1.3 C 1.6 km/h
2273 24-01-2017 09:55:00 -1.2 C 4.19 g/m*3 -1.2 C 3.2 km/h
2274 24-01-2017 10:00:00 -1.2 C 4.19 g/m*3 -1.2 C 4.8 km/h
2275 24-01-2017 10:05:00 -1.2 C 4.15 g/m*3 -1.2 C 4.8 km/h
Sensor: Nr:Datum:Temp:Abs-Feuchte:Windchill:Wind:
Aussen-T/F 2276 24-01-2017 10:10:00 -1.1 C 4.17 g/m*3 -1.1 C 3.2 km/h
2277 24-01-2017 10:15:00 -1.1 C 4.17 g/m*3 -1.1 C 0 km/h
2278 24-01-2017 10:20:00 -1 C 4.2 g/m*3 -1 C 0 km/h
2279 24-01-2017 10:25:00 -0.9 C 4.23 g/m*3 -0.9 C 0 km/h
2280 24-01-2017 10:30:00 -0.9 C 4.23 g/m*3 -0.9 C 0 km/h
2281 24-01-2017 10:35:00 -0.8 C 4.26 g/m*3 -0.8 C 0 km/h
2282 24-01-2017 10:40:00 -0.8 C 4.26 g/m*3 -0.8 C 0 km/h
2283 24-01-2017 10:45:00 -0.7 C 4.25 g/m*3 -0.7 C 0 km/h
2284 24-01-2017 10:50:00 -0.7 C 4.25 g/m*3 -0.7 C 1.6 km/h
2285 24-01-2017 10:55:00 -0.7 C 4.25 g/m*3 -0.7 C 0 km/h
2286 24-01-2017 11:00:00 -0.7 C 4.25 g/m*3 -0.7 C 0 km/h
2287 24-01-2017 11:05:00 -0.7 C 4.25 g/m*3 -0.7 C 0 km/h
2288 24-01-2017 11:10:00 -0.6 C 4.28 g/m*3 -0.6 C 0 km/h
2289 24-01-2017 11:15:00 -0.6 C 4.28 g/m*3 -0.6 C 0 km/h
2290 24-01-2017 11:20:00 -0.4 C 4.34 g/m*3 -0.4 C 0 km/h
2291 24-01-2017 11:25:00 -0.3 C 4.37 g/m*3 -0.3 C 0 km/h
2292 24-01-2017 11:30:00 -0.4 C 4.24 g/m*3 -0.4 C 1.6 km/h
2293 24-01-2017 11:35:00 -0.4 C 4.24 g/m*3 -0.4 C 0 km/h
2294 24-01-2017 11:40:00 -0.4 C 4.24 g/m*3 -0.4 C 0 km/h
2295 24-01-2017 11:45:00 -0.4 C 4.24 g/m*3 -0.4 C 0 km/h
2296 24-01-2017 11:50:00 -0.4 C 4.24 g/m*3 -0.4 C 0 km/h
2297 24-01-2017 11:55:00 -0.4 C 4.29 g/m*3 -0.4 C 0 km/h
2298 24-01-2017 12:00:00 -0.4 C 4.29 g/m*3 -0.4 C 0 km/h
2299 24-01-2017 12:05:00 -0.3 C 4.32 g/m*3 -0.3 C 0 km/h
2300 24-01-2017 12:10:00 -0.2 C 4.3 g/m*3 -0.2 C 0 km/h
Sensor: Nr:Datum:Temp:Abs-Feuchte:Windchill:Wind:
Aussen-T/F 2301 24-01-2017 12:15:00 -0.2 C 4.3 g/m*3 -0.2 C 0 km/h
2302 24-01-2017 12:20:00 -0.2 C 4.3 g/m*3 -0.2 C 0 km/h
2303 24-01-2017 12:25:00 -0.2 C 4.3 g/m*3 -0.2 C 0 km/h
2304 24-01-2017 12:30:00 -0.2 C 4.3 g/m*3 -0.2 C 0 km/h
2305 24-01-2017 12:35:00 -0.2 C 4.3 g/m*3 -0.2 C 0 km/h
2306 24-01-2017 12:40:00 -0.1 C 4.33 g/m*3 -0.1 C 0 km/h
2307 24-01-2017 12:45:00 0 C 4.36 g/m*3 0 C 0 km/h
2308 24-01-2017 12:50:00 0.1 C 4.39 g/m*3 0.1 C 0 km/h
2309 24-01-2017 12:55:00 0.2 C 4.37 g/m*3 0.2 C 0 km/h
2310 24-01-2017 13:00:00 0.3 C 4.4 g/m*3 0.3 C 0 km/h
2311 24-01-2017 13:05:00 0.3 C 4.4 g/m*3 0.3 C 0 km/h
2312 24-01-2017 13:10:00 0.3 C 4.4 g/m*3 0.3 C 0 km/h
2313 24-01-2017 13:15:00 0.3 C 4.35 g/m*3 0.3 C 0 km/h
2314 24-01-2017 13:20:00 0.2 C 4.32 g/m*3 0.2 C 0 km/h
2315 24-01-2017 13:25:00 0.2 C 4.32 g/m*3 0.2 C 0 km/h
2316 24-01-2017 13:30:00 0.2 C 4.32 g/m*3 0.2 C 0 km/h
2317 24-01-2017 13:35:00 0.2 C 4.32 g/m*3 0.2 C 0 km/h
2318 24-01-2017 13:40:00 0.2 C 4.32 g/m*3 0.2 C 0 km/h
2319 24-01-2017 13:45:00 0.2 C 4.32 g/m*3 0.2 C 0 km/h
2320 24-01-2017 13:50:00 0.2 C 4.32 g/m*3 0.2 C 0 km/h
2321 24-01-2017 13:55:00 0.2 C 4.37 g/m*3 0.2 C 0 km/h
2322 24-01-2017 14:00:00 0.2 C 4.37 g/m*3 0.2 C 0 km/h
2323 24-01-2017 14:05:00 0.3 C 4.4 g/m*3 0.3 C 0 km/h
2324 24-01-2017 14:10:00 0.3 C 4.4 g/m*3 0.3 C 0 km/h
2325 24-01-2017 14:15:00 0.3 C 4.35 g/m*3 0.3 C 0 km/h
Sensor: Nr:Datum:Temp:Abs-Feuchte:Windchill:Wind:
Aussen-T/F 2326 24-01-2017 14:20:00 0.3 C 4.35 g/m*3 0.3 C 0 km/h
2327 24-01-2017 14:25:00 0.3 C 4.35 g/m*3 0.3 C 0 km/h
2328 24-01-2017 14:30:00 0.3 C 4.35 g/m*3 0.3 C 0 km/h
2329 24-01-2017 14:35:00 0.3 C 4.35 g/m*3 0.3 C 0 km/h
2330 24-01-2017 14:40:00 0.3 C 4.35 g/m*3 0.3 C 0 km/h
2331 24-01-2017 14:45:00 0.3 C 4.35 g/m*3 0.3 C 0 km/h
2332 24-01-2017 14:50:00 0.3 C 4.35 g/m*3 0.3 C 0 km/h
2333 24-01-2017 14:55:00 0.3 C 4.4 g/m*3 0.3 C 0 km/h
2334 24-01-2017 15:00:00 0.3 C 4.4 g/m*3 0.3 C 0 km/h
2335 24-01-2017 15:05:00 0.3 C 4.4 g/m*3 0.3 C 0 km/h
2336 24-01-2017 15:10:00 0.3 C 4.4 g/m*3 0.3 C 0 km/h
2337 24-01-2017 15:15:00 0.3 C 4.35 g/m*3 0.3 C 0 km/h
2338 24-01-2017 15:20:00 0.3 C 4.4 g/m*3 0.3 C 0 km/h
2339 24-01-2017 15:25:00 0.3 C 4.4 g/m*3 0.3 C 0 km/h
2340 24-01-2017 15:30:00 0.3 C 4.4 g/m*3 0.3 C 0 km/h
2341 24-01-2017 15:35:00 0.3 C 4.4 g/m*3 0.3 C 0 km/h
2342 24-01-2017 15:40:00 0.3 C 4.4 g/m*3 0.3 C 0 km/h
2343 24-01-2017 15:45:00 0.3 C 4.4 g/m*3 0.3 C 0 km/h
2344 24-01-2017 15:50:00 0.3 C 4.4 g/m*3 0.3 C 0 km/h
2345 24-01-2017 15:55:00 0.3 C 4.4 g/m*3 0.3 C 0 km/h
2346 24-01-2017 16:00:00 0.3 C 4.4 g/m*3 0.3 C 0 km/h
2347 24-01-2017 16:05:00 0.3 C 4.4 g/m*3 0.3 C 0 km/h
2348 24-01-2017 16:10:00 0.3 C 4.45 g/m*3 0.3 C 0 km/h
2349 24-01-2017 16:15:00 0.3 C 4.45 g/m*3 0.3 C 0 km/h
2350 24-01-2017 16:20:00 0.3 C 4.45 g/m*3 0.3 C 0 km/h
Sensor: Nr:Datum:Temp:Abs-Feuchte:Windchill:Wind:
Aussen-T/F 2351 24-01-2017 16:25:00 0.3 C 4.45 g/m*3 0.3 C 0 km/h
2352 24-01-2017 16:30:00 0.3 C 4.45 g/m*3 0.3 C 0 km/h
2353 24-01-2017 16:35:00 0.3 C 4.5 g/m*3 0.3 C 0 km/h
2354 24-01-2017 16:40:00 0.3 C 4.5 g/m*3 0.3 C 0 km/h
2355 24-01-2017 16:45:00 0.3 C 4.5 g/m*3 0.3 C 0 km/h
2356 24-01-2017 16:50:00 0.2 C 4.47 g/m*3 0.2 C 0 km/h
2357 24-01-2017 16:55:00 0.2 C 4.47 g/m*3 0.2 C 0 km/h
2358 24-01-2017 17:00:00 0.2 C 4.47 g/m*3 0.2 C 0 km/h
2359 24-01-2017 17:05:00 0.1 C 4.44 g/m*3 0.1 C 0 km/h
2360 24-01-2017 17:10:00 0.1 C 4.44 g/m*3 0.1 C 0 km/h
2361 24-01-2017 17:15:00 0.1 C 4.44 g/m*3 0.1 C 0 km/h
2362 24-01-2017 17:20:00 0.1 C 4.44 g/m*3 0.1 C 0 km/h
2363 24-01-2017 17:25:00 0.1 C 4.44 g/m*3 0.1 C 0 km/h
2364 24-01-2017 17:30:00 0.1 C 4.44 g/m*3 0.1 C 0 km/h
2365 24-01-2017 17:35:00 0 C 4.41 g/m*3 0 C 0 km/h
2366 24-01-2017 17:40:00 0 C 4.41 g/m*3 0 C 1.6 km/h
2367 24-01-2017 17:45:00 0 C 4.41 g/m*3 0 C 0 km/h
2368 24-01-2017 17:50:00 0 C 4.41 g/m*3 0 C 1.6 km/h
2369 24-01-2017 17:55:00 0 C 4.41 g/m*3 0 C 1.6 km/h
2370 24-01-2017 18:00:00 0 C 4.41 g/m*3 0 C 0 km/h
2371 24-01-2017 18:05:00 0 C 4.41 g/m*3 0 C 0 km/h
2372 24-01-2017 18:10:00 0 C 4.41 g/m*3 0 C 1.6 km/h
2373 24-01-2017 18:15:00 0 C 4.36 g/m*3 0 C 1.6 km/h
2374 24-01-2017 18:20:00 0.1 C 4.39 g/m*3 0.1 C 1.6 km/h
2375 24-01-2017 18:25:00 0.1 C 4.39 g/m*3 0.1 C 0 km/h
Sensor: Nr:Datum:Temp:Abs-Feuchte:Windchill:Wind:
Aussen-T/F 2376 24-01-2017 18:30:00 0.1 C 4.39 g/m*3 0.1 C 3.2 km/h
2377 24-01-2017 18:35:00 0.1 C 4.34 g/m*3 0.1 C 1.6 km/h
2378 24-01-2017 18:40:00 0.1 C 4.39 g/m*3 0.1 C 0 km/h
2379 24-01-2017 18:45:00 0.1 C 4.39 g/m*3 0.1 C 0 km/h
2380 24-01-2017 18:50:00 0.1 C 4.39 g/m*3 0.1 C 3.2 km/h
2381 24-01-2017 18:55:00 0.1 C 4.34 g/m*3 0.1 C 1.6 km/h
2382 24-01-2017 19:00:00 0.1 C 4.34 g/m*3 0.1 C 1.6 km/h
2383 24-01-2017 19:05:00 0.1 C 4.29 g/m*3 0.1 C 4.8 km/h
2384 24-01-2017 19:10:00 0.2 C 4.32 g/m*3 0.2 C 3.2 km/h
2385 24-01-2017 19:15:00 0.2 C 4.32 g/m*3 0.2 C 1.6 km/h
2386 24-01-2017 19:20:00 0.2 C 4.32 g/m*3 0.2 C 1.6 km/h
2387 24-01-2017 19:25:00 0.2 C 4.37 g/m*3 0.2 C 0 km/h
2388 24-01-2017 19:30:00 0.2 C 4.32 g/m*3 0.2 C 0 km/h
2389 24-01-2017 19:35:00 0.1 C 4.29 g/m*3 -3.52 C 11.3 km/h
2390 24-01-2017 19:40:00 0.1 C 4.29 g/m*3 0.1 C 1.6 km/h
2391 24-01-2017 19:45:00 0.1 C 4.29 g/m*3 0.1 C 0 km/h
2392 24-01-2017 19:50:00 0.1 C 4.29 g/m*3 0.1 C 1.6 km/h
2393 24-01-2017 19:55:00 0.1 C 4.29 g/m*3 -2.07 C 6.4 km/h
2394 24-01-2017 20:00:00 0.1 C 4.29 g/m*3 0.1 C 1.6 km/h
2395 24-01-2017 20:05:00 0.1 C 4.29 g/m*3 0.1 C 1.6 km/h
2396 24-01-2017 20:10:00 0.1 C 4.24 g/m*3 0.1 C 1.6 km/h
2397 24-01-2017 20:15:00 0.1 C 4.24 g/m*3 -2.65 C 8.1 km/h
2398 24-01-2017 20:20:00 0.1 C 4.24 g/m*3 0.1 C 1.6 km/h
2399 24-01-2017 20:25:00 0.1 C 4.29 g/m*3 0.1 C 0 km/h
2400 24-01-2017 20:30:00 0 C 4.22 g/m*3 0 C 3.2 km/h
Sensor: Nr:Datum:Temp:Abs-Feuchte:Windchill:Wind:
Aussen-T/F 2401 24-01-2017 20:35:00 0 C 4.22 g/m*3 0 C 0 km/h
2402 24-01-2017 20:40:00 0 C 4.22 g/m*3 0 C 3.2 km/h
2403 24-01-2017 20:45:00 0 C 4.26 g/m*3 0 C 0 km/h
2404 24-01-2017 20:50:00 -0.1 C 4.23 g/m*3 -0.1 C 0 km/h
2405 24-01-2017 20:55:00 -0.1 C 4.23 g/m*3 -2.3 C 6.4 km/h
2406 24-01-2017 21:00:00 -0.1 C 4.23 g/m*3 -0.1 C 0 km/h
2407 24-01-2017 21:05:00 -0.2 C 4.21 g/m*3 -0.2 C 0 km/h
2408 24-01-2017 21:10:00 -0.2 C 4.25 g/m*3 -0.2 C 0 km/h
2409 24-01-2017 21:15:00 -0.2 C 4.25 g/m*3 -0.2 C 0 km/h
2410 24-01-2017 21:20:00 -0.2 C 4.25 g/m*3 -0.2 C 0 km/h
2411 24-01-2017 21:25:00 -0.3 C 4.22 g/m*3 -0.3 C 0 km/h
2412 24-01-2017 21:30:00 -0.3 C 4.22 g/m*3 -3.59 C 9.7 km/h
2413 24-01-2017 21:35:00 -0.3 C 4.22 g/m*3 -3.59 C 9.7 km/h
2414 24-01-2017 21:40:00 -0.2 C 4.21 g/m*3 -3 C 8.1 km/h
2415 24-01-2017 21:45:00 -0.2 C 4.21 g/m*3 -0.2 C 4.8 km/h
2416 24-01-2017 21:50:00 -0.2 C 4.21 g/m*3 -0.2 C 0 km/h
2417 24-01-2017 21:55:00 -0.2 C 4.21 g/m*3 -0.2 C 0 km/h
2418 24-01-2017 22:00:00 -0.2 C 4.25 g/m*3 -0.2 C 0 km/h
2419 24-01-2017 22:05:00 -0.3 C 4.22 g/m*3 -0.3 C 0 km/h
2420 24-01-2017 22:10:00 -0.3 C 4.22 g/m*3 -0.3 C 1.6 km/h
2421 24-01-2017 22:15:00 -0.3 C 4.22 g/m*3 -0.3 C 3.2 km/h
2422 24-01-2017 22:20:00 -0.3 C 4.22 g/m*3 -0.3 C 0 km/h
2423 24-01-2017 22:25:00 -0.3 C 4.22 g/m*3 -0.3 C 0 km/h
2424 24-01-2017 22:30:00 -0.4 C 4.19 g/m*3 -0.4 C 0 km/h
2425 24-01-2017 22:35:00 -0.4 C 4.24 g/m*3 -0.4 C 0 km/h
Sensor: Nr:Datum:Temp:Abs-Feuchte:Windchill:Wind:
Aussen-T/F 2426 24-01-2017 22:40:00 -0.4 C 4.24 g/m*3 -0.4 C 0 km/h
2427 24-01-2017 22:45:00 -0.4 C 4.24 g/m*3 -0.4 C 0 km/h
2428 24-01-2017 22:50:00 -0.5 C 4.21 g/m*3 -0.5 C 0 km/h
2429 24-01-2017 22:55:00 -0.5 C 4.21 g/m*3 -0.5 C 1.6 km/h
2430 24-01-2017 23:00:00 -0.4 C 4.19 g/m*3 -2.64 C 6.4 km/h
2431 24-01-2017 23:05:00 -0.4 C 4.19 g/m*3 -0.4 C 0 km/h
2432 24-01-2017 23:10:00 -0.4 C 4.19 g/m*3 -0.4 C 0 km/h
2433 24-01-2017 23:15:00 -0.4 C 4.19 g/m*3 -0.4 C 0 km/h
2434 24-01-2017 23:20:00 -0.4 C 4.19 g/m*3 -0.4 C 0 km/h
2435 24-01-2017 23:25:00 -0.4 C 4.24 g/m*3 -0.4 C 0 km/h
2436 24-01-2017 23:30:00 -0.4 C 4.19 g/m*3 -2.64 C 6.4 km/h
2437 24-01-2017 23:35:00 -0.4 C 4.19 g/m*3 -0.4 C 3.2 km/h
2438 24-01-2017 23:40:00 -0.4 C 4.19 g/m*3 -0.4 C 0 km/h
2439 24-01-2017 23:45:00 -0.4 C 4.19 g/m*3 -0.4 C 3.2 km/h
2440 24-01-2017 23:50:00 -0.4 C 4.15 g/m*3 -2.64 C 6.4 km/h
2441 24-01-2017 23:55:00 -0.4 C 4.15 g/m*3 -0.4 C 1.6 km/h
2442 25-01-2017 00:00:00 -0.4 C 4.15 g/m*3 -0.4 C 4.8 km/h
2443 25-01-2017 00:05:00 -0.4 C 4.15 g/m*3 -0.4 C 3.2 km/h
2444 25-01-2017 00:10:00 -0.3 C 4.18 g/m*3 -0.3 C 4.8 km/h
2445 25-01-2017 00:15:00 -0.4 C 4.15 g/m*3 -3.24 C 8.1 km/h
2446 25-01-2017 00:20:00 -0.4 C 4.1 g/m*3 -3.24 C 8.1 km/h
2447 25-01-2017 00:25:00 -0.4 C 4.15 g/m*3 -0.4 C 3.2 km/h
2448 25-01-2017 00:30:00 -0.4 C 4.1 g/m*3 -0.4 C 4.8 km/h
2449 25-01-2017 00:35:00 -0.4 C 4.15 g/m*3 -0.4 C 3.2 km/h
2450 25-01-2017 00:40:00 -0.5 C 4.07 g/m*3 -0.5 C 4.8 km/h
Sensor: Nr:Datum:Temp:Abs-Feuchte:Windchill:Wind:
Aussen-T/F 2451 25-01-2017 00:45:00 -0.5 C 4.07 g/m*3 -0.5 C 4.8 km/h
2452 25-01-2017 00:50:00 -0.5 C 4.12 g/m*3 -0.5 C 1.6 km/h
2453 25-01-2017 00:55:00 -0.5 C 4.12 g/m*3 -2.76 C 6.4 km/h
2454 25-01-2017 01:00:00 -0.6 C 4.09 g/m*3 -0.6 C 0 km/h
2455 25-01-2017 01:05:00 -0.6 C 4.09 g/m*3 -0.6 C 3.2 km/h
2456 25-01-2017 01:10:00 -0.6 C 4.09 g/m*3 -0.6 C 0 km/h
2457 25-01-2017 01:15:00 -0.6 C 4.09 g/m*3 -0.6 C 0 km/h
2458 25-01-2017 01:20:00 -0.6 C 4.14 g/m*3 -0.6 C 1.6 km/h
2459 25-01-2017 01:25:00 -0.7 C 4.11 g/m*3 -0.7 C 0 km/h
2460 25-01-2017 01:30:00 -0.7 C 4.11 g/m*3 -0.7 C 0 km/h
2461 25-01-2017 01:35:00 -0.7 C 4.11 g/m*3 -0.7 C 0 km/h
2462 25-01-2017 01:40:00 -0.7 C 4.11 g/m*3 -0.7 C 0 km/h
2463 25-01-2017 01:45:00 -0.7 C 4.11 g/m*3 -0.7 C 0 km/h
2464 25-01-2017 01:50:00 -0.8 C 4.08 g/m*3 -0.8 C 0 km/h
2465 25-01-2017 01:55:00 -0.8 C 4.08 g/m*3 -0.8 C 3.2 km/h
2466 25-01-2017 02:00:00 -0.8 C 4.03 g/m*3 -3.71 C 8.1 km/h
2467 25-01-2017 02:05:00 -0.8 C 4.03 g/m*3 -3.11 C 6.4 km/h
2468 25-01-2017 02:10:00 -0.8 C 4.08 g/m*3 -0.8 C 4.8 km/h
2469 25-01-2017 02:15:00 -0.8 C 4.08 g/m*3 -0.8 C 4.8 km/h
2470 25-01-2017 02:20:00 -0.8 C 4.03 g/m*3 -3.11 C 6.4 km/h
2471 25-01-2017 02:25:00 -0.8 C 4.08 g/m*3 -0.8 C 0 km/h
2472 25-01-2017 02:30:00 -0.8 C 4.08 g/m*3 -0.8 C 1.6 km/h
2473 25-01-2017 02:35:00 -0.8 C 4.08 g/m*3 -3.11 C 6.4 km/h
2474 25-01-2017 02:40:00 -0.8 C 4.08 g/m*3 -0.8 C 3.2 km/h
2475 25-01-2017 02:45:00 -0.9 C 4.01 g/m*3 -0.9 C 0 km/h
Sensor: Nr:Datum:Temp:Abs-Feuchte:Windchill:Wind:
Aussen-T/F 2476 25-01-2017 02:50:00 -0.9 C 4.01 g/m*3 -0.9 C 4.8 km/h
2477 25-01-2017 02:55:00 -0.9 C 4.01 g/m*3 -0.9 C 3.2 km/h
2478 25-01-2017 03:00:00 -1 C 3.98 g/m*3 -1 C 4.8 km/h
2479 25-01-2017 03:05:00 -1 C 3.98 g/m*3 -3.34 C 6.4 km/h
2480 25-01-2017 03:10:00 -1.1 C 3.91 g/m*3 -3.45 C 6.4 km/h
2481 25-01-2017 03:15:00 -1.2 C 3.88 g/m*3 -1.2 C 1.6 km/h
2482 25-01-2017 03:20:00 -1.2 C 3.88 g/m*3 -1.2 C 0 km/h
2483 25-01-2017 03:25:00 -1.3 C 3.85 g/m*3 -1.3 C 4.8 km/h
2484 25-01-2017 03:30:00 -1.3 C 3.85 g/m*3 -1.3 C 4.8 km/h
2485 25-01-2017 03:35:00 -1.3 C 3.85 g/m*3 -1.3 C 3.2 km/h
2486 25-01-2017 03:40:00 -1.4 C 3.82 g/m*3 -1.4 C 3.2 km/h
2487 25-01-2017 03:45:00 -1.4 C 3.82 g/m*3 -1.4 C 1.6 km/h
2488 25-01-2017 03:50:00 -1.4 C 3.82 g/m*3 -1.4 C 4.8 km/h
2489 25-01-2017 03:55:00 -1.5 C 3.8 g/m*3 -3.91 C 6.4 km/h
2490 25-01-2017 04:00:00 -1.6 C 3.73 g/m*3 -1.6 C 3.2 km/h
2491 25-01-2017 04:05:00 -1.6 C 3.73 g/m*3 -4.65 C 8.1 km/h
2492 25-01-2017 04:10:00 -1.6 C 3.73 g/m*3 -5.57 C 11.3 km/h
2493 25-01-2017 04:15:00 -1.7 C 3.7 g/m*3 -1.7 C 3.2 km/h
2494 25-01-2017 04:20:00 -1.7 C 3.7 g/m*3 -1.7 C 1.6 km/h
2495 25-01-2017 04:25:00 -1.7 C 3.7 g/m*3 -1.7 C 4.8 km/h
2496 25-01-2017 04:30:00 -1.7 C 3.7 g/m*3 -1.7 C 1.6 km/h
2497 25-01-2017 04:35:00 -1.7 C 3.7 g/m*3 -1.7 C 1.6 km/h
2498 25-01-2017 04:40:00 -1.8 C 3.68 g/m*3 -1.8 C 4.8 km/h
2499 25-01-2017 04:45:00 -1.8 C 3.63 g/m*3 -1.8 C 1.6 km/h
2500 25-01-2017 04:50:00 -1.8 C 3.68 g/m*3 -1.8 C 0 km/h
Sensor: Nr:Datum:Temp:Abs-Feuchte:Windchill:Wind:
Aussen-T/F 2501 25-01-2017 04:55:00 -1.8 C 3.68 g/m*3 -1.8 C 3.2 km/h
2502 25-01-2017 05:00:00 -1.8 C 3.63 g/m*3 -4.26 C 6.4 km/h
2503 25-01-2017 05:05:00 -1.8 C 3.59 g/m*3 -5.81 C 11.3 km/h
2504 25-01-2017 05:10:00 -1.8 C 3.63 g/m*3 -4.89 C 8.1 km/h
2505 25-01-2017 05:15:00 -1.8 C 3.63 g/m*3 -1.8 C 1.6 km/h
2506 25-01-2017 05:20:00 -1.8 C 3.63 g/m*3 -1.8 C 1.6 km/h
2507 25-01-2017 05:25:00 -1.8 C 3.63 g/m*3 -1.8 C 4.8 km/h
2508 25-01-2017 05:30:00 -1.8 C 3.63 g/m*3 -1.8 C 0 km/h
2509 25-01-2017 05:35:00 -1.8 C 3.63 g/m*3 -1.8 C 1.6 km/h
2510 25-01-2017 05:40:00 -1.8 C 3.63 g/m*3 -1.8 C 1.6 km/h
2511 25-01-2017 05:45:00 -1.8 C 3.59 g/m*3 -4.26 C 6.4 km/h
2512 25-01-2017 05:50:00 -1.8 C 3.59 g/m*3 -1.8 C 4.8 km/h
2513 25-01-2017 05:55:00 -1.8 C 3.63 g/m*3 -1.8 C 0 km/h
2514 25-01-2017 06:00:00 -1.9 C 3.57 g/m*3 -1.9 C 4.8 km/h
2515 25-01-2017 06:05:00 -1.9 C 3.57 g/m*3 -1.9 C 4.8 km/h
2516 25-01-2017 06:10:00 -1.9 C 3.52 g/m*3 -4.38 C 6.4 km/h
2517 25-01-2017 06:15:00 -1.9 C 3.52 g/m*3 -1.9 C 3.2 km/h
2518 25-01-2017 06:20:00 -1.9 C 3.52 g/m*3 -4.38 C 6.4 km/h
2519 25-01-2017 06:25:00 -1.9 C 3.52 g/m*3 -5 C 8.1 km/h
2520 25-01-2017 06:30:00 -1.9 C 3.52 g/m*3 -1.9 C 4.8 km/h
2521 25-01-2017 06:35:00 -1.9 C 3.52 g/m*3 -5 C 8.1 km/h
2522 25-01-2017 06:40:00 -1.9 C 3.52 g/m*3 -1.9 C 4.8 km/h
2523 25-01-2017 06:45:00 -2 C 3.54 g/m*3 -5.12 C 8.1 km/h
2524 25-01-2017 06:50:00 -2 C 3.54 g/m*3 -2 C 1.6 km/h
2525 25-01-2017 06:55:00 -2 C 3.54 g/m*3 -4.49 C 6.4 km/h
Sensor: Nr:Datum:Temp:Abs-Feuchte:Windchill:Wind:
Aussen-T/F 2526 25-01-2017 07:00:00 -2.1 C 3.52 g/m*3 -2.1 C 4.8 km/h
2527 25-01-2017 07:05:00 -2.1 C 3.52 g/m*3 -2.1 C 4.8 km/h
2528 25-01-2017 07:10:00 -2.1 C 3.52 g/m*3 -5.74 C 9.7 km/h
2529 25-01-2017 07:15:00 -2.1 C 3.47 g/m*3 -6.17 C 11.3 km/h
2530 25-01-2017 07:20:00 -2.1 C 3.52 g/m*3 -2.1 C 3.2 km/h
2531 25-01-2017 07:25:00 -2.1 C 3.52 g/m*3 -4.61 C 6.4 km/h
2532 25-01-2017 07:30:00 -2.1 C 3.52 g/m*3 -2.1 C 3.2 km/h
2533 25-01-2017 07:35:00 -2.2 C 3.49 g/m*3 -2.2 C 0 km/h
2534 25-01-2017 07:40:00 -2.2 C 3.49 g/m*3 -2.2 C 0 km/h
2535 25-01-2017 07:45:00 -2.2 C 3.49 g/m*3 -2.2 C 1.6 km/h
2536 25-01-2017 07:50:00 -2.2 C 3.49 g/m*3 -4.72 C 6.4 km/h
2537 25-01-2017 07:55:00 -2.2 C 3.49 g/m*3 -2.2 C 3.2 km/h
2538 25-01-2017 08:00:00 -2.2 C 3.49 g/m*3 -2.2 C 3.2 km/h
2539 25-01-2017 08:05:00 -2.2 C 3.49 g/m*3 -2.2 C 0 km/h
2540 25-01-2017 08:10:00 -2.2 C 3.49 g/m*3 -2.2 C 1.6 km/h
2541 25-01-2017 08:15:00 -2.2 C 3.53 g/m*3 -2.2 C 0 km/h
2542 25-01-2017 08:20:00 -2.2 C 3.49 g/m*3 -2.2 C 3.2 km/h
2543 25-01-2017 08:25:00 -2.2 C 3.53 g/m*3 -2.2 C 1.6 km/h
2544 25-01-2017 08:30:00 -2.2 C 3.49 g/m*3 -2.2 C 0 km/h
2545 25-01-2017 08:35:00 -2.2 C 3.53 g/m*3 -2.2 C 0 km/h
2546 25-01-2017 08:40:00 -2.2 C 3.57 g/m*3 -2.2 C 0 km/h
2547 25-01-2017 08:45:00 -2.2 C 3.57 g/m*3 -2.2 C 0 km/h
2548 25-01-2017 08:50:00 -2.2 C 3.57 g/m*3 -2.2 C 0 km/h
2549 25-01-2017 08:55:00 -2.2 C 3.57 g/m*3 -2.2 C 0 km/h
2550 25-01-2017 09:00:00 -2.2 C 3.57 g/m*3 -2.2 C 0 km/h
Sensor: Nr:Datum:Temp:Abs-Feuchte:Windchill:Wind:
Aussen-T/F 2551 25-01-2017 09:05:00 -2.2 C 3.62 g/m*3 -2.2 C 0 km/h
2552 25-01-2017 09:10:00 -2.2 C 3.62 g/m*3 -2.2 C 0 km/h
2553 25-01-2017 09:15:00 -2.2 C 3.57 g/m*3 -2.2 C 0 km/h
2554 25-01-2017 09:20:00 -2.1 C 3.56 g/m*3 -2.1 C 0 km/h
2555 25-01-2017 09:25:00 -2.1 C 3.6 g/m*3 -2.1 C 0 km/h
2556 25-01-2017 09:30:00 -2.1 C 3.6 g/m*3 -2.1 C 0 km/h
2557 25-01-2017 09:35:00 -2 C 3.63 g/m*3 -2 C 0 km/h
2558 25-01-2017 09:40:00 -1.9 C 3.61 g/m*3 -1.9 C 1.6 km/h
2559 25-01-2017 09:45:00 -1.9 C 3.57 g/m*3 -1.9 C 0 km/h
2560 25-01-2017 09:50:00 -1.8 C 3.59 g/m*3 -1.8 C 1.6 km/h
2561 25-01-2017 09:55:00 -1.8 C 3.59 g/m*3 -1.8 C 3.2 km/h
2562 25-01-2017 10:00:00 -1.7 C 3.62 g/m*3 -5.69 C 11.3 km/h
2563 25-01-2017 10:05:00 -1.7 C 3.57 g/m*3 -1.7 C 4.8 km/h
2564 25-01-2017 10:10:00 -1.7 C 3.57 g/m*3 -1.7 C 1.6 km/h
2565 25-01-2017 10:15:00 -1.6 C 3.55 g/m*3 -4.65 C 8.1 km/h
2566 25-01-2017 10:20:00 -1.6 C 3.6 g/m*3 -1.6 C 4.8 km/h
2567 25-01-2017 10:25:00 -1.6 C 3.55 g/m*3 -1.6 C 4.8 km/h
2568 25-01-2017 10:30:00 -1.5 C 3.62 g/m*3 -1.5 C 4.8 km/h
2569 25-01-2017 10:35:00 -1.4 C 3.65 g/m*3 -1.4 C 4.8 km/h
2570 25-01-2017 10:40:00 -1.4 C 3.65 g/m*3 -1.4 C 0 km/h
2571 25-01-2017 10:45:00 -1.4 C 3.6 g/m*3 -1.4 C 4.8 km/h
2572 25-01-2017 10:50:00 -1.4 C 3.65 g/m*3 -1.4 C 4.8 km/h
2573 25-01-2017 10:55:00 -1.4 C 3.6 g/m*3 -1.4 C 4.8 km/h
2574 25-01-2017 11:00:00 -1.3 C 3.63 g/m*3 -3.68 C 6.4 km/h
2575 25-01-2017 11:05:00 -1.3 C 3.63 g/m*3 -1.3 C 4.8 km/h
Sensor: Nr:Datum:Temp:Abs-Feuchte:Windchill:Wind:
Aussen-T/F 2576 25-01-2017 11:10:00 -1.3 C 3.59 g/m*3 -1.3 C 4.8 km/h
2577 25-01-2017 11:15:00 -1.3 C 3.59 g/m*3 -3.68 C 6.4 km/h
2578 25-01-2017 11:20:00 -1.2 C 3.66 g/m*3 -1.2 C 3.2 km/h
2579 25-01-2017 11:25:00 -1.2 C 3.66 g/m*3 -1.2 C 1.6 km/h
2580 25-01-2017 11:30:00 -1.2 C 3.61 g/m*3 -1.2 C 1.6 km/h
2581 25-01-2017 11:35:00 -1.1 C 3.64 g/m*3 -1.1 C 4.8 km/h
2582 25-01-2017 11:40:00 -1.1 C 3.64 g/m*3 -1.1 C 3.2 km/h
2583 25-01-2017 11:45:00 -1.1 C 3.68 g/m*3 -1.1 C 3.2 km/h
2584 25-01-2017 11:50:00 -1 C 3.66 g/m*3 -1 C 3.2 km/h
2585 25-01-2017 11:55:00 -1 C 3.66 g/m*3 -3.34 C 6.4 km/h
2586 25-01-2017 12:00:00 -1 C 3.66 g/m*3 -1 C 4.8 km/h
2587 25-01-2017 12:05:00 -0.9 C 3.69 g/m*3 -0.9 C 1.6 km/h
2588 25-01-2017 12:10:00 -0.9 C 3.69 g/m*3 -0.9 C 4.8 km/h
2589 25-01-2017 12:15:00 -0.9 C 3.69 g/m*3 -3.22 C 6.4 km/h
2590 25-01-2017 12:20:00 -0.9 C 3.69 g/m*3 -3.83 C 8.1 km/h
2591 25-01-2017 12:25:00 -0.9 C 3.69 g/m*3 -3.83 C 8.1 km/h
2592 25-01-2017 12:30:00 -0.9 C 3.69 g/m*3 -3.83 C 8.1 km/h
2593 25-01-2017 12:35:00 -0.9 C 3.69 g/m*3 -0.9 C 4.8 km/h
2594 25-01-2017 12:40:00 -0.8 C 3.71 g/m*3 -0.8 C 3.2 km/h
2595 25-01-2017 12:45:00 -0.8 C 3.71 g/m*3 -0.8 C 4.8 km/h
2596 25-01-2017 12:50:00 -0.8 C 3.71 g/m*3 -0.8 C 1.6 km/h
2597 25-01-2017 12:55:00 -0.7 C 3.74 g/m*3 -0.7 C 4.8 km/h
2598 25-01-2017 13:00:00 -0.7 C 3.74 g/m*3 -0.7 C 4.8 km/h
2599 25-01-2017 13:05:00 -0.7 C 3.74 g/m*3 -0.7 C 1.6 km/h
2600 25-01-2017 13:10:00 -0.7 C 3.74 g/m*3 -2.99 C 6.4 km/h
Sensor: Nr:Datum:Temp:Abs-Feuchte:Windchill:Wind:
Aussen-T/F 2601 25-01-2017 13:15:00 -0.7 C 3.74 g/m*3 -0.7 C 4.8 km/h
2602 25-01-2017 13:20:00 -0.7 C 3.69 g/m*3 -2.99 C 6.4 km/h
2603 25-01-2017 13:25:00 -0.7 C 3.69 g/m*3 -3.59 C 8.1 km/h
2604 25-01-2017 13:30:00 -0.6 C 3.76 g/m*3 -2.88 C 6.4 km/h
2605 25-01-2017 13:35:00 -0.7 C 3.69 g/m*3 -0.7 C 3.2 km/h
2606 25-01-2017 13:40:00 -0.6 C 3.76 g/m*3 -3.48 C 8.1 km/h
2607 25-01-2017 13:45:00 -0.6 C 3.76 g/m*3 -0.6 C 0 km/h
2608 25-01-2017 13:50:00 -0.6 C 3.76 g/m*3 -2.88 C 6.4 km/h
2609 25-01-2017 13:55:00 -0.6 C 3.72 g/m*3 -3.95 C 9.7 km/h
2610 25-01-2017 14:00:00 -0.5 C 3.79 g/m*3 -2.76 C 6.4 km/h
2611 25-01-2017 14:05:00 -0.5 C 3.79 g/m*3 -2.76 C 6.4 km/h
2612 25-01-2017 14:10:00 -0.4 C 3.77 g/m*3 -4.81 C 14.5 km/h
2613 25-01-2017 14:15:00 -0.4 C 3.82 g/m*3 -3.24 C 8.1 km/h
2614 25-01-2017 14:20:00 -0.4 C 3.77 g/m*3 -0.4 C 4.8 km/h
2615 25-01-2017 14:25:00 -0.4 C 3.77 g/m*3 -2.64 C 6.4 km/h
2616 25-01-2017 14:30:00 -0.4 C 3.77 g/m*3 -3.71 C 9.7 km/h
2617 25-01-2017 14:35:00 -0.4 C 3.77 g/m*3 -2.64 C 6.4 km/h
2618 25-01-2017 14:40:00 -0.4 C 3.77 g/m*3 -3.24 C 8.1 km/h
2619 25-01-2017 14:45:00 -0.4 C 3.77 g/m*3 -3.71 C 9.7 km/h
2620 25-01-2017 14:50:00 -0.4 C 3.77 g/m*3 -0.4 C 3.2 km/h
2621 25-01-2017 14:55:00 -0.4 C 3.77 g/m*3 -2.64 C 6.4 km/h
2622 25-01-2017 15:00:00 -0.4 C 3.77 g/m*3 -4.12 C 11.3 km/h
2623 25-01-2017 15:05:00 -0.4 C 3.77 g/m*3 -0.4 C 0 km/h
2624 25-01-2017 15:10:00 -0.3 C 3.8 g/m*3 -0.3 C 1.6 km/h
2625 25-01-2017 15:15:00 -0.3 C 3.8 g/m*3 -0.3 C 4.8 km/h
Sensor: Nr:Datum:Temp:Abs-Feuchte:Windchill:Wind:
Aussen-T/F 2626 25-01-2017 15:20:00 -0.3 C 3.8 g/m*3 -0.3 C 1.6 km/h
2627 25-01-2017 15:25:00 -0.3 C 3.8 g/m*3 -2.53 C 6.4 km/h
2628 25-01-2017 15:30:00 -0.3 C 3.8 g/m*3 -0.3 C 4.8 km/h
2629 25-01-2017 15:35:00 -0.3 C 3.8 g/m*3 -2.53 C 6.4 km/h
2630 25-01-2017 15:40:00 -0.3 C 3.8 g/m*3 -0.3 C 3.2 km/h
2631 25-01-2017 15:45:00 -0.3 C 3.8 g/m*3 -0.3 C 4.8 km/h
2632 25-01-2017 15:50:00 -0.3 C 3.8 g/m*3 -0.3 C 3.2 km/h
2633 25-01-2017 15:55:00 -0.3 C 3.8 g/m*3 -0.3 C 0 km/h
2634 25-01-2017 16:00:00 -0.3 C 3.84 g/m*3 -0.3 C 0 km/h
2635 25-01-2017 16:05:00 -0.3 C 3.8 g/m*3 -0.3 C 3.2 km/h
2636 25-01-2017 16:10:00 -0.3 C 3.8 g/m*3 -0.3 C 3.2 km/h
2637 25-01-2017 16:15:00 -0.4 C 3.72 g/m*3 -0.4 C 4.8 km/h
2638 25-01-2017 16:20:00 -0.4 C 3.77 g/m*3 -3.71 C 9.7 km/h
2639 25-01-2017 16:25:00 -0.4 C 3.77 g/m*3 -0.4 C 4.8 km/h
2640 25-01-2017 16:30:00 -0.4 C 3.77 g/m*3 -0.4 C 1.6 km/h
2641 25-01-2017 16:35:00 -0.4 C 3.77 g/m*3 -2.64 C 6.4 km/h
2642 25-01-2017 16:40:00 -0.4 C 3.82 g/m*3 -0.4 C 3.2 km/h
2643 25-01-2017 16:45:00 -0.5 C 3.74 g/m*3 -0.5 C 4.8 km/h
2644 25-01-2017 16:50:00 -0.5 C 3.74 g/m*3 -0.5 C 3.2 km/h
2645 25-01-2017 16:55:00 -0.5 C 3.79 g/m*3 -0.5 C 1.6 km/h
2646 25-01-2017 17:00:00 -0.6 C 3.76 g/m*3 -0.6 C 3.2 km/h
2647 25-01-2017 17:05:00 -0.6 C 3.76 g/m*3 -0.6 C 4.8 km/h
2648 25-01-2017 17:10:00 -0.6 C 3.72 g/m*3 -0.6 C 3.2 km/h
2649 25-01-2017 17:15:00 -0.6 C 3.72 g/m*3 -0.6 C 4.8 km/h
2650 25-01-2017 17:20:00 -0.6 C 3.76 g/m*3 -0.6 C 1.6 km/h
Sensor: Nr:Datum:Temp:Abs-Feuchte:Windchill:Wind:
Aussen-T/F 2651 25-01-2017 17:25:00 -0.7 C 3.74 g/m*3 -2.99 C 6.4 km/h
2652 25-01-2017 17:30:00 -0.7 C 3.74 g/m*3 -0.7 C 1.6 km/h
2653 25-01-2017 17:35:00 -0.7 C 3.74 g/m*3 -0.7 C 0 km/h
2654 25-01-2017 17:40:00 -0.7 C 3.78 g/m*3 -0.7 C 3.2 km/h
2655 25-01-2017 17:45:00 -0.7 C 3.78 g/m*3 -0.7 C 1.6 km/h
2656 25-01-2017 17:50:00 -0.7 C 3.83 g/m*3 -0.7 C 0 km/h
2657 25-01-2017 17:55:00 -0.8 C 3.76 g/m*3 -0.8 C 3.2 km/h
2658 25-01-2017 18:00:00 -0.8 C 3.8 g/m*3 -0.8 C 0 km/h
2659 25-01-2017 18:05:00 -0.8 C 3.85 g/m*3 -0.8 C 0 km/h
2660 25-01-2017 18:10:00 -0.8 C 3.85 g/m*3 -0.8 C 0 km/h
2661 25-01-2017 18:15:00 -0.9 C 3.82 g/m*3 -0.9 C 0 km/h
2662 25-01-2017 18:20:00 -0.9 C 3.82 g/m*3 -0.9 C 0 km/h
2663 25-01-2017 18:25:00 -0.9 C 3.87 g/m*3 -0.9 C 0 km/h
2664 25-01-2017 18:30:00 -1 C 3.84 g/m*3 -1 C 1.6 km/h
2665 25-01-2017 18:35:00 -1 C 3.84 g/m*3 -1 C 0 km/h
2666 25-01-2017 18:40:00 -1.1 C 3.77 g/m*3 -1.1 C 4.8 km/h
2667 25-01-2017 18:45:00 -1 C 3.75 g/m*3 -1 C 4.8 km/h
2668 25-01-2017 18:50:00 -0.9 C 3.78 g/m*3 -0.9 C 3.2 km/h
2669 25-01-2017 18:55:00 -0.9 C 3.73 g/m*3 -0.9 C 4.8 km/h
2670 25-01-2017 19:00:00 -0.9 C 3.73 g/m*3 -3.22 C 6.4 km/h
2671 25-01-2017 19:05:00 -0.9 C 3.73 g/m*3 -3.83 C 8.1 km/h
2672 25-01-2017 19:10:00 -0.9 C 3.73 g/m*3 -0.9 C 4.8 km/h
2673 25-01-2017 19:15:00 -0.9 C 3.73 g/m*3 -0.9 C 4.8 km/h
2674 25-01-2017 19:20:00 -0.9 C 3.73 g/m*3 -0.9 C 3.2 km/h
2675 25-01-2017 19:25:00 -0.9 C 3.69 g/m*3 -3.83 C 8.1 km/h
Sensor: Nr:Datum:Temp:Abs-Feuchte:Windchill:Wind:
Aussen-T/F 2676 25-01-2017 19:30:00 -0.9 C 3.69 g/m*3 -0.9 C 1.6 km/h
2677 25-01-2017 19:35:00 -0.9 C 3.69 g/m*3 -0.9 C 3.2 km/h
2678 25-01-2017 19:40:00 -1 C 3.66 g/m*3 -1 C 3.2 km/h
2679 25-01-2017 19:45:00 -1 C 3.75 g/m*3 -1 C 1.6 km/h
2680 25-01-2017 19:50:00 -1.1 C 3.68 g/m*3 -1.1 C 3.2 km/h
2681 25-01-2017 19:55:00 -1 C 3.66 g/m*3 -1 C 4.8 km/h
2682 25-01-2017 20:00:00 -1 C 3.66 g/m*3 -1 C 3.2 km/h
2683 25-01-2017 20:05:00 -1 C 3.75 g/m*3 -1 C 1.6 km/h
2684 25-01-2017 20:10:00 -1 C 3.75 g/m*3 -1 C 3.2 km/h
2685 25-01-2017 20:15:00 -1.1 C 3.73 g/m*3 -1.1 C 0 km/h
2686 25-01-2017 20:20:00 -1.1 C 3.68 g/m*3 -1.1 C 0 km/h
2687 25-01-2017 20:25:00 -1.1 C 3.68 g/m*3 -3.45 C 6.4 km/h
2688 25-01-2017 20:30:00 -1.1 C 3.68 g/m*3 -1.1 C 3.2 km/h
2689 25-01-2017 20:35:00 -1.1 C 3.73 g/m*3 -1.1 C 4.8 km/h
2690 25-01-2017 20:40:00 -1.1 C 3.68 g/m*3 -1.1 C 3.2 km/h
2691 25-01-2017 20:45:00 -1.1 C 3.73 g/m*3 -1.1 C 1.6 km/h
2692 25-01-2017 20:50:00 -1.1 C 3.73 g/m*3 -1.1 C 0 km/h
2693 25-01-2017 20:55:00 -1.1 C 3.68 g/m*3 -1.1 C 3.2 km/h
2694 25-01-2017 21:00:00 -1.1 C 3.68 g/m*3 -4.97 C 11.3 km/h
2695 25-01-2017 21:05:00 -1.1 C 3.68 g/m*3 -1.1 C 0 km/h
2696 25-01-2017 21:10:00 -1.1 C 3.73 g/m*3 -1.1 C 0 km/h
2697 25-01-2017 21:15:00 -1.1 C 3.73 g/m*3 -1.1 C 0 km/h
2698 25-01-2017 21:20:00 -1.1 C 3.77 g/m*3 -1.1 C 0 km/h
2699 25-01-2017 21:25:00 -1.1 C 3.77 g/m*3 -1.1 C 0 km/h
2700 25-01-2017 21:30:00 -1.2 C 3.74 g/m*3 -1.2 C 0 km/h
Sensor: Nr:Datum:Temp:Abs-Feuchte:Windchill:Wind:
Aussen-T/F 2701 25-01-2017 21:35:00 -1.2 C 3.74 g/m*3 -1.2 C 3.2 km/h
2702 25-01-2017 21:40:00 -1.2 C 3.79 g/m*3 -1.2 C 0 km/h
2703 25-01-2017 21:45:00 -1.2 C 3.79 g/m*3 -1.2 C 3.2 km/h
2704 25-01-2017 21:50:00 -1.3 C 3.76 g/m*3 -1.3 C 0 km/h
2705 25-01-2017 21:55:00 -1.3 C 3.76 g/m*3 -1.3 C 0 km/h
2706 25-01-2017 22:00:00 -1.3 C 3.76 g/m*3 -1.3 C 0 km/h
2707 25-01-2017 22:05:00 -1.3 C 3.76 g/m*3 -1.3 C 0 km/h
2708 25-01-2017 22:10:00 -1.4 C 3.78 g/m*3 -1.4 C 0 km/h
2709 25-01-2017 22:15:00 -1.4 C 3.74 g/m*3 -1.4 C 0 km/h
2710 25-01-2017 22:20:00 -1.4 C 3.78 g/m*3 -1.4 C 0 km/h
2711 25-01-2017 22:25:00 -1.4 C 3.78 g/m*3 -1.4 C 0 km/h
2712 25-01-2017 22:30:00 -1.5 C 3.75 g/m*3 -1.5 C 0 km/h
2713 25-01-2017 22:35:00 -1.5 C 3.75 g/m*3 -1.5 C 0 km/h
2714 25-01-2017 22:40:00 -1.5 C 3.75 g/m*3 -1.5 C 0 km/h
2715 25-01-2017 22:45:00 -1.5 C 3.75 g/m*3 -1.5 C 0 km/h
2716 25-01-2017 22:50:00 -1.5 C 3.75 g/m*3 -1.5 C 0 km/h
2717 25-01-2017 22:55:00 -1.4 C 3.78 g/m*3 -1.4 C 0 km/h
2718 25-01-2017 23:00:00 -1.4 C 3.78 g/m*3 -1.4 C 0 km/h
2719 25-01-2017 23:05:00 -1.4 C 3.82 g/m*3 -1.4 C 3.2 km/h
2720 25-01-2017 23:10:00 -1.4 C 3.78 g/m*3 -1.4 C 3.2 km/h
2721 25-01-2017 23:15:00 -1.4 C 3.78 g/m*3 -1.4 C 0 km/h
2722 25-01-2017 23:20:00 -1.5 C 3.75 g/m*3 -1.5 C 0 km/h
2723 25-01-2017 23:25:00 -1.5 C 3.75 g/m*3 -1.5 C 3.2 km/h
2724 25-01-2017 23:30:00 -1.6 C 3.73 g/m*3 -1.6 C 4.8 km/h
2725 25-01-2017 23:35:00 -1.5 C 3.75 g/m*3 -1.5 C 4.8 km/h
Sensor: Nr:Datum:Temp:Abs-Feuchte:Windchill:Wind:
Aussen-T/F 2726 25-01-2017 23:40:00 -1.5 C 3.71 g/m*3 -1.5 C 4.8 km/h
2727 25-01-2017 23:45:00 -1.4 C 3.74 g/m*3 -1.4 C 0 km/h
2728 25-01-2017 23:50:00 -1.4 C 3.74 g/m*3 -1.4 C 0 km/h
2729 25-01-2017 23:55:00 -1.4 C 3.78 g/m*3 -1.4 C 0 km/h
2730 26-01-2017 00:00:00 -1.4 C 3.78 g/m*3 -1.4 C 0 km/h
2731 26-01-2017 00:05:00 -1.4 C 3.78 g/m*3 -1.4 C 0 km/h
2732 26-01-2017 00:10:00 -1.4 C 3.74 g/m*3 -1.4 C 0 km/h
2733 26-01-2017 00:15:00 -1.4 C 3.74 g/m*3 -1.4 C 0 km/h
2734 26-01-2017 00:20:00 -1.4 C 3.74 g/m*3 -4.42 C 8.1 km/h
2735 26-01-2017 00:25:00 -1.3 C 3.67 g/m*3 -1.3 C 4.8 km/h
2736 26-01-2017 00:30:00 -1.2 C 3.66 g/m*3 -1.2 C 0 km/h
2737 26-01-2017 00:35:00 -1.2 C 3.7 g/m*3 -1.2 C 1.6 km/h
2738 26-01-2017 00:40:00 -1.1 C 3.73 g/m*3 -1.1 C 1.6 km/h
2739 26-01-2017 00:45:00 -1.1 C 3.68 g/m*3 -1.1 C 1.6 km/h
2740 26-01-2017 00:50:00 -1.1 C 3.68 g/m*3 -1.1 C 0 km/h
2741 26-01-2017 00:55:00 -1.2 C 3.7 g/m*3 -3.57 C 6.4 km/h
2742 26-01-2017 01:00:00 -1.1 C 3.68 g/m*3 -4.55 C 9.7 km/h
2743 26-01-2017 01:05:00 -1 C 3.66 g/m*3 -1 C 3.2 km/h
2744 26-01-2017 01:10:00 -1 C 3.66 g/m*3 -1 C 3.2 km/h
2745 26-01-2017 01:15:00 -1.1 C 3.68 g/m*3 -1.1 C 0 km/h
2746 26-01-2017 01:20:00 -1.3 C 3.63 g/m*3 -4.78 C 9.7 km/h
2747 26-01-2017 01:25:00 -1.4 C 3.6 g/m*3 -1.4 C 4.8 km/h
2748 26-01-2017 01:30:00 -1.6 C 3.6 g/m*3 -1.6 C 0 km/h
2749 26-01-2017 01:35:00 -1.7 C 3.57 g/m*3 -1.7 C 3.2 km/h
2750 26-01-2017 01:40:00 -1.8 C 3.59 g/m*3 -1.8 C 0 km/h
Sensor: Nr:Datum:Temp:Abs-Feuchte:Windchill:Wind:
Aussen-T/F 2751 26-01-2017 01:45:00 -1.9 C 3.57 g/m*3 -1.9 C 0 km/h
2752 26-01-2017 01:50:00 -2 C 3.58 g/m*3 -2 C 0 km/h
2753 26-01-2017 01:55:00 -2.1 C 3.6 g/m*3 -2.1 C 0 km/h
2754 26-01-2017 02:00:00 -2.1 C 3.6 g/m*3 -2.1 C 0 km/h
2755 26-01-2017 02:05:00 -2.1 C 3.64 g/m*3 -2.1 C 0 km/h
2756 26-01-2017 02:10:00 -2.1 C 3.64 g/m*3 -2.1 C 1.6 km/h
2757 26-01-2017 02:15:00 -2 C 3.63 g/m*3 -4.49 C 6.4 km/h
2758 26-01-2017 02:20:00 -1.9 C 3.65 g/m*3 -1.9 C 4.8 km/h
2759 26-01-2017 02:25:00 -1.9 C 3.65 g/m*3 -1.9 C 0 km/h
2760 26-01-2017 02:30:00 -1.9 C 3.65 g/m*3 -1.9 C 0 km/h
2761 26-01-2017 02:35:00 -2 C 3.63 g/m*3 -2 C 0 km/h
2762 26-01-2017 02:40:00 -2.1 C 3.6 g/m*3 -2.1 C 1.6 km/h
2763 26-01-2017 02:45:00 -2.1 C 3.64 g/m*3 -2.1 C 3.2 km/h
2764 26-01-2017 02:50:00 -2.1 C 3.64 g/m*3 -2.1 C 0 km/h
2765 26-01-2017 02:55:00 -2.1 C 3.64 g/m*3 -2.1 C 3.2 km/h
2766 26-01-2017 03:00:00 -2.1 C 3.64 g/m*3 -2.1 C 0 km/h
2767 26-01-2017 03:05:00 -2.1 C 3.6 g/m*3 -2.1 C 0 km/h
2768 26-01-2017 03:10:00 -2.1 C 3.64 g/m*3 -2.1 C 0 km/h
2769 26-01-2017 03:15:00 -2.1 C 3.6 g/m*3 -4.61 C 6.4 km/h
2770 26-01-2017 03:20:00 -2 C 3.63 g/m*3 -2 C 0 km/h
2771 26-01-2017 03:25:00 -2 C 3.63 g/m*3 -2 C 0 km/h
2772 26-01-2017 03:30:00 -2 C 3.67 g/m*3 -2 C 0 km/h
2773 26-01-2017 03:35:00 -2 C 3.67 g/m*3 -2 C 0 km/h
2774 26-01-2017 03:40:00 -2 C 3.67 g/m*3 -2 C 0 km/h
2775 26-01-2017 03:45:00 -2 C 3.67 g/m*3 -2 C 3.2 km/h
Sensor: Nr:Datum:Temp:Abs-Feuchte:Windchill:Wind:
Aussen-T/F 2776 26-01-2017 03:50:00 -1.9 C 3.69 g/m*3 -1.9 C 3.2 km/h
2777 26-01-2017 03:55:00 -2 C 3.67 g/m*3 -2 C 1.6 km/h
2778 26-01-2017 04:00:00 -1.8 C 3.63 g/m*3 -5.38 C 9.7 km/h
2779 26-01-2017 04:05:00 -1.7 C 3.66 g/m*3 -1.7 C 1.6 km/h
2780 26-01-2017 04:10:00 -1.6 C 3.68 g/m*3 -1.6 C 1.6 km/h
2781 26-01-2017 04:15:00 -1.6 C 3.68 g/m*3 -1.6 C 4.8 km/h
2782 26-01-2017 04:20:00 -1.7 C 3.66 g/m*3 -1.7 C 0 km/h
2783 26-01-2017 04:25:00 -1.7 C 3.7 g/m*3 -1.7 C 1.6 km/h
2784 26-01-2017 04:30:00 -1.7 C 3.66 g/m*3 -1.7 C 4.8 km/h
2785 26-01-2017 04:35:00 -1.6 C 3.64 g/m*3 -1.6 C 4.8 km/h
2786 26-01-2017 04:40:00 -1.6 C 3.64 g/m*3 -1.6 C 4.8 km/h
2787 26-01-2017 04:45:00 -1.5 C 3.62 g/m*3 -3.91 C 6.4 km/h
2788 26-01-2017 04:50:00 -1.4 C 3.65 g/m*3 -1.4 C 4.8 km/h
2789 26-01-2017 04:55:00 -1.4 C 3.65 g/m*3 -1.4 C 1.6 km/h
2790 26-01-2017 05:00:00 -1.4 C 3.69 g/m*3 -1.4 C 1.6 km/h
2791 26-01-2017 05:05:00 -1.4 C 3.69 g/m*3 -1.4 C 3.2 km/h
2792 26-01-2017 05:10:00 -1.4 C 3.65 g/m*3 -1.4 C 4.8 km/h
2793 26-01-2017 05:15:00 -1.4 C 3.65 g/m*3 -1.4 C 4.8 km/h
2794 26-01-2017 05:20:00 -1.4 C 3.65 g/m*3 -1.4 C 4.8 km/h
2795 26-01-2017 05:25:00 -1.4 C 3.65 g/m*3 -1.4 C 3.2 km/h
2796 26-01-2017 05:30:00 -1.3 C 3.67 g/m*3 -1.3 C 4.8 km/h
2797 26-01-2017 05:35:00 -1.3 C 3.67 g/m*3 -1.3 C 3.2 km/h
2798 26-01-2017 05:40:00 -1.3 C 3.63 g/m*3 -1.3 C 4.8 km/h
2799 26-01-2017 05:45:00 -1.3 C 3.67 g/m*3 -1.3 C 0 km/h
2800 26-01-2017 05:50:00 -1.3 C 3.63 g/m*3 -1.3 C 3.2 km/h
Sensor: Nr:Datum:Temp:Abs-Feuchte:Windchill:Wind:
Aussen-T/F 2801 26-01-2017 05:55:00 -1.3 C 3.67 g/m*3 -1.3 C 0 km/h
2802 26-01-2017 06:00:00 -1.3 C 3.67 g/m*3 -1.3 C 1.6 km/h
2803 26-01-2017 06:05:00 -1.3 C 3.67 g/m*3 -1.3 C 3.2 km/h
2804 26-01-2017 06:10:00 -1.3 C 3.67 g/m*3 -1.3 C 3.2 km/h
2805 26-01-2017 06:15:00 -1.3 C 3.67 g/m*3 -1.3 C 1.6 km/h
2806 26-01-2017 06:20:00 -1.3 C 3.67 g/m*3 -1.3 C 3.2 km/h
2807 26-01-2017 06:25:00 -1.3 C 3.67 g/m*3 -1.3 C 1.6 km/h
2808 26-01-2017 06:30:00 -1.3 C 3.67 g/m*3 -1.3 C 0 km/h
2809 26-01-2017 06:35:00 -1.3 C 3.72 g/m*3 -1.3 C 0 km/h
2810 26-01-2017 06:40:00 -1.3 C 3.72 g/m*3 -1.3 C 4.8 km/h
2811 26-01-2017 06:45:00 -1.3 C 3.67 g/m*3 -1.3 C 4.8 km/h
2812 26-01-2017 06:50:00 -1.3 C 3.63 g/m*3 -1.3 C 4.8 km/h
2813 26-01-2017 06:55:00 -1.3 C 3.67 g/m*3 -1.3 C 1.6 km/h
2814 26-01-2017 07:00:00 -1.3 C 3.63 g/m*3 -1.3 C 4.8 km/h
2815 26-01-2017 07:05:00 -1.2 C 3.66 g/m*3 -1.2 C 4.8 km/h
2816 26-01-2017 07:10:00 -1.3 C 3.63 g/m*3 -3.68 C 6.4 km/h
2817 26-01-2017 07:15:00 -1.2 C 3.66 g/m*3 -1.2 C 3.2 km/h
2818 26-01-2017 07:20:00 -1.2 C 3.66 g/m*3 -1.2 C 3.2 km/h
2819 26-01-2017 07:25:00 -1.3 C 3.67 g/m*3 -1.3 C 3.2 km/h
2820 26-01-2017 07:30:00 -1.3 C 3.67 g/m*3 -1.3 C 0 km/h
2821 26-01-2017 07:35:00 -1.3 C 3.67 g/m*3 -1.3 C 1.6 km/h
2822 26-01-2017 07:40:00 -1.4 C 3.65 g/m*3 -1.4 C 1.6 km/h
2823 26-01-2017 07:45:00 -1.4 C 3.65 g/m*3 -1.4 C 4.8 km/h
2824 26-01-2017 07:50:00 -1.4 C 3.65 g/m*3 -1.4 C 1.6 km/h
2825 26-01-2017 07:55:00 -1.4 C 3.65 g/m*3 -1.4 C 4.8 km/h
Sensor: Nr:Datum:Temp:Abs-Feuchte:Windchill:Wind:
Aussen-T/F 2826 26-01-2017 08:00:00 -1.5 C 3.62 g/m*3 -1.5 C 1.6 km/h
2827 26-01-2017 08:05:00 -1.5 C 3.62 g/m*3 -1.5 C 4.8 km/h
2828 26-01-2017 08:10:00 -1.5 C 3.62 g/m*3 -1.5 C 3.2 km/h
2829 26-01-2017 08:15:00 -1.5 C 3.62 g/m*3 -1.5 C 3.2 km/h
2830 26-01-2017 08:20:00 -1.5 C 3.62 g/m*3 -1.5 C 1.6 km/h
2831 26-01-2017 08:25:00 -1.5 C 3.67 g/m*3 -1.5 C 1.6 km/h
2832 26-01-2017 08:30:00 -1.5 C 3.67 g/m*3 -1.5 C 0 km/h
2833 26-01-2017 08:35:00 -1.5 C 3.67 g/m*3 -1.5 C 0 km/h
2834 26-01-2017 08:40:00 -1.5 C 3.67 g/m*3 -1.5 C 0 km/h
2835 26-01-2017 08:45:00 -1.5 C 3.71 g/m*3 -1.5 C 0 km/h
2836 26-01-2017 08:50:00 -1.5 C 3.71 g/m*3 -1.5 C 0 km/h
2837 26-01-2017 08:55:00 -1.6 C 3.68 g/m*3 -1.6 C 1.6 km/h
2838 26-01-2017 09:00:00 -1.5 C 3.71 g/m*3 -1.5 C 0 km/h
2839 26-01-2017 09:05:00 -1.5 C 3.71 g/m*3 -1.5 C 1.6 km/h
2840 26-01-2017 09:10:00 -1.4 C 3.74 g/m*3 -1.4 C 0 km/h
2841 26-01-2017 09:15:00 -1.4 C 3.69 g/m*3 -1.4 C 3.2 km/h
2842 26-01-2017 09:20:00 -1.3 C 3.72 g/m*3 -1.3 C 0 km/h
2843 26-01-2017 09:25:00 -1.3 C 3.72 g/m*3 -1.3 C 0 km/h
2844 26-01-2017 09:30:00 -1.2 C 3.7 g/m*3 -1.2 C 3.2 km/h
2845 26-01-2017 09:35:00 -1.1 C 3.68 g/m*3 -1.1 C 0 km/h
2846 26-01-2017 09:40:00 -1.1 C 3.68 g/m*3 -3.45 C 6.4 km/h
2847 26-01-2017 09:45:00 -1 C 3.71 g/m*3 -1 C 1.6 km/h
2848 26-01-2017 09:50:00 -0.9 C 3.73 g/m*3 -0.9 C 1.6 km/h
2849 26-01-2017 09:55:00 -0.9 C 3.69 g/m*3 -0.9 C 3.2 km/h
2850 26-01-2017 10:00:00 -0.9 C 3.69 g/m*3 -0.9 C 1.6 km/h
Sensor: Nr:Datum:Temp:Abs-Feuchte:Windchill:Wind:
Aussen-T/F 2851 26-01-2017 10:05:00 -0.8 C 3.71 g/m*3 -3.71 C 8.1 km/h
2852 26-01-2017 10:10:00 -0.8 C 3.67 g/m*3 -0.8 C 4.8 km/h
2853 26-01-2017 10:15:00 -0.8 C 3.67 g/m*3 -4.6 C 11.3 km/h
2854 26-01-2017 10:20:00 -0.7 C 3.69 g/m*3 -4.07 C 9.7 km/h
2855 26-01-2017 10:25:00 -0.7 C 3.65 g/m*3 -2.99 C 6.4 km/h
2856 26-01-2017 10:30:00 -0.7 C 3.69 g/m*3 -2.99 C 6.4 km/h
2857 26-01-2017 10:35:00 -0.7 C 3.69 g/m*3 -0.7 C 3.2 km/h
2858 26-01-2017 10:40:00 -0.6 C 3.72 g/m*3 -2.88 C 6.4 km/h
2859 26-01-2017 10:45:00 -0.6 C 3.72 g/m*3 -2.88 C 6.4 km/h
2860 26-01-2017 10:50:00 -0.5 C 3.74 g/m*3 -0.5 C 3.2 km/h
2861 26-01-2017 10:55:00 -0.4 C 3.72 g/m*3 -3.24 C 8.1 km/h
2862 26-01-2017 11:00:00 -0.4 C 3.72 g/m*3 -3.24 C 8.1 km/h
2863 26-01-2017 11:05:00 -0.4 C 3.68 g/m*3 -2.64 C 6.4 km/h
2864 26-01-2017 11:10:00 -0.4 C 3.68 g/m*3 -0.4 C 3.2 km/h
2865 26-01-2017 11:15:00 -0.4 C 3.68 g/m*3 -0.4 C 1.6 km/h
2866 26-01-2017 11:20:00 -0.3 C 3.7 g/m*3 -0.3 C 4.8 km/h
2867 26-01-2017 11:25:00 -0.3 C 3.7 g/m*3 -0.3 C 4.8 km/h
2868 26-01-2017 11:30:00 -0.4 C 3.68 g/m*3 -0.4 C 4.8 km/h
2869 26-01-2017 11:35:00 -0.4 C 3.68 g/m*3 -2.64 C 6.4 km/h
2870 26-01-2017 11:40:00 -0.4 C 3.68 g/m*3 -3.71 C 9.7 km/h
2871 26-01-2017 11:45:00 -0.4 C 3.68 g/m*3 -2.64 C 6.4 km/h
2872 26-01-2017 11:50:00 -0.4 C 3.72 g/m*3 -0.4 C 0 km/h
2873 26-01-2017 11:55:00 -0.4 C 3.68 g/m*3 -3.71 C 9.7 km/h
2874 26-01-2017 12:00:00 -0.4 C 3.68 g/m*3 -0.4 C 1.6 km/h
2875 26-01-2017 12:05:00 -0.4 C 3.68 g/m*3 -0.4 C 4.8 km/h
Sensor: Nr:Datum:Temp:Abs-Feuchte:Windchill:Wind:
Aussen-T/F 2876 26-01-2017 12:10:00 -0.4 C 3.68 g/m*3 -3.24 C 8.1 km/h
2877 26-01-2017 12:15:00 -0.4 C 3.68 g/m*3 -0.4 C 4.8 km/h
2878 26-01-2017 12:20:00 -0.4 C 3.68 g/m*3 -4.81 C 14.5 km/h
2879 26-01-2017 12:25:00 -0.4 C 3.68 g/m*3 -4.12 C 11.3 km/h
2880 26-01-2017 12:30:00 -0.3 C 3.7 g/m*3 -0.3 C 3.2 km/h
2881 26-01-2017 12:35:00 -0.3 C 3.7 g/m*3 -0.3 C 0 km/h
2882 26-01-2017 12:40:00 -0.3 C 3.7 g/m*3 -3.12 C 8.1 km/h
2883 26-01-2017 12:45:00 -0.3 C 3.7 g/m*3 -0.3 C 4.8 km/h
2884 26-01-2017 12:50:00 -0.2 C 3.68 g/m*3 -3.47 C 9.7 km/h
2885 26-01-2017 12:55:00 -0.2 C 3.68 g/m*3 -0.2 C 3.2 km/h
2886 26-01-2017 13:00:00 -0.1 C 3.75 g/m*3 -0.1 C 3.2 km/h
2887 26-01-2017 13:05:00 -0.1 C 3.75 g/m*3 -0.1 C 4.8 km/h
2888 26-01-2017 13:10:00 -0.1 C 3.71 g/m*3 -2.3 C 6.4 km/h
2889 26-01-2017 13:15:00 -0.1 C 3.71 g/m*3 -2.89 C 8.1 km/h
2890 26-01-2017 13:20:00 0.1 C 3.71 g/m*3 0.1 C 4.8 km/h
2891 26-01-2017 13:25:00 0.1 C 3.76 g/m*3 0.1 C 3.2 km/h
2892 26-01-2017 13:30:00 0.1 C 3.71 g/m*3 -2.07 C 6.4 km/h
2893 26-01-2017 13:35:00 0.2 C 3.73 g/m*3 0.2 C 0 km/h
2894 26-01-2017 13:40:00 0.2 C 3.78 g/m*3 0.2 C 0 km/h
2895 26-01-2017 13:45:00 0.1 C 3.76 g/m*3 0.1 C 4.8 km/h
2896 26-01-2017 13:50:00 0.2 C 3.78 g/m*3 0.2 C 3.2 km/h
2897 26-01-2017 13:55:00 0.3 C 3.81 g/m*3 0.3 C 3.2 km/h
2898 26-01-2017 14:00:00 0.2 C 3.78 g/m*3 0.2 C 1.6 km/h
2899 26-01-2017 14:05:00 0.3 C 3.81 g/m*3 0.3 C 4.8 km/h
2900 26-01-2017 14:10:00 0.3 C 3.86 g/m*3 0.3 C 1.6 km/h
Sensor: Nr:Datum:Temp:Abs-Feuchte:Windchill:Wind:
Aussen-T/F 2901 26-01-2017 14:15:00 0.1 C 3.85 g/m*3 0.1 C 0 km/h
2902 26-01-2017 14:20:00 0.1 C 3.85 g/m*3 0.1 C 3.2 km/h
2903 26-01-2017 14:25:00 -0.1 C 3.9 g/m*3 -0.1 C 1.6 km/h
2904 26-01-2017 14:30:00 -0.1 C 3.9 g/m*3 -0.1 C 0 km/h
2905 26-01-2017 14:35:00 -0.2 C 3.87 g/m*3 -0.2 C 3.2 km/h
2906 26-01-2017 14:40:00 -0.2 C 3.87 g/m*3 -0.2 C 0 km/h
2907 26-01-2017 14:45:00 -0.2 C 3.92 g/m*3 -0.2 C 0 km/h
2908 26-01-2017 14:50:00 -0.2 C 3.87 g/m*3 -0.2 C 3.2 km/h
2909 26-01-2017 14:55:00 -0.2 C 3.92 g/m*3 -0.2 C 0 km/h
2910 26-01-2017 15:00:00 -0.2 C 3.87 g/m*3 -0.2 C 3.2 km/h
2911 26-01-2017 15:05:00 -0.1 C 3.9 g/m*3 -0.1 C 0 km/h
2912 26-01-2017 15:10:00 -0.2 C 3.87 g/m*3 -0.2 C 0 km/h
2913 26-01-2017 15:15:00 -0.2 C 3.92 g/m*3 -0.2 C 1.6 km/h
2914 26-01-2017 15:20:00 -0.2 C 3.92 g/m*3 -2.41 C 6.4 km/h
2915 26-01-2017 15:25:00 -0.2 C 3.97 g/m*3 -0.2 C 3.2 km/h
2916 26-01-2017 15:30:00 -0.2 C 3.97 g/m*3 -0.2 C 4.8 km/h
2917 26-01-2017 15:35:00 -0.3 C 3.89 g/m*3 -0.3 C 0 km/h
2918 26-01-2017 15:40:00 -0.2 C 3.92 g/m*3 -0.2 C 0 km/h
2919 26-01-2017 15:45:00 -0.2 C 3.97 g/m*3 -0.2 C 3.2 km/h
2920 26-01-2017 15:50:00 -0.3 C 3.99 g/m*3 -0.3 C 3.2 km/h
2921 26-01-2017 15:55:00 -0.3 C 3.94 g/m*3 -0.3 C 3.2 km/h
2922 26-01-2017 16:00:00 -0.4 C 3.91 g/m*3 -0.4 C 3.2 km/h
2923 26-01-2017 16:05:00 -0.4 C 3.96 g/m*3 -0.4 C 3.2 km/h
2924 26-01-2017 16:10:00 -0.5 C 3.93 g/m*3 -0.5 C 4.8 km/h
2925 26-01-2017 16:15:00 -0.5 C 3.93 g/m*3 -0.5 C 3.2 km/h
Sensor: Nr:Datum:Temp:Abs-Feuchte:Windchill:Wind:
Aussen-T/F 2926 26-01-2017 16:20:00 -0.6 C 3.95 g/m*3 -0.6 C 1.6 km/h
2927 26-01-2017 16:25:00 -0.6 C 3.95 g/m*3 -0.6 C 4.8 km/h
2928 26-01-2017 16:30:00 -0.7 C 3.92 g/m*3 -0.7 C 4.8 km/h
2929 26-01-2017 16:35:00 -0.7 C 3.92 g/m*3 -0.7 C 4.8 km/h
2930 26-01-2017 16:40:00 -0.7 C 3.92 g/m*3 -0.7 C 4.8 km/h
2931 26-01-2017 16:45:00 -0.8 C 3.9 g/m*3 -0.8 C 0 km/h
2932 26-01-2017 16:50:00 -0.8 C 3.94 g/m*3 -3.11 C 6.4 km/h
2933 26-01-2017 16:55:00 -0.9 C 3.91 g/m*3 -3.22 C 6.4 km/h
2934 26-01-2017 17:00:00 -1 C 3.89 g/m*3 -3.34 C 6.4 km/h
2935 26-01-2017 17:05:00 -1.1 C 3.86 g/m*3 -1.1 C 4.8 km/h
2936 26-01-2017 17:10:00 -1.1 C 3.86 g/m*3 -3.45 C 6.4 km/h
2937 26-01-2017 17:15:00 -1.2 C 3.83 g/m*3 -1.2 C 4.8 km/h
2938 26-01-2017 17:20:00 -1.3 C 3.81 g/m*3 -1.3 C 4.8 km/h
2939 26-01-2017 17:25:00 -1.3 C 3.85 g/m*3 -3.68 C 6.4 km/h
2940 26-01-2017 17:30:00 -1.3 C 3.85 g/m*3 -3.68 C 6.4 km/h
2941 26-01-2017 17:35:00 -1.4 C 3.82 g/m*3 -3.8 C 6.4 km/h
2942 26-01-2017 17:40:00 -1.4 C 3.82 g/m*3 -3.8 C 6.4 km/h
2943 26-01-2017 17:45:00 -1.5 C 3.8 g/m*3 -1.5 C 4.8 km/h
2944 26-01-2017 17:50:00 -1.5 C 3.8 g/m*3 -3.91 C 6.4 km/h
2945 26-01-2017 17:55:00 -1.4 C 3.82 g/m*3 -1.4 C 4.8 km/h
2946 26-01-2017 18:00:00 -1.5 C 3.8 g/m*3 -1.5 C 4.8 km/h
2947 26-01-2017 18:05:00 -1.6 C 3.77 g/m*3 -4.03 C 6.4 km/h
2948 26-01-2017 18:10:00 -1.5 C 3.8 g/m*3 -3.91 C 6.4 km/h
2949 26-01-2017 18:15:00 -1.5 C 3.8 g/m*3 -1.5 C 4.8 km/h
2950 26-01-2017 18:20:00 -1.6 C 3.77 g/m*3 -1.6 C 4.8 km/h
Sensor: Nr:Datum:Temp:Abs-Feuchte:Windchill:Wind:
Aussen-T/F 2951 26-01-2017 18:25:00 -1.6 C 3.77 g/m*3 -1.6 C 4.8 km/h
2952 26-01-2017 18:30:00 -1.7 C 3.75 g/m*3 -1.7 C 4.8 km/h
2953 26-01-2017 18:35:00 -1.7 C 3.75 g/m*3 -1.7 C 4.8 km/h
2954 26-01-2017 18:40:00 -1.8 C 3.76 g/m*3 -1.8 C 4.8 km/h
2955 26-01-2017 18:45:00 -1.8 C 3.76 g/m*3 -1.8 C 4.8 km/h
2956 26-01-2017 18:50:00 -1.8 C 3.76 g/m*3 -1.8 C 4.8 km/h
2957 26-01-2017 18:55:00 -1.9 C 3.74 g/m*3 -1.9 C 4.8 km/h
2958 26-01-2017 19:00:00 -2 C 3.71 g/m*3 -2 C 4.8 km/h
2959 26-01-2017 19:05:00 -2.1 C 3.68 g/m*3 -2.1 C 0 km/h
2960 26-01-2017 19:10:00 -2.3 C 3.59 g/m*3 -2.3 C 0 km/h
2961 26-01-2017 19:15:00 -2.4 C 3.57 g/m*3 -2.4 C 0 km/h
2962 26-01-2017 19:20:00 -2.6 C 3.56 g/m*3 -2.6 C 0 km/h
2963 26-01-2017 19:25:00 -2.6 C 3.56 g/m*3 -2.6 C 0 km/h
2964 26-01-2017 19:30:00 -2.8 C 3.51 g/m*3 -2.8 C 3.2 km/h
2965 26-01-2017 19:35:00 -2.8 C 3.55 g/m*3 -2.8 C 3.2 km/h
2966 26-01-2017 19:40:00 -2.9 C 3.52 g/m*3 -2.9 C 0 km/h
2967 26-01-2017 19:45:00 -3 C 3.5 g/m*3 -3 C 0 km/h
2968 26-01-2017 19:50:00 -3.1 C 3.47 g/m*3 -3.1 C 0 km/h
2969 26-01-2017 19:55:00 -3.2 C 3.45 g/m*3 -3.2 C 0 km/h
2970 26-01-2017 20:00:00 -3.3 C 3.42 g/m*3 -3.3 C 0 km/h
2971 26-01-2017 20:05:00 -3.4 C 3.44 g/m*3 -3.4 C 0 km/h
2972 26-01-2017 20:10:00 -3.4 C 3.44 g/m*3 -3.4 C 0 km/h
2973 26-01-2017 20:15:00 -3.6 C 3.35 g/m*3 -3.6 C 0 km/h
2974 26-01-2017 20:20:00 -3.7 C 3.33 g/m*3 -3.7 C 0 km/h
2975 26-01-2017 20:25:00 -3.7 C 3.36 g/m*3 -3.7 C 0 km/h
Sensor: Nr:Datum:Temp:Abs-Feuchte:Windchill:Wind:
Aussen-T/F 2976 26-01-2017 20:30:00 -3.7 C 3.4 g/m*3 -3.7 C 0 km/h
2977 26-01-2017 20:35:00 -3.7 C 3.4 g/m*3 -3.7 C 0 km/h
2978 26-01-2017 20:40:00 -3.8 C 3.34 g/m*3 -3.8 C 0 km/h
2979 26-01-2017 20:45:00 -3.9 C 3.35 g/m*3 -3.9 C 0 km/h
2980 26-01-2017 20:50:00 -3.9 C 3.35 g/m*3 -3.9 C 3.2 km/h
2981 26-01-2017 20:55:00 -3.9 C 3.35 g/m*3 -3.9 C 0 km/h
2982 26-01-2017 21:00:00 -4 C 3.33 g/m*3 -4 C 1.6 km/h
2983 26-01-2017 21:05:00 -4.1 C 3.31 g/m*3 -4.1 C 0 km/h
2984 26-01-2017 21:10:00 -4.2 C 3.28 g/m*3 -4.2 C 0 km/h
2985 26-01-2017 21:15:00 -4.3 C 3.26 g/m*3 -4.3 C 0 km/h
2986 26-01-2017 21:20:00 -4.3 C 3.26 g/m*3 -4.3 C 0 km/h
2987 26-01-2017 21:25:00 -4.4 C 3.24 g/m*3 -4.4 C 0 km/h
2988 26-01-2017 21:30:00 -4.5 C 3.21 g/m*3 -4.5 C 0 km/h
2989 26-01-2017 21:35:00 -4.6 C 3.19 g/m*3 -4.6 C 0 km/h
2990 26-01-2017 21:40:00 -4.5 C 3.25 g/m*3 -4.5 C 0 km/h
2991 26-01-2017 21:45:00 -4.5 C 3.25 g/m*3 -4.5 C 0 km/h
2992 26-01-2017 21:50:00 -4.6 C 3.22 g/m*3 -4.6 C 0 km/h
2993 26-01-2017 21:55:00 -4.7 C 3.2 g/m*3 -4.7 C 0 km/h
2994 26-01-2017 22:00:00 -4.8 C 3.14 g/m*3 -4.8 C 0 km/h
2995 26-01-2017 22:05:00 -4.8 C 3.18 g/m*3 -4.8 C 0 km/h
2996 26-01-2017 22:10:00 -4.7 C 3.2 g/m*3 -4.7 C 0 km/h
2997 26-01-2017 22:15:00 -4.8 C 3.18 g/m*3 -4.8 C 0 km/h
2998 26-01-2017 22:20:00 -4.8 C 3.18 g/m*3 -4.8 C 0 km/h
2999 26-01-2017 22:25:00 -4.9 C 3.16 g/m*3 -4.9 C 0 km/h
3000 26-01-2017 22:30:00 -5 C 3.13 g/m*3 -5 C 0 km/h
Sensor: Nr:Datum:Temp:Abs-Feuchte:Windchill:Wind:
Aussen-T/F 3001 26-01-2017 22:35:00 -5.1 C 3.11 g/m*3 -5.1 C 0 km/h
3002 26-01-2017 22:40:00 -5.1 C 3.11 g/m*3 -5.1 C 0 km/h
3003 26-01-2017 22:45:00 -5.1 C 3.11 g/m*3 -5.1 C 1.6 km/h
3004 26-01-2017 22:50:00 -5.1 C 3.14 g/m*3 -5.1 C 0 km/h
3005 26-01-2017 22:55:00 -5.1 C 3.14 g/m*3 -5.1 C 1.6 km/h
3006 26-01-2017 23:00:00 -5.1 C 3.11 g/m*3 -5.1 C 1.6 km/h
3007 26-01-2017 23:05:00 -5.1 C 3.14 g/m*3 -5.1 C 0 km/h
3008 26-01-2017 23:10:00 -5.1 C 3.14 g/m*3 -5.1 C 0 km/h
3009 26-01-2017 23:15:00 -5.1 C 3.14 g/m*3 -5.1 C 0 km/h
3010 26-01-2017 23:20:00 -5.2 C 3.12 g/m*3 -5.2 C 0 km/h
3011 26-01-2017 23:25:00 -5.2 C 3.12 g/m*3 -5.2 C 0 km/h
3012 26-01-2017 23:30:00 -5.3 C 3.07 g/m*3 -5.3 C 0 km/h
3013 26-01-2017 23:35:00 -5.4 C 3.04 g/m*3 -5.4 C 0 km/h
3014 26-01-2017 23:40:00 -5.4 C 3.08 g/m*3 -5.4 C 0 km/h
3015 26-01-2017 23:45:00 -5.6 C 3 g/m*3 -5.6 C 0 km/h
3016 26-01-2017 23:50:00 -5.5 C 3.05 g/m*3 -5.5 C 0 km/h
3017 26-01-2017 23:55:00 -5.4 C 3.08 g/m*3 -5.4 C 0 km/h
3018 27-01-2017 00:00:00 -5.6 C 3.03 g/m*3 -5.6 C 0 km/h
3019 27-01-2017 00:05:00 -5.7 C 2.98 g/m*3 -5.7 C 0 km/h
3020 27-01-2017 00:10:00 -5.7 C 3.01 g/m*3 -5.7 C 0 km/h
3021 27-01-2017 00:15:00 -5.8 C 2.99 g/m*3 -5.8 C 0 km/h
3022 27-01-2017 00:20:00 -5.8 C 2.99 g/m*3 -5.8 C 0 km/h
3023 27-01-2017 00:25:00 -5.8 C 2.99 g/m*3 -5.8 C 0 km/h
3024 27-01-2017 00:30:00 -5.8 C 2.99 g/m*3 -5.8 C 0 km/h
3025 27-01-2017 00:35:00 -5.8 C 2.99 g/m*3 -5.8 C 0 km/h
Sensor: Nr:Datum:Temp:Abs-Feuchte:Windchill:Wind:
Aussen-T/F 3026 27-01-2017 00:40:00 -5.8 C 2.99 g/m*3 -5.8 C 0 km/h
3027 27-01-2017 00:45:00 -5.9 C 2.97 g/m*3 -5.9 C 0 km/h
3028 27-01-2017 00:50:00 -5.9 C 2.97 g/m*3 -5.9 C 0 km/h
3029 27-01-2017 00:55:00 -5.9 C 2.97 g/m*3 -5.9 C 0 km/h
3030 27-01-2017 01:00:00 -6 C 2.95 g/m*3 -6 C 0 km/h
3031 27-01-2017 01:05:00 -6 C 2.95 g/m*3 -6 C 0 km/h
3032 27-01-2017 01:10:00 -6.1 C 2.92 g/m*3 -6.1 C 0 km/h
3033 27-01-2017 01:15:00 -6 C 2.95 g/m*3 -6 C 0 km/h
3034 27-01-2017 01:20:00 -6.1 C 2.92 g/m*3 -6.1 C 0 km/h
3035 27-01-2017 01:25:00 -6 C 2.95 g/m*3 -6 C 1.6 km/h
3036 27-01-2017 01:30:00 -5.9 C 3 g/m*3 -5.9 C 3.2 km/h
3037 27-01-2017 01:35:00 -5.8 C 3.02 g/m*3 -5.8 C 3.2 km/h
3038 27-01-2017 01:40:00 -5.7 C 3.04 g/m*3 -5.7 C 0 km/h
3039 27-01-2017 01:45:00 -5.6 C 3.06 g/m*3 -5.6 C 0 km/h
3040 27-01-2017 01:50:00 -5.7 C 3.01 g/m*3 -5.7 C 0 km/h
3041 27-01-2017 01:55:00 -5.8 C 2.99 g/m*3 -5.8 C 1.6 km/h
3042 27-01-2017 02:00:00 -5.9 C 2.97 g/m*3 -5.9 C 1.6 km/h
3043 27-01-2017 02:05:00 -6 C 2.95 g/m*3 -6 C 0 km/h
3044 27-01-2017 02:10:00 -6.1 C 2.92 g/m*3 -6.1 C 0 km/h
3045 27-01-2017 02:15:00 -6.1 C 2.92 g/m*3 -6.1 C 0 km/h
3046 27-01-2017 02:20:00 -6.1 C 2.92 g/m*3 -6.1 C 0 km/h
3047 27-01-2017 02:25:00 -6.2 C 2.9 g/m*3 -6.2 C 0 km/h
3048 27-01-2017 02:30:00 -6.2 C 2.9 g/m*3 -6.2 C 0 km/h
3049 27-01-2017 02:35:00 -6.2 C 2.9 g/m*3 -6.2 C 0 km/h
3050 27-01-2017 02:40:00 -6.2 C 2.9 g/m*3 -6.2 C 0 km/h
Sensor: Nr:Datum:Temp:Abs-Feuchte:Windchill:Wind:
Aussen-T/F 3051 27-01-2017 02:45:00 -6.2 C 2.9 g/m*3 -6.2 C 1.6 km/h
3052 27-01-2017 02:50:00 -6.3 C 2.88 g/m*3 -6.3 C 0 km/h
3053 27-01-2017 02:55:00 -6.3 C 2.88 g/m*3 -6.3 C 0 km/h
3054 27-01-2017 03:00:00 -6.3 C 2.88 g/m*3 -6.3 C 0 km/h
3055 27-01-2017 03:05:00 -6.4 C 2.86 g/m*3 -6.4 C 0 km/h
3056 27-01-2017 03:10:00 -6.6 C 2.82 g/m*3 -6.6 C 0 km/h
3057 27-01-2017 03:15:00 -6.7 C 2.8 g/m*3 -6.7 C 0 km/h
3058 27-01-2017 03:20:00 -6.7 C 2.8 g/m*3 -6.7 C 0 km/h
3059 27-01-2017 03:25:00 -6.8 C 2.78 g/m*3 -6.8 C 0 km/h
3060 27-01-2017 03:30:00 -6.8 C 2.78 g/m*3 -6.8 C 0 km/h
3061 27-01-2017 03:35:00 -6.8 C 2.78 g/m*3 -6.8 C 0 km/h
3062 27-01-2017 03:40:00 -6.8 C 2.78 g/m*3 -6.8 C 0 km/h
3063 27-01-2017 03:45:00 -6.8 C 2.81 g/m*3 -6.8 C 0 km/h
3064 27-01-2017 03:50:00 -6.7 C 2.83 g/m*3 -6.7 C 0 km/h
3065 27-01-2017 03:55:00 -6.7 C 2.83 g/m*3 -6.7 C 0 km/h
3066 27-01-2017 04:00:00 -6.8 C 2.81 g/m*3 -6.8 C 0 km/h
3067 27-01-2017 04:05:00 -6.8 C 2.78 g/m*3 -6.8 C 0 km/h
3068 27-01-2017 04:10:00 -6.9 C 2.76 g/m*3 -6.9 C 0 km/h
3069 27-01-2017 04:15:00 -6.9 C 2.79 g/m*3 -6.9 C 0 km/h
3070 27-01-2017 04:20:00 -6.8 C 2.81 g/m*3 -6.8 C 0 km/h
3071 27-01-2017 04:25:00 -6.8 C 2.81 g/m*3 -6.8 C 0 km/h
3072 27-01-2017 04:30:00 -6.8 C 2.81 g/m*3 -6.8 C 0 km/h
3073 27-01-2017 04:35:00 -6.8 C 2.81 g/m*3 -6.8 C 0 km/h
3074 27-01-2017 04:40:00 -6.8 C 2.81 g/m*3 -6.8 C 0 km/h
3075 27-01-2017 04:45:00 -6.8 C 2.81 g/m*3 -6.8 C 0 km/h
Sensor: Nr:Datum:Temp:Abs-Feuchte:Windchill:Wind:
Aussen-T/F 3076 27-01-2017 04:50:00 -6.9 C 2.79 g/m*3 -6.9 C 0 km/h
3077 27-01-2017 04:55:00 -7 C 2.77 g/m*3 -7 C 0 km/h
3078 27-01-2017 05:00:00 -7.1 C 2.75 g/m*3 -7.1 C 0 km/h
3079 27-01-2017 05:05:00 -7.1 C 2.75 g/m*3 -7.1 C 0 km/h
3080 27-01-2017 05:10:00 -7.1 C 2.75 g/m*3 -7.1 C 1.6 km/h
3081 27-01-2017 05:15:00 -7 C 2.77 g/m*3 -7 C 0 km/h
3082 27-01-2017 05:20:00 -6.9 C 2.79 g/m*3 -6.9 C 0 km/h
3083 27-01-2017 05:25:00 -6.8 C 2.81 g/m*3 -6.8 C 0 km/h
3084 27-01-2017 05:30:00 -6.9 C 2.79 g/m*3 -6.9 C 0 km/h
3085 27-01-2017 05:35:00 -6.9 C 2.79 g/m*3 -6.9 C 0 km/h
3086 27-01-2017 05:40:00 -7.1 C 2.75 g/m*3 -7.1 C 0 km/h
3087 27-01-2017 05:45:00 -7.1 C 2.75 g/m*3 -7.1 C 0 km/h
3088 27-01-2017 05:50:00 -7.1 C 2.75 g/m*3 -7.1 C 0 km/h
3089 27-01-2017 05:55:00 -7.2 C 2.73 g/m*3 -7.2 C 0 km/h
3090 27-01-2017 06:00:00 -7.2 C 2.73 g/m*3 -7.2 C 0 km/h
3091 27-01-2017 06:05:00 -7.2 C 2.73 g/m*3 -7.2 C 0 km/h
3092 27-01-2017 06:10:00 -7.1 C 2.75 g/m*3 -7.1 C 0 km/h
3093 27-01-2017 06:15:00 -7.1 C 2.75 g/m*3 -7.1 C 0 km/h
3094 27-01-2017 06:20:00 -7.1 C 2.75 g/m*3 -7.1 C 0 km/h
3095 27-01-2017 06:25:00 -7.1 C 2.75 g/m*3 -7.1 C 0 km/h
3096 27-01-2017 06:30:00 -7.1 C 2.75 g/m*3 -7.1 C 0 km/h
3097 27-01-2017 06:35:00 -7.2 C 2.73 g/m*3 -7.2 C 0 km/h
3098 27-01-2017 06:40:00 -7.1 C 2.75 g/m*3 -7.1 C 0 km/h
3099 27-01-2017 06:45:00 -7.1 C 2.75 g/m*3 -7.1 C 0 km/h
3100 27-01-2017 06:50:00 -7.1 C 2.75 g/m*3 -7.1 C 0 km/h
Sensor: Nr:Datum:Temp:Abs-Feuchte:Windchill:Wind:
Aussen-T/F 3101 27-01-2017 06:55:00 -7.2 C 2.73 g/m*3 -7.2 C 0 km/h
3102 27-01-2017 07:00:00 -7.3 C 2.71 g/m*3 -7.3 C 0 km/h
3103 27-01-2017 07:05:00 -7.3 C 2.71 g/m*3 -7.3 C 0 km/h
3104 27-01-2017 07:10:00 -7.3 C 2.71 g/m*3 -7.3 C 0 km/h
3105 27-01-2017 07:15:00 -7.3 C 2.71 g/m*3 -7.3 C 0 km/h
3106 27-01-2017 07:20:00 -7.4 C 2.66 g/m*3 -7.4 C 0 km/h
3107 27-01-2017 07:25:00 -7.3 C 2.71 g/m*3 -7.3 C 0 km/h
3108 27-01-2017 07:30:00 -7.3 C 2.71 g/m*3 -7.3 C 0 km/h
3109 27-01-2017 07:35:00 -7.3 C 2.71 g/m*3 -7.3 C 0 km/h
3110 27-01-2017 07:40:00 -7.4 C 2.66 g/m*3 -7.4 C 0 km/h
3111 27-01-2017 07:45:00 -7.4 C 2.66 g/m*3 -7.4 C 0 km/h
3112 27-01-2017 07:50:00 -7.4 C 2.69 g/m*3 -7.4 C 0 km/h
3113 27-01-2017 07:55:00 -7.4 C 2.69 g/m*3 -7.4 C 0 km/h
3114 27-01-2017 08:00:00 -7.4 C 2.69 g/m*3 -7.4 C 0 km/h
3115 27-01-2017 08:05:00 -7.5 C 2.67 g/m*3 -7.5 C 0 km/h
3116 27-01-2017 08:10:00 -7.4 C 2.69 g/m*3 -7.4 C 1.6 km/h
3117 27-01-2017 08:15:00 -7.3 C 2.71 g/m*3 -7.3 C 0 km/h
3118 27-01-2017 08:20:00 -7.3 C 2.71 g/m*3 -7.3 C 0 km/h
3119 27-01-2017 08:25:00 -7.3 C 2.71 g/m*3 -7.3 C 0 km/h
3120 27-01-2017 08:30:00 -7.3 C 2.71 g/m*3 -7.3 C 1.6 km/h
3121 27-01-2017 08:35:00 -7.2 C 2.73 g/m*3 -7.2 C 0 km/h
3122 27-01-2017 08:40:00 -7.2 C 2.73 g/m*3 -7.2 C 0 km/h
3123 27-01-2017 08:45:00 -7.2 C 2.73 g/m*3 -7.2 C 0 km/h
3124 27-01-2017 08:50:00 -7.1 C 2.75 g/m*3 -7.1 C 0 km/h
3125 27-01-2017 08:55:00 -6.9 C 2.79 g/m*3 -6.9 C 1.6 km/h
Sensor: Nr:Datum:Temp:Abs-Feuchte:Windchill:Wind:
Aussen-T/F 3126 27-01-2017 09:00:00 -6.8 C 2.81 g/m*3 -6.8 C 0 km/h
3127 27-01-2017 09:05:00 -6.7 C 2.83 g/m*3 -6.7 C 0 km/h
3128 27-01-2017 09:10:00 -6.6 C 2.85 g/m*3 -6.6 C 0 km/h
3129 27-01-2017 09:15:00 -6.6 C 2.85 g/m*3 -6.6 C 0 km/h
3130 27-01-2017 09:20:00 -6.4 C 2.89 g/m*3 -6.4 C 0 km/h
3131 27-01-2017 09:25:00 -6.4 C 2.89 g/m*3 -6.4 C 0 km/h
3132 27-01-2017 09:30:00 -6.3 C 2.91 g/m*3 -6.3 C 1.6 km/h
3133 27-01-2017 09:35:00 -6.2 C 2.93 g/m*3 -6.2 C 0 km/h
3134 27-01-2017 09:40:00 -6.1 C 2.96 g/m*3 -6.1 C 0 km/h
3135 27-01-2017 09:45:00 -5.9 C 3 g/m*3 -5.9 C 0 km/h
3136 27-01-2017 09:50:00 -5.9 C 3 g/m*3 -5.9 C 0 km/h
3137 27-01-2017 09:55:00 -5.8 C 3.02 g/m*3 -5.8 C 0 km/h
3138 27-01-2017 10:00:00 -5.6 C 3.06 g/m*3 -5.6 C 0 km/h
3139 27-01-2017 10:05:00 -5.5 C 3.09 g/m*3 -5.5 C 0 km/h
3140 27-01-2017 10:10:00 -5.4 C 3.11 g/m*3 -5.4 C 0 km/h
3141 27-01-2017 10:15:00 -5.3 C 3.13 g/m*3 -5.3 C 0 km/h
3142 27-01-2017 10:20:00 -5.2 C 3.15 g/m*3 -5.2 C 0 km/h
3143 27-01-2017 10:25:00 -5 C 3.2 g/m*3 -5 C 0 km/h
3144 27-01-2017 10:30:00 -4.9 C 3.22 g/m*3 -4.9 C 0 km/h
3145 27-01-2017 10:35:00 -4.7 C 3.27 g/m*3 -4.7 C 0 km/h
3146 27-01-2017 10:40:00 -4.6 C 3.29 g/m*3 -4.6 C 0 km/h
3147 27-01-2017 10:45:00 -4.5 C 3.32 g/m*3 -4.5 C 0 km/h
3148 27-01-2017 10:50:00 -4.3 C 3.37 g/m*3 -4.3 C 0 km/h
3149 27-01-2017 10:55:00 -4.2 C 3.39 g/m*3 -4.2 C 0 km/h
3150 27-01-2017 11:00:00 -3.9 C 3.46 g/m*3 -3.9 C 0 km/h
Sensor: Nr:Datum:Temp:Abs-Feuchte:Windchill:Wind:
Aussen-T/F 3151 27-01-2017 11:05:00 -3.8 C 3.49 g/m*3 -3.8 C 0 km/h
3152 27-01-2017 11:10:00 -3.6 C 3.54 g/m*3 -3.6 C 0 km/h
3153 27-01-2017 11:15:00 -3.4 C 3.55 g/m*3 -3.4 C 1.6 km/h
3154 27-01-2017 11:20:00 -3.2 C 3.6 g/m*3 -3.2 C 0 km/h
3155 27-01-2017 11:25:00 -3.1 C 3.63 g/m*3 -3.1 C 0 km/h
3156 27-01-2017 11:30:00 -2.9 C 3.68 g/m*3 -2.9 C 0 km/h
3157 27-01-2017 11:35:00 -2.7 C 3.73 g/m*3 -2.7 C 0 km/h
3158 27-01-2017 11:40:00 -2.5 C 3.74 g/m*3 -2.5 C 0 km/h
3159 27-01-2017 11:45:00 -2.3 C 3.8 g/m*3 -2.3 C 0 km/h
3160 27-01-2017 11:50:00 -2.2 C 3.78 g/m*3 -2.2 C 1.6 km/h
3161 27-01-2017 11:55:00 -2.1 C 3.81 g/m*3 -2.1 C 0 km/h
3162 27-01-2017 12:00:00 -1.9 C 3.82 g/m*3 -1.9 C 0 km/h
3163 27-01-2017 12:05:00 -1.7 C 3.87 g/m*3 -1.7 C 1.6 km/h
3164 27-01-2017 12:10:00 -1.6 C 3.86 g/m*3 -1.6 C 0 km/h
3165 27-01-2017 12:15:00 -1.5 C 3.84 g/m*3 -1.5 C 0 km/h
3166 27-01-2017 12:20:00 -1.3 C 3.85 g/m*3 -1.3 C 0 km/h
3167 27-01-2017 12:25:00 -1.2 C 3.83 g/m*3 -1.2 C 0 km/h
3168 27-01-2017 12:30:00 -1.1 C 3.86 g/m*3 -1.1 C 0 km/h
3169 27-01-2017 12:35:00 -0.9 C 3.87 g/m*3 -0.9 C 0 km/h
3170 27-01-2017 12:40:00 -0.7 C 3.92 g/m*3 -0.7 C 0 km/h
3171 27-01-2017 12:45:00 -0.5 C 3.98 g/m*3 -0.5 C 0 km/h
3172 27-01-2017 12:50:00 -0.3 C 3.99 g/m*3 -0.3 C 0 km/h
3173 27-01-2017 12:55:00 -0.2 C 4.01 g/m*3 -0.2 C 0 km/h
3174 27-01-2017 13:00:00 0 C 4.02 g/m*3 0 C 0 km/h
3175 27-01-2017 13:05:00 0.2 C 4.08 g/m*3 0.2 C 0 km/h
Sensor: Nr:Datum:Temp:Abs-Feuchte:Windchill:Wind:
Aussen-T/F 3176 27-01-2017 13:10:00 0.3 C 4.11 g/m*3 0.3 C 0 km/h
3177 27-01-2017 13:15:00 0.5 C 4.11 g/m*3 0.5 C 0 km/h
3178 27-01-2017 13:20:00 0.8 C 4.2 g/m*3 0.8 C 0 km/h
3179 27-01-2017 13:25:00 1 C 4.2 g/m*3 1 C 0 km/h
3180 27-01-2017 13:30:00 1.2 C 4.21 g/m*3 1.2 C 0 km/h
3181 27-01-2017 13:35:00 1.4 C 4.27 g/m*3 1.4 C 0 km/h
3182 27-01-2017 13:40:00 1.6 C 4.27 g/m*3 1.6 C 0 km/h
3183 27-01-2017 13:45:00 1.7 C 4.3 g/m*3 1.7 C 0 km/h
3184 27-01-2017 13:50:00 1.9 C 4.3 g/m*3 1.9 C 1.6 km/h
3185 27-01-2017 13:55:00 2 C 4.28 g/m*3 2 C 0 km/h
3186 27-01-2017 14:00:00 2.1 C 4.31 g/m*3 2.1 C 0 km/h
3187 27-01-2017 14:05:00 2.2 C 4.28 g/m*3 2.2 C 0 km/h
3188 27-01-2017 14:10:00 2.2 C 4.22 g/m*3 2.2 C 0 km/h
3189 27-01-2017 14:15:00 2.3 C 4.37 g/m*3 2.3 C 0 km/h
3190 27-01-2017 14:20:00 2.4 C 4.45 g/m*3 2.4 C 0 km/h
3191 27-01-2017 14:25:00 2.6 C 4.46 g/m*3 2.6 C 0 km/h
3192 27-01-2017 14:30:00 2.8 C 4.63 g/m*3 2.8 C 0 km/h
3193 27-01-2017 14:35:00 2.9 C 4.67 g/m*3 2.9 C 0 km/h
3194 27-01-2017 14:40:00 3.1 C 4.67 g/m*3 3.1 C 0 km/h
3195 27-01-2017 14:45:00 3.2 C 4.7 g/m*3 3.2 C 0 km/h
3196 27-01-2017 14:50:00 3.3 C 4.79 g/m*3 3.3 C 0 km/h
3197 27-01-2017 14:55:00 3.3 C 4.79 g/m*3 3.3 C 0 km/h
3198 27-01-2017 15:00:00 3.3 C 4.79 g/m*3 3.3 C 0 km/h
3199 27-01-2017 15:05:00 3.3 C 4.85 g/m*3 3.3 C 0 km/h
3200 27-01-2017 15:10:00 3.2 C 4.76 g/m*3 3.2 C 0 km/h
Sensor: Nr:Datum:Temp:Abs-Feuchte:Windchill:Wind:
Aussen-T/F 3201 27-01-2017 15:15:00 3.1 C 4.79 g/m*3 3.1 C 0 km/h
3202 27-01-2017 15:20:00 2.9 C 4.72 g/m*3 2.9 C 0 km/h
3203 27-01-2017 15:25:00 2.8 C 4.75 g/m*3 2.8 C 0 km/h
3204 27-01-2017 15:30:00 2.6 C 4.75 g/m*3 2.6 C 0 km/h
3205 27-01-2017 15:35:00 2.4 C 4.68 g/m*3 2.4 C 0 km/h
3206 27-01-2017 15:40:00 2.3 C 4.65 g/m*3 2.3 C 0 km/h
3207 27-01-2017 15:45:00 2.1 C 4.64 g/m*3 2.1 C 0 km/h
3208 27-01-2017 15:50:00 1.9 C 4.64 g/m*3 1.9 C 0 km/h
3209 27-01-2017 15:55:00 1.8 C 4.6 g/m*3 1.8 C 0 km/h
3210 27-01-2017 16:00:00 1.7 C 4.57 g/m*3 1.7 C 0 km/h
3211 27-01-2017 16:05:00 1.6 C 4.54 g/m*3 1.6 C 0 km/h
3212 27-01-2017 16:10:00 1.5 C 4.57 g/m*3 1.5 C 0 km/h
3213 27-01-2017 16:15:00 1.4 C 4.53 g/m*3 1.4 C 0 km/h
3214 27-01-2017 16:20:00 1.3 C 4.56 g/m*3 1.3 C 0 km/h
3215 27-01-2017 16:25:00 1.3 C 4.56 g/m*3 1.3 C 0 km/h
3216 27-01-2017 16:30:00 1.2 C 4.53 g/m*3 1.2 C 0 km/h
3217 27-01-2017 16:35:00 1.2 C 4.53 g/m*3 1.2 C 3.2 km/h
3218 27-01-2017 16:40:00 1.1 C 4.49 g/m*3 1.1 C 3.2 km/h
3219 27-01-2017 16:45:00 0.9 C 4.43 g/m*3 0.9 C 3.2 km/h
3220 27-01-2017 16:50:00 0.9 C 4.43 g/m*3 0.9 C 3.2 km/h
3221 27-01-2017 16:55:00 0.8 C 4.45 g/m*3 0.8 C 1.6 km/h
3222 27-01-2017 17:00:00 0.7 C 4.42 g/m*3 0.7 C 0 km/h